<?xml version="1.0" encoding="UTF-8" standalone="no" ?>
<gpx xmlns="http://www.topografix.com/GPX/1/1" xmlns:xsi="http://www.w3.org/2001/XMLSchema-instance" xsi:schemaLocation="http://www.topografix.com/GPX/1/1 http://www.topografix.com/GPX/1/1/gpx.xsd" version="1.1" creator="VisuGPX - https://www.visugpx.com">
  <metadata>
    <name>Le Charmant Som en Raquettes</name>
    <desc><![CDATA[Charmant Som en ski de rando par la Pinéa puis les Cottaves: excellent]]></desc>
  </metadata>
  <trk>
    <name><![CDATA[Le Charmant Som en Raquettes_1]]></name>
    <trkseg>
      <trkpt lat="45.29429" lon="5.75233">
        <ele>1466.803</ele>
        <time>2019-02-15T11:59:01Z</time>
      </trkpt>
      <trkpt lat="45.29428" lon="5.7523">
        <ele>1456.32</ele>
        <time>2019-02-15T11:59:11Z</time>
      </trkpt>
      <trkpt lat="45.29423" lon="5.75236">
        <ele>1462.302</ele>
        <time>2019-02-15T11:59:21Z</time>
      </trkpt>
      <trkpt lat="45.29424" lon="5.75235">
        <ele>1464.761</ele>
        <time>2019-02-15T11:59:31Z</time>
      </trkpt>
      <trkpt lat="45.29424" lon="5.75235">
        <ele>1464.102</ele>
        <time>2019-02-15T11:59:41Z</time>
      </trkpt>
      <trkpt lat="45.29415" lon="5.75231">
        <ele>1463.781</ele>
        <time>2019-02-15T11:59:52Z</time>
      </trkpt>
      <trkpt lat="45.29408" lon="5.75214">
        <ele>1462.709</ele>
        <time>2019-02-15T12:00:02Z</time>
      </trkpt>
      <trkpt lat="45.29402" lon="5.75195">
        <ele>1461.409</ele>
        <time>2019-02-15T12:00:13Z</time>
      </trkpt>
      <trkpt lat="45.29401" lon="5.75188">
        <ele>1461.271</ele>
        <time>2019-02-15T12:00:23Z</time>
      </trkpt>
      <trkpt lat="45.29399" lon="5.75177">
        <ele>1460.968</ele>
        <time>2019-02-15T12:00:34Z</time>
      </trkpt>
      <trkpt lat="45.29394" lon="5.75171">
        <ele>1459.802</ele>
        <time>2019-02-15T12:00:45Z</time>
      </trkpt>
      <trkpt lat="45.29392" lon="5.75169">
        <ele>1458.457</ele>
        <time>2019-02-15T12:00:55Z</time>
      </trkpt>
      <trkpt lat="45.2939" lon="5.75157">
        <ele>1457.527</ele>
        <time>2019-02-15T12:01:06Z</time>
      </trkpt>
      <trkpt lat="45.29394" lon="5.75146">
        <ele>1457.332</ele>
        <time>2019-02-15T12:01:16Z</time>
      </trkpt>
      <trkpt lat="45.29395" lon="5.75141">
        <ele>1455.867</ele>
        <time>2019-02-15T12:01:27Z</time>
      </trkpt>
      <trkpt lat="45.29387" lon="5.75133">
        <ele>1453.847</ele>
        <time>2019-02-15T12:01:38Z</time>
      </trkpt>
      <trkpt lat="45.2938" lon="5.75122">
        <ele>1452.659</ele>
        <time>2019-02-15T12:01:48Z</time>
      </trkpt>
      <trkpt lat="45.29377" lon="5.75118">
        <ele>1450.912</ele>
        <time>2019-02-15T12:01:58Z</time>
      </trkpt>
      <trkpt lat="45.29386" lon="5.75095">
        <ele>1448.608</ele>
        <time>2019-02-15T12:02:09Z</time>
      </trkpt>
      <trkpt lat="45.29391" lon="5.75086">
        <ele>1447.925</ele>
        <time>2019-02-15T12:02:20Z</time>
      </trkpt>
      <trkpt lat="45.2939" lon="5.75077">
        <ele>1446.588</ele>
        <time>2019-02-15T12:02:31Z</time>
      </trkpt>
      <trkpt lat="45.29386" lon="5.75062">
        <ele>1445.955</ele>
        <time>2019-02-15T12:02:42Z</time>
      </trkpt>
      <trkpt lat="45.29384" lon="5.75062">
        <ele>1445.937</ele>
        <time>2019-02-15T12:02:53Z</time>
      </trkpt>
      <trkpt lat="45.29381" lon="5.75051">
        <ele>1445.476</ele>
        <time>2019-02-15T12:03:03Z</time>
      </trkpt>
      <trkpt lat="45.29379" lon="5.75029">
        <ele>1446.904</ele>
        <time>2019-02-15T12:03:14Z</time>
      </trkpt>
      <trkpt lat="45.2938" lon="5.75021">
        <ele>1448.104</ele>
        <time>2019-02-15T12:03:25Z</time>
      </trkpt>
      <trkpt lat="45.29376" lon="5.75012">
        <ele>1448.846</ele>
        <time>2019-02-15T12:03:36Z</time>
      </trkpt>
      <trkpt lat="45.29379" lon="5.75001">
        <ele>1446.949</ele>
        <time>2019-02-15T12:03:46Z</time>
      </trkpt>
      <trkpt lat="45.29381" lon="5.74997">
        <ele>1444.476</ele>
        <time>2019-02-15T12:03:56Z</time>
      </trkpt>
      <trkpt lat="45.29382" lon="5.75003">
        <ele>1442.432</ele>
        <time>2019-02-15T12:04:07Z</time>
      </trkpt>
      <trkpt lat="45.29382" lon="5.75004">
        <ele>1441.753</ele>
        <time>2019-02-15T12:04:18Z</time>
      </trkpt>
      <trkpt lat="45.29365" lon="5.74962">
        <ele>1444.613</ele>
        <time>2019-02-15T12:04:29Z</time>
      </trkpt>
      <trkpt lat="45.29371" lon="5.74961">
        <ele>1447.35</ele>
        <time>2019-02-15T12:04:40Z</time>
      </trkpt>
      <trkpt lat="45.29374" lon="5.74954">
        <ele>1449.516</ele>
        <time>2019-02-15T12:04:51Z</time>
      </trkpt>
      <trkpt lat="45.29384" lon="5.7494">
        <ele>1448.292</ele>
        <time>2019-02-15T12:05:02Z</time>
      </trkpt>
      <trkpt lat="45.29387" lon="5.74927">
        <ele>1443.278</ele>
        <time>2019-02-15T12:05:13Z</time>
      </trkpt>
      <trkpt lat="45.29393" lon="5.74897">
        <ele>1437.278</ele>
        <time>2019-02-15T12:05:24Z</time>
      </trkpt>
      <trkpt lat="45.29395" lon="5.74876">
        <ele>1435.739</ele>
        <time>2019-02-15T12:05:35Z</time>
      </trkpt>
      <trkpt lat="45.29404" lon="5.74869">
        <ele>1436.461</ele>
        <time>2019-02-15T12:05:46Z</time>
      </trkpt>
      <trkpt lat="45.29418" lon="5.74871">
        <ele>1438.926</ele>
        <time>2019-02-15T12:05:56Z</time>
      </trkpt>
      <trkpt lat="45.29426" lon="5.74873">
        <ele>1444.29</ele>
        <time>2019-02-15T12:06:07Z</time>
      </trkpt>
      <trkpt lat="45.29421" lon="5.74871">
        <ele>1448.718</ele>
        <time>2019-02-15T12:06:17Z</time>
      </trkpt>
      <trkpt lat="45.29423" lon="5.74869">
        <ele>1452.103</ele>
        <time>2019-02-15T12:06:27Z</time>
      </trkpt>
      <trkpt lat="45.2942" lon="5.74868">
        <ele>1456.761</ele>
        <time>2019-02-15T12:06:38Z</time>
      </trkpt>
      <trkpt lat="45.2942" lon="5.74869">
        <ele>1460.362</ele>
        <time>2019-02-15T12:06:50Z</time>
      </trkpt>
      <trkpt lat="45.29418" lon="5.74872">
        <ele>1464.988</ele>
        <time>2019-02-15T12:07:01Z</time>
      </trkpt>
      <trkpt lat="45.29422" lon="5.74864">
        <ele>1469.165</ele>
        <time>2019-02-15T12:07:12Z</time>
      </trkpt>
      <trkpt lat="45.29426" lon="5.74859">
        <ele>1472.989</ele>
        <time>2019-02-15T12:07:22Z</time>
      </trkpt>
      <trkpt lat="45.29427" lon="5.74857">
        <ele>1475.019</ele>
        <time>2019-02-15T12:07:34Z</time>
      </trkpt>
      <trkpt lat="45.29427" lon="5.74858">
        <ele>1475.981</ele>
        <time>2019-02-15T12:07:48Z</time>
      </trkpt>
      <trkpt lat="45.29425" lon="5.74864">
        <ele>1477.701</ele>
        <time>2019-02-15T12:08:02Z</time>
      </trkpt>
      <trkpt lat="45.29417" lon="5.74854">
        <ele>1478.486</ele>
        <time>2019-02-15T12:08:13Z</time>
      </trkpt>
      <trkpt lat="45.29415" lon="5.74837">
        <ele>1482.049</ele>
        <time>2019-02-15T12:08:24Z</time>
      </trkpt>
      <trkpt lat="45.29412" lon="5.74834">
        <ele>1485.576</ele>
        <time>2019-02-15T12:08:34Z</time>
      </trkpt>
      <trkpt lat="45.29419" lon="5.7484">
        <ele>1489.012</ele>
        <time>2019-02-15T12:08:44Z</time>
      </trkpt>
      <trkpt lat="45.29423" lon="5.74834">
        <ele>1492.287</ele>
        <time>2019-02-15T12:08:55Z</time>
      </trkpt>
      <trkpt lat="45.29427" lon="5.74826">
        <ele>1495.567</ele>
        <time>2019-02-15T12:09:06Z</time>
      </trkpt>
      <trkpt lat="45.29427" lon="5.74824">
        <ele>1497.552</ele>
        <time>2019-02-15T12:09:16Z</time>
      </trkpt>
      <trkpt lat="45.29431" lon="5.7482">
        <ele>1499.412</ele>
        <time>2019-02-15T12:09:27Z</time>
      </trkpt>
      <trkpt lat="45.29432" lon="5.7482">
        <ele>1500.058</ele>
        <time>2019-02-15T12:09:38Z</time>
      </trkpt>
      <trkpt lat="45.29432" lon="5.74823">
        <ele>1500.809</ele>
        <time>2019-02-15T12:09:49Z</time>
      </trkpt>
      <trkpt lat="45.29432" lon="5.74826">
        <ele>1501.25</ele>
        <time>2019-02-15T12:09:59Z</time>
      </trkpt>
      <trkpt lat="45.29432" lon="5.74827">
        <ele>1501.417</ele>
        <time>2019-02-15T12:10:09Z</time>
      </trkpt>
      <trkpt lat="45.29433" lon="5.74834">
        <ele>1502.265</ele>
        <time>2019-02-15T12:10:20Z</time>
      </trkpt>
      <trkpt lat="45.29434" lon="5.74828">
        <ele>1502.279</ele>
        <time>2019-02-15T12:10:30Z</time>
      </trkpt>
      <trkpt lat="45.29427" lon="5.74815">
        <ele>1501.865</ele>
        <time>2019-02-15T12:10:42Z</time>
      </trkpt>
      <trkpt lat="45.29426" lon="5.74814">
        <ele>1501.449</ele>
        <time>2019-02-15T12:10:53Z</time>
      </trkpt>
      <trkpt lat="45.29425" lon="5.7481">
        <ele>1500.908</ele>
        <time>2019-02-15T12:11:03Z</time>
      </trkpt>
      <trkpt lat="45.29426" lon="5.74803">
        <ele>1498.547</ele>
        <time>2019-02-15T12:11:14Z</time>
      </trkpt>
      <trkpt lat="45.29424" lon="5.74801">
        <ele>1493.552</ele>
        <time>2019-02-15T12:11:26Z</time>
      </trkpt>
      <trkpt lat="45.29418" lon="5.74808">
        <ele>1488.766</ele>
        <time>2019-02-15T12:11:36Z</time>
      </trkpt>
      <trkpt lat="45.29418" lon="5.74808">
        <ele>1485.533</ele>
        <time>2019-02-15T12:11:47Z</time>
      </trkpt>
      <trkpt lat="45.29425" lon="5.7481">
        <ele>1484.233</ele>
        <time>2019-02-15T12:11:58Z</time>
      </trkpt>
      <trkpt lat="45.2942" lon="5.74812">
        <ele>1483.523</ele>
        <time>2019-02-15T12:12:08Z</time>
      </trkpt>
      <trkpt lat="45.2942" lon="5.74808">
        <ele>1482.827</ele>
        <time>2019-02-15T12:12:19Z</time>
      </trkpt>
      <trkpt lat="45.2942" lon="5.74811">
        <ele>1483.017</ele>
        <time>2019-02-15T12:12:29Z</time>
      </trkpt>
      <trkpt lat="45.29416" lon="5.7482">
        <ele>1486.04</ele>
        <time>2019-02-15T12:12:40Z</time>
      </trkpt>
      <trkpt lat="45.29421" lon="5.74818">
        <ele>1488.418</ele>
        <time>2019-02-15T12:12:50Z</time>
      </trkpt>
      <trkpt lat="45.29426" lon="5.74813">
        <ele>1490.97</ele>
        <time>2019-02-15T12:13:01Z</time>
      </trkpt>
      <trkpt lat="45.29425" lon="5.74815">
        <ele>1491.828</ele>
        <time>2019-02-15T12:13:11Z</time>
      </trkpt>
      <trkpt lat="45.29424" lon="5.74817">
        <ele>1494.231</ele>
        <time>2019-02-15T12:13:21Z</time>
      </trkpt>
      <trkpt lat="45.29423" lon="5.74816">
        <ele>1497.644</ele>
        <time>2019-02-15T12:13:32Z</time>
      </trkpt>
      <trkpt lat="45.29425" lon="5.74815">
        <ele>1498.224</ele>
        <time>2019-02-15T12:13:42Z</time>
      </trkpt>
      <trkpt lat="45.29427" lon="5.74804">
        <ele>1498.807</ele>
        <time>2019-02-15T12:13:52Z</time>
      </trkpt>
      <trkpt lat="45.2943" lon="5.74801">
        <ele>1499.028</ele>
        <time>2019-02-15T12:14:03Z</time>
      </trkpt>
      <trkpt lat="45.29428" lon="5.74805">
        <ele>1499.392</ele>
        <time>2019-02-15T12:14:14Z</time>
      </trkpt>
      <trkpt lat="45.29428" lon="5.74811">
        <ele>1500.956</ele>
        <time>2019-02-15T12:14:24Z</time>
      </trkpt>
      <trkpt lat="45.29427" lon="5.74809">
        <ele>1502.792</ele>
        <time>2019-02-15T12:14:34Z</time>
      </trkpt>
      <trkpt lat="45.29425" lon="5.74805">
        <ele>1503.957</ele>
        <time>2019-02-15T12:14:44Z</time>
      </trkpt>
      <trkpt lat="45.29423" lon="5.74801">
        <ele>1504.96</ele>
        <time>2019-02-15T12:14:55Z</time>
      </trkpt>
      <trkpt lat="45.29424" lon="5.74797">
        <ele>1506.057</ele>
        <time>2019-02-15T12:15:05Z</time>
      </trkpt>
      <trkpt lat="45.29425" lon="5.74793">
        <ele>1507.457</ele>
        <time>2019-02-15T12:15:16Z</time>
      </trkpt>
      <trkpt lat="45.29424" lon="5.74798">
        <ele>1508.552</ele>
        <time>2019-02-15T12:15:26Z</time>
      </trkpt>
      <trkpt lat="45.29423" lon="5.74797">
        <ele>1509.078</ele>
        <time>2019-02-15T12:15:36Z</time>
      </trkpt>
      <trkpt lat="45.29419" lon="5.74797">
        <ele>1509.354</ele>
        <time>2019-02-15T12:15:46Z</time>
      </trkpt>
      <trkpt lat="45.29415" lon="5.74797">
        <ele>1509.079</ele>
        <time>2019-02-15T12:15:56Z</time>
      </trkpt>
      <trkpt lat="45.29413" lon="5.74797">
        <ele>1508.658</ele>
        <time>2019-02-15T12:16:07Z</time>
      </trkpt>
      <trkpt lat="45.29405" lon="5.7479">
        <ele>1509.186</ele>
        <time>2019-02-15T12:16:18Z</time>
      </trkpt>
      <trkpt lat="45.29409" lon="5.74784">
        <ele>1509.552</ele>
        <time>2019-02-15T12:16:28Z</time>
      </trkpt>
      <trkpt lat="45.29406" lon="5.74789">
        <ele>1509.11</ele>
        <time>2019-02-15T12:16:39Z</time>
      </trkpt>
      <trkpt lat="45.29416" lon="5.74789">
        <ele>1507.596</ele>
        <time>2019-02-15T12:16:50Z</time>
      </trkpt>
      <trkpt lat="45.29423" lon="5.74795">
        <ele>1499.99</ele>
        <time>2019-02-15T12:17:01Z</time>
      </trkpt>
      <trkpt lat="45.29414" lon="5.74796">
        <ele>1496.77</ele>
        <time>2019-02-15T12:17:12Z</time>
      </trkpt>
      <trkpt lat="45.29412" lon="5.74798">
        <ele>1496.028</ele>
        <time>2019-02-15T12:17:23Z</time>
      </trkpt>
      <trkpt lat="45.29415" lon="5.74799">
        <ele>1496.01</ele>
        <time>2019-02-15T12:17:33Z</time>
      </trkpt>
      <trkpt lat="45.29425" lon="5.74794">
        <ele>1496.505</ele>
        <time>2019-02-15T12:17:43Z</time>
      </trkpt>
      <trkpt lat="45.29429" lon="5.74792">
        <ele>1497.048</ele>
        <time>2019-02-15T12:17:54Z</time>
      </trkpt>
      <trkpt lat="45.2943" lon="5.74796">
        <ele>1496.586</ele>
        <time>2019-02-15T12:18:04Z</time>
      </trkpt>
      <trkpt lat="45.29435" lon="5.74808">
        <ele>1495.369</ele>
        <time>2019-02-15T12:18:14Z</time>
      </trkpt>
      <trkpt lat="45.29432" lon="5.74808">
        <ele>1494.563</ele>
        <time>2019-02-15T12:18:25Z</time>
      </trkpt>
      <trkpt lat="45.2944" lon="5.74806">
        <ele>1495.268</ele>
        <time>2019-02-15T12:18:35Z</time>
      </trkpt>
      <trkpt lat="45.29447" lon="5.74812">
        <ele>1493.971</ele>
        <time>2019-02-15T12:18:46Z</time>
      </trkpt>
      <trkpt lat="45.2945" lon="5.74823">
        <ele>1491.909</ele>
        <time>2019-02-15T12:18:57Z</time>
      </trkpt>
      <trkpt lat="45.29457" lon="5.74827">
        <ele>1489.612</ele>
        <time>2019-02-15T12:19:08Z</time>
      </trkpt>
      <trkpt lat="45.2946" lon="5.7483">
        <ele>1486.319</ele>
        <time>2019-02-15T12:19:19Z</time>
      </trkpt>
      <trkpt lat="45.29467" lon="5.74829">
        <ele>1482.243</ele>
        <time>2019-02-15T12:19:29Z</time>
      </trkpt>
      <trkpt lat="45.29473" lon="5.74836">
        <ele>1479.763</ele>
        <time>2019-02-15T12:19:39Z</time>
      </trkpt>
      <trkpt lat="45.29483" lon="5.7484">
        <ele>1477.221</ele>
        <time>2019-02-15T12:19:49Z</time>
      </trkpt>
      <trkpt lat="45.29493" lon="5.74842">
        <ele>1473.638</ele>
        <time>2019-02-15T12:19:59Z</time>
      </trkpt>
      <trkpt lat="45.29495" lon="5.7487">
        <ele>1468.309</ele>
        <time>2019-02-15T12:20:10Z</time>
      </trkpt>
      <trkpt lat="45.29501" lon="5.74875">
        <ele>1464.07</ele>
        <time>2019-02-15T12:20:20Z</time>
      </trkpt>
      <trkpt lat="45.29505" lon="5.74873">
        <ele>1461.323</ele>
        <time>2019-02-15T12:20:31Z</time>
      </trkpt>
      <trkpt lat="45.29508" lon="5.74874">
        <ele>1461.241</ele>
        <time>2019-02-15T12:20:41Z</time>
      </trkpt>
      <trkpt lat="45.29514" lon="5.7487">
        <ele>1462.043</ele>
        <time>2019-02-15T12:20:52Z</time>
      </trkpt>
      <trkpt lat="45.29509" lon="5.74864">
        <ele>1463.394</ele>
        <time>2019-02-15T12:21:02Z</time>
      </trkpt>
      <trkpt lat="45.2951" lon="5.7486">
        <ele>1465.029</ele>
        <time>2019-02-15T12:21:12Z</time>
      </trkpt>
      <trkpt lat="45.2951" lon="5.74849">
        <ele>1467.819</ele>
        <time>2019-02-15T12:21:23Z</time>
      </trkpt>
      <trkpt lat="45.29514" lon="5.7484">
        <ele>1470.878</ele>
        <time>2019-02-15T12:21:33Z</time>
      </trkpt>
      <trkpt lat="45.2952" lon="5.74834">
        <ele>1473.943</ele>
        <time>2019-02-15T12:21:43Z</time>
      </trkpt>
      <trkpt lat="45.29518" lon="5.74831">
        <ele>1477.611</ele>
        <time>2019-02-15T12:21:54Z</time>
      </trkpt>
      <trkpt lat="45.29516" lon="5.74827">
        <ele>1483.301</ele>
        <time>2019-02-15T12:22:05Z</time>
      </trkpt>
      <trkpt lat="45.29515" lon="5.74819">
        <ele>1489.111</ele>
        <time>2019-02-15T12:22:16Z</time>
      </trkpt>
      <trkpt lat="45.2951" lon="5.74814">
        <ele>1495.137</ele>
        <time>2019-02-15T12:22:26Z</time>
      </trkpt>
      <trkpt lat="45.2951" lon="5.74812">
        <ele>1499.117</ele>
        <time>2019-02-15T12:22:37Z</time>
      </trkpt>
      <trkpt lat="45.29513" lon="5.74816">
        <ele>1503.381</ele>
        <time>2019-02-15T12:22:48Z</time>
      </trkpt>
      <trkpt lat="45.29521" lon="5.74827">
        <ele>1506.125</ele>
        <time>2019-02-15T12:22:59Z</time>
      </trkpt>
      <trkpt lat="45.29527" lon="5.74834">
        <ele>1506.998</ele>
        <time>2019-02-15T12:23:10Z</time>
      </trkpt>
      <trkpt lat="45.29527" lon="5.74822">
        <ele>1506.703</ele>
        <time>2019-02-15T12:23:21Z</time>
      </trkpt>
      <trkpt lat="45.29527" lon="5.74809">
        <ele>1503.985</ele>
        <time>2019-02-15T12:23:31Z</time>
      </trkpt>
      <trkpt lat="45.29528" lon="5.74802">
        <ele>1501.39</ele>
        <time>2019-02-15T12:23:41Z</time>
      </trkpt>
      <trkpt lat="45.29536" lon="5.7479">
        <ele>1500.395</ele>
        <time>2019-02-15T12:23:52Z</time>
      </trkpt>
      <trkpt lat="45.29543" lon="5.74783">
        <ele>1500.129</ele>
        <time>2019-02-15T12:24:03Z</time>
      </trkpt>
      <trkpt lat="45.29551" lon="5.74777">
        <ele>1500.308</ele>
        <time>2019-02-15T12:24:14Z</time>
      </trkpt>
      <trkpt lat="45.29555" lon="5.74769">
        <ele>1501.136</ele>
        <time>2019-02-15T12:24:25Z</time>
      </trkpt>
      <trkpt lat="45.29554" lon="5.7475">
        <ele>1501.962</ele>
        <time>2019-02-15T12:24:35Z</time>
      </trkpt>
      <trkpt lat="45.29552" lon="5.74735">
        <ele>1502.622</ele>
        <time>2019-02-15T12:24:45Z</time>
      </trkpt>
      <trkpt lat="45.29563" lon="5.74719">
        <ele>1502.162</ele>
        <time>2019-02-15T12:24:56Z</time>
      </trkpt>
      <trkpt lat="45.29569" lon="5.74709">
        <ele>1501.389</ele>
        <time>2019-02-15T12:25:07Z</time>
      </trkpt>
      <trkpt lat="45.2957" lon="5.74705">
        <ele>1501.362</ele>
        <time>2019-02-15T12:25:17Z</time>
      </trkpt>
      <trkpt lat="45.29571" lon="5.74698">
        <ele>1501.242</ele>
        <time>2019-02-15T12:25:27Z</time>
      </trkpt>
      <trkpt lat="45.29568" lon="5.7468">
        <ele>1500.828</ele>
        <time>2019-02-15T12:25:38Z</time>
      </trkpt>
      <trkpt lat="45.29569" lon="5.74651">
        <ele>1501.662</ele>
        <time>2019-02-15T12:25:49Z</time>
      </trkpt>
      <trkpt lat="45.29568" lon="5.74637">
        <ele>1503.685</ele>
        <time>2019-02-15T12:25:59Z</time>
      </trkpt>
      <trkpt lat="45.29559" lon="5.74615">
        <ele>1507.677</ele>
        <time>2019-02-15T12:26:10Z</time>
      </trkpt>
      <trkpt lat="45.2956" lon="5.7461">
        <ele>1513.182</ele>
        <time>2019-02-15T12:26:20Z</time>
      </trkpt>
      <trkpt lat="45.29561" lon="5.74596">
        <ele>1518.103</ele>
        <time>2019-02-15T12:26:31Z</time>
      </trkpt>
      <trkpt lat="45.29559" lon="5.74594">
        <ele>1521.835</ele>
        <time>2019-02-15T12:26:42Z</time>
      </trkpt>
      <trkpt lat="45.29557" lon="5.74586">
        <ele>1524.421</ele>
        <time>2019-02-15T12:26:53Z</time>
      </trkpt>
      <trkpt lat="45.29553" lon="5.74575">
        <ele>1525.255</ele>
        <time>2019-02-15T12:27:04Z</time>
      </trkpt>
      <trkpt lat="45.29546" lon="5.74558">
        <ele>1526.068</ele>
        <time>2019-02-15T12:27:15Z</time>
      </trkpt>
      <trkpt lat="45.29541" lon="5.74553">
        <ele>1528.141</ele>
        <time>2019-02-15T12:27:25Z</time>
      </trkpt>
      <trkpt lat="45.29527" lon="5.74526">
        <ele>1534.228</ele>
        <time>2019-02-15T12:27:36Z</time>
      </trkpt>
      <trkpt lat="45.29518" lon="5.74517">
        <ele>1540.906</ele>
        <time>2019-02-15T12:27:46Z</time>
      </trkpt>
      <trkpt lat="45.2951" lon="5.74508">
        <ele>1545.824</ele>
        <time>2019-02-15T12:27:57Z</time>
      </trkpt>
      <trkpt lat="45.29503" lon="5.745">
        <ele>1551.777</ele>
        <time>2019-02-15T12:28:07Z</time>
      </trkpt>
      <trkpt lat="45.29496" lon="5.74493">
        <ele>1558.167</ele>
        <time>2019-02-15T12:28:18Z</time>
      </trkpt>
      <trkpt lat="45.29488" lon="5.74485">
        <ele>1563.99</ele>
        <time>2019-02-15T12:28:29Z</time>
      </trkpt>
      <trkpt lat="45.29487" lon="5.74483">
        <ele>1569.889</ele>
        <time>2019-02-15T12:28:39Z</time>
      </trkpt>
      <trkpt lat="45.29479" lon="5.74486">
        <ele>1574.522</ele>
        <time>2019-02-15T12:28:50Z</time>
      </trkpt>
      <trkpt lat="45.2947" lon="5.74475">
        <ele>1577.444</ele>
        <time>2019-02-15T12:29:00Z</time>
      </trkpt>
      <trkpt lat="45.29461" lon="5.74481">
        <ele>1579.103</ele>
        <time>2019-02-15T12:29:11Z</time>
      </trkpt>
      <trkpt lat="45.29446" lon="5.74481">
        <ele>1580.447</ele>
        <time>2019-02-15T12:29:22Z</time>
      </trkpt>
      <trkpt lat="45.29434" lon="5.74478">
        <ele>1581.452</ele>
        <time>2019-02-15T12:29:33Z</time>
      </trkpt>
      <trkpt lat="45.29429" lon="5.74482">
        <ele>1581.553</ele>
        <time>2019-02-15T12:29:44Z</time>
      </trkpt>
      <trkpt lat="45.29425" lon="5.74474">
        <ele>1581.582</ele>
        <time>2019-02-15T12:29:54Z</time>
      </trkpt>
      <trkpt lat="45.29414" lon="5.74454">
        <ele>1582.047</ele>
        <time>2019-02-15T12:30:04Z</time>
      </trkpt>
      <trkpt lat="45.29402" lon="5.74447">
        <ele>1583.069</ele>
        <time>2019-02-15T12:30:15Z</time>
      </trkpt>
      <trkpt lat="45.29395" lon="5.7444">
        <ele>1583.609</ele>
        <time>2019-02-15T12:30:25Z</time>
      </trkpt>
      <trkpt lat="45.29387" lon="5.74428">
        <ele>1585.716</ele>
        <time>2019-02-15T12:30:36Z</time>
      </trkpt>
      <trkpt lat="45.29387" lon="5.74425">
        <ele>1588.488</ele>
        <time>2019-02-15T12:30:46Z</time>
      </trkpt>
      <trkpt lat="45.2938" lon="5.74419">
        <ele>1591.687</ele>
        <time>2019-02-15T12:30:57Z</time>
      </trkpt>
      <trkpt lat="45.29377" lon="5.74416">
        <ele>1593.562</ele>
        <time>2019-02-15T12:31:08Z</time>
      </trkpt>
      <trkpt lat="45.29372" lon="5.74411">
        <ele>1596.92</ele>
        <time>2019-02-15T12:31:18Z</time>
      </trkpt>
      <trkpt lat="45.29364" lon="5.74407">
        <ele>1600.725</ele>
        <time>2019-02-15T12:31:29Z</time>
      </trkpt>
      <trkpt lat="45.29359" lon="5.74404">
        <ele>1604.418</ele>
        <time>2019-02-15T12:31:40Z</time>
      </trkpt>
      <trkpt lat="45.29351" lon="5.74402">
        <ele>1606.649</ele>
        <time>2019-02-15T12:31:50Z</time>
      </trkpt>
      <trkpt lat="45.29347" lon="5.74403">
        <ele>1609.548</ele>
        <time>2019-02-15T12:32:01Z</time>
      </trkpt>
      <trkpt lat="45.29346" lon="5.744">
        <ele>1612.493</ele>
        <time>2019-02-15T12:32:12Z</time>
      </trkpt>
      <trkpt lat="45.29337" lon="5.74386">
        <ele>1614.998</ele>
        <time>2019-02-15T12:32:23Z</time>
      </trkpt>
      <trkpt lat="45.29341" lon="5.74374">
        <ele>1617.956</ele>
        <time>2019-02-15T12:32:33Z</time>
      </trkpt>
      <trkpt lat="45.29349" lon="5.74367">
        <ele>1622</ele>
        <time>2019-02-15T12:32:44Z</time>
      </trkpt>
      <trkpt lat="45.29356" lon="5.74368">
        <ele>1624.429</ele>
        <time>2019-02-15T12:32:54Z</time>
      </trkpt>
      <trkpt lat="45.29358" lon="5.74368">
        <ele>1626.495</ele>
        <time>2019-02-15T12:33:05Z</time>
      </trkpt>
      <trkpt lat="45.29372" lon="5.7436">
        <ele>1628.972</ele>
        <time>2019-02-15T12:33:16Z</time>
      </trkpt>
      <trkpt lat="45.29375" lon="5.74357">
        <ele>1630.838</ele>
        <time>2019-02-15T12:33:27Z</time>
      </trkpt>
      <trkpt lat="45.29385" lon="5.74355">
        <ele>1631.252</ele>
        <time>2019-02-15T12:33:38Z</time>
      </trkpt>
      <trkpt lat="45.29394" lon="5.74354">
        <ele>1632.04</ele>
        <time>2019-02-15T12:33:49Z</time>
      </trkpt>
      <trkpt lat="45.29409" lon="5.74351">
        <ele>1633.324</ele>
        <time>2019-02-15T12:34:00Z</time>
      </trkpt>
      <trkpt lat="45.29434" lon="5.74345">
        <ele>1635.209</ele>
        <time>2019-02-15T12:34:10Z</time>
      </trkpt>
      <trkpt lat="45.29445" lon="5.74344">
        <ele>1638.215</ele>
        <time>2019-02-15T12:34:21Z</time>
      </trkpt>
      <trkpt lat="45.2945" lon="5.74344">
        <ele>1640.617</ele>
        <time>2019-02-15T12:34:32Z</time>
      </trkpt>
      <trkpt lat="45.29458" lon="5.74345">
        <ele>1642.521</ele>
        <time>2019-02-15T12:34:43Z</time>
      </trkpt>
      <trkpt lat="45.29462" lon="5.74345">
        <ele>1644.258</ele>
        <time>2019-02-15T12:34:54Z</time>
      </trkpt>
      <trkpt lat="45.29477" lon="5.7434">
        <ele>1646.805</ele>
        <time>2019-02-15T12:35:05Z</time>
      </trkpt>
      <trkpt lat="45.29483" lon="5.74342">
        <ele>1649.249</ele>
        <time>2019-02-15T12:35:16Z</time>
      </trkpt>
      <trkpt lat="45.29496" lon="5.74346">
        <ele>1652.579</ele>
        <time>2019-02-15T12:35:27Z</time>
      </trkpt>
      <trkpt lat="45.29505" lon="5.74349">
        <ele>1655.309</ele>
        <time>2019-02-15T12:35:38Z</time>
      </trkpt>
      <trkpt lat="45.2951" lon="5.74347">
        <ele>1658.177</ele>
        <time>2019-02-15T12:35:49Z</time>
      </trkpt>
      <trkpt lat="45.29511" lon="5.74347">
        <ele>1660.547</ele>
        <time>2019-02-15T12:36:00Z</time>
      </trkpt>
      <trkpt lat="45.29517" lon="5.74353">
        <ele>1662.064</ele>
        <time>2019-02-15T12:36:11Z</time>
      </trkpt>
      <trkpt lat="45.29521" lon="5.74353">
        <ele>1663.839</ele>
        <time>2019-02-15T12:36:21Z</time>
      </trkpt>
      <trkpt lat="45.29523" lon="5.74352">
        <ele>1664.854</ele>
        <time>2019-02-15T12:36:32Z</time>
      </trkpt>
      <trkpt lat="45.29528" lon="5.74358">
        <ele>1666.405</ele>
        <time>2019-02-15T12:36:42Z</time>
      </trkpt>
      <trkpt lat="45.29535" lon="5.7436">
        <ele>1668.744</ele>
        <time>2019-02-15T12:36:53Z</time>
      </trkpt>
      <trkpt lat="45.29547" lon="5.7437">
        <ele>1671.507</ele>
        <time>2019-02-15T12:37:03Z</time>
      </trkpt>
      <trkpt lat="45.29556" lon="5.74371">
        <ele>1673.602</ele>
        <time>2019-02-15T12:37:14Z</time>
      </trkpt>
      <trkpt lat="45.29568" lon="5.74374">
        <ele>1676.204</ele>
        <time>2019-02-15T12:37:25Z</time>
      </trkpt>
      <trkpt lat="45.2958" lon="5.74376">
        <ele>1680.075</ele>
        <time>2019-02-15T12:37:36Z</time>
      </trkpt>
      <trkpt lat="45.29591" lon="5.74381">
        <ele>1684.252</ele>
        <time>2019-02-15T12:37:47Z</time>
      </trkpt>
      <trkpt lat="45.29595" lon="5.74383">
        <ele>1686.875</ele>
        <time>2019-02-15T12:37:57Z</time>
      </trkpt>
      <trkpt lat="45.29601" lon="5.74384">
        <ele>1688.474</ele>
        <time>2019-02-15T12:38:07Z</time>
      </trkpt>
      <trkpt lat="45.29612" lon="5.74386">
        <ele>1690.244</ele>
        <time>2019-02-15T12:38:18Z</time>
      </trkpt>
      <trkpt lat="45.29628" lon="5.7439">
        <ele>1692.106</ele>
        <time>2019-02-15T12:38:29Z</time>
      </trkpt>
      <trkpt lat="45.29639" lon="5.7439">
        <ele>1693.261</ele>
        <time>2019-02-15T12:38:40Z</time>
      </trkpt>
      <trkpt lat="45.2965" lon="5.74395">
        <ele>1693.265</ele>
        <time>2019-02-15T12:38:50Z</time>
      </trkpt>
      <trkpt lat="45.29667" lon="5.74389">
        <ele>1693.051</ele>
        <time>2019-02-15T12:39:01Z</time>
      </trkpt>
      <trkpt lat="45.29679" lon="5.74382">
        <ele>1694.004</ele>
        <time>2019-02-15T12:39:11Z</time>
      </trkpt>
      <trkpt lat="45.29689" lon="5.74374">
        <ele>1695.857</ele>
        <time>2019-02-15T12:39:21Z</time>
      </trkpt>
      <trkpt lat="45.29699" lon="5.74364">
        <ele>1697.751</ele>
        <time>2019-02-15T12:39:32Z</time>
      </trkpt>
      <trkpt lat="45.29704" lon="5.74358">
        <ele>1699.104</ele>
        <time>2019-02-15T12:39:43Z</time>
      </trkpt>
      <trkpt lat="45.29705" lon="5.74358">
        <ele>1699.276</ele>
        <time>2019-02-15T12:39:53Z</time>
      </trkpt>
      <trkpt lat="45.29705" lon="5.74358">
        <ele>1699.366</ele>
        <time>2019-02-15T12:40:04Z</time>
      </trkpt>
      <trkpt lat="45.29705" lon="5.74358">
        <ele>1699.526</ele>
        <time>2019-02-15T12:40:14Z</time>
      </trkpt>
      <trkpt lat="45.29705" lon="5.74358">
        <ele>1699.725</ele>
        <time>2019-02-15T12:40:24Z</time>
      </trkpt>
      <trkpt lat="45.29705" lon="5.74359">
        <ele>1700.356</ele>
        <time>2019-02-15T12:40:35Z</time>
      </trkpt>
      <trkpt lat="45.29704" lon="5.74357">
        <ele>1701.471</ele>
        <time>2019-02-15T12:40:45Z</time>
      </trkpt>
      <trkpt lat="45.2971" lon="5.74347">
        <ele>1701.55</ele>
        <time>2019-02-15T12:40:56Z</time>
      </trkpt>
      <trkpt lat="45.29718" lon="5.74332">
        <ele>1700.896</ele>
        <time>2019-02-15T12:41:06Z</time>
      </trkpt>
      <trkpt lat="45.29728" lon="5.74324">
        <ele>1701.451</ele>
        <time>2019-02-15T12:41:16Z</time>
      </trkpt>
      <trkpt lat="45.29741" lon="5.74311">
        <ele>1702.576</ele>
        <time>2019-02-15T12:41:27Z</time>
      </trkpt>
      <trkpt lat="45.29749" lon="5.74304">
        <ele>1703.345</ele>
        <time>2019-02-15T12:41:37Z</time>
      </trkpt>
      <trkpt lat="45.29754" lon="5.74301">
        <ele>1703.588</ele>
        <time>2019-02-15T12:41:48Z</time>
      </trkpt>
      <trkpt lat="45.29756" lon="5.74297">
        <ele>1703.843</ele>
        <time>2019-02-15T12:41:58Z</time>
      </trkpt>
      <trkpt lat="45.29757" lon="5.74288">
        <ele>1704.186</ele>
        <time>2019-02-15T12:42:09Z</time>
      </trkpt>
      <trkpt lat="45.29759" lon="5.74286">
        <ele>1703.957</ele>
        <time>2019-02-15T12:42:20Z</time>
      </trkpt>
      <trkpt lat="45.29765" lon="5.74281">
        <ele>1703.041</ele>
        <time>2019-02-15T12:42:31Z</time>
      </trkpt>
      <trkpt lat="45.29775" lon="5.74265">
        <ele>1701.979</ele>
        <time>2019-02-15T12:42:42Z</time>
      </trkpt>
      <trkpt lat="45.29781" lon="5.74258">
        <ele>1701.271</ele>
        <time>2019-02-15T12:42:53Z</time>
      </trkpt>
      <trkpt lat="45.2979" lon="5.74253">
        <ele>1700.884</ele>
        <time>2019-02-15T12:43:04Z</time>
      </trkpt>
      <trkpt lat="45.29801" lon="5.74256">
        <ele>1700.186</ele>
        <time>2019-02-15T12:43:15Z</time>
      </trkpt>
      <trkpt lat="45.29811" lon="5.74258">
        <ele>1699.314</ele>
        <time>2019-02-15T12:43:26Z</time>
      </trkpt>
      <trkpt lat="45.29822" lon="5.74261">
        <ele>1698.526</ele>
        <time>2019-02-15T12:43:36Z</time>
      </trkpt>
      <trkpt lat="45.2983" lon="5.74263">
        <ele>1697.892</ele>
        <time>2019-02-15T12:43:46Z</time>
      </trkpt>
      <trkpt lat="45.29843" lon="5.74269">
        <ele>1697.318</ele>
        <time>2019-02-15T12:43:57Z</time>
      </trkpt>
      <trkpt lat="45.29851" lon="5.74276">
        <ele>1696.666</ele>
        <time>2019-02-15T12:44:07Z</time>
      </trkpt>
      <trkpt lat="45.29862" lon="5.74282">
        <ele>1695.536</ele>
        <time>2019-02-15T12:44:17Z</time>
      </trkpt>
      <trkpt lat="45.29873" lon="5.74297">
        <ele>1695.087</ele>
        <time>2019-02-15T12:44:28Z</time>
      </trkpt>
      <trkpt lat="45.2988" lon="5.74309">
        <ele>1695.29</ele>
        <time>2019-02-15T12:44:39Z</time>
      </trkpt>
      <trkpt lat="45.29887" lon="5.74317">
        <ele>1696.152</ele>
        <time>2019-02-15T12:44:49Z</time>
      </trkpt>
      <trkpt lat="45.29894" lon="5.74331">
        <ele>1697.155</ele>
        <time>2019-02-15T12:45:00Z</time>
      </trkpt>
      <trkpt lat="45.29903" lon="5.7434">
        <ele>1698.076</ele>
        <time>2019-02-15T12:45:10Z</time>
      </trkpt>
      <trkpt lat="45.2991" lon="5.74346">
        <ele>1698.919</ele>
        <time>2019-02-15T12:45:21Z</time>
      </trkpt>
      <trkpt lat="45.29924" lon="5.74354">
        <ele>1699.071</ele>
        <time>2019-02-15T12:45:32Z</time>
      </trkpt>
      <trkpt lat="45.29938" lon="5.74358">
        <ele>1698.501</ele>
        <time>2019-02-15T12:45:43Z</time>
      </trkpt>
      <trkpt lat="45.29941" lon="5.7436">
        <ele>1698.249</ele>
        <time>2019-02-15T12:45:54Z</time>
      </trkpt>
      <trkpt lat="45.29941" lon="5.74367">
        <ele>1697.64</ele>
        <time>2019-02-15T12:46:04Z</time>
      </trkpt>
      <trkpt lat="45.29946" lon="5.74367">
        <ele>1696.186</ele>
        <time>2019-02-15T12:46:14Z</time>
      </trkpt>
      <trkpt lat="45.29957" lon="5.74374">
        <ele>1695.154</ele>
        <time>2019-02-15T12:46:25Z</time>
      </trkpt>
      <trkpt lat="45.29958" lon="5.74369">
        <ele>1694.091</ele>
        <time>2019-02-15T12:46:35Z</time>
      </trkpt>
      <trkpt lat="45.29955" lon="5.74359">
        <ele>1693.119</ele>
        <time>2019-02-15T12:46:46Z</time>
      </trkpt>
      <trkpt lat="45.29957" lon="5.74358">
        <ele>1692.927</ele>
        <time>2019-02-15T12:46:57Z</time>
      </trkpt>
      <trkpt lat="45.2996" lon="5.74362">
        <ele>1691.926</ele>
        <time>2019-02-15T12:47:08Z</time>
      </trkpt>
      <trkpt lat="45.29964" lon="5.74365">
        <ele>1690.357</ele>
        <time>2019-02-15T12:47:19Z</time>
      </trkpt>
      <trkpt lat="45.29978" lon="5.74374">
        <ele>1688.646</ele>
        <time>2019-02-15T12:47:30Z</time>
      </trkpt>
      <trkpt lat="45.29986" lon="5.74384">
        <ele>1686.71</ele>
        <time>2019-02-15T12:47:40Z</time>
      </trkpt>
      <trkpt lat="45.30007" lon="5.74398">
        <ele>1684.394</ele>
        <time>2019-02-15T12:47:51Z</time>
      </trkpt>
      <trkpt lat="45.30023" lon="5.74411">
        <ele>1680.701</ele>
        <time>2019-02-15T12:48:02Z</time>
      </trkpt>
      <trkpt lat="45.3003" lon="5.74409">
        <ele>1678.361</ele>
        <time>2019-02-15T12:48:13Z</time>
      </trkpt>
      <trkpt lat="45.30032" lon="5.74406">
        <ele>1677.415</ele>
        <time>2019-02-15T12:48:24Z</time>
      </trkpt>
      <trkpt lat="45.30031" lon="5.74413">
        <ele>1676.685</ele>
        <time>2019-02-15T12:48:35Z</time>
      </trkpt>
      <trkpt lat="45.30033" lon="5.74408">
        <ele>1676.342</ele>
        <time>2019-02-15T12:48:46Z</time>
      </trkpt>
      <trkpt lat="45.30034" lon="5.74408">
        <ele>1676.337</ele>
        <time>2019-02-15T12:48:57Z</time>
      </trkpt>
      <trkpt lat="45.30033" lon="5.74412">
        <ele>1675.904</ele>
        <time>2019-02-15T12:49:08Z</time>
      </trkpt>
      <trkpt lat="45.30038" lon="5.74413">
        <ele>1674.867</ele>
        <time>2019-02-15T12:49:18Z</time>
      </trkpt>
      <trkpt lat="45.30045" lon="5.7442">
        <ele>1673.128</ele>
        <time>2019-02-15T12:49:28Z</time>
      </trkpt>
      <trkpt lat="45.30061" lon="5.74429">
        <ele>1670.563</ele>
        <time>2019-02-15T12:49:39Z</time>
      </trkpt>
      <trkpt lat="45.30065" lon="5.74431">
        <ele>1668.44</ele>
        <time>2019-02-15T12:49:49Z</time>
      </trkpt>
      <trkpt lat="45.30075" lon="5.7444">
        <ele>1666.72</ele>
        <time>2019-02-15T12:50:00Z</time>
      </trkpt>
      <trkpt lat="45.30087" lon="5.74442">
        <ele>1664.073</ele>
        <time>2019-02-15T12:50:11Z</time>
      </trkpt>
      <trkpt lat="45.30098" lon="5.74446">
        <ele>1662.222</ele>
        <time>2019-02-15T12:50:22Z</time>
      </trkpt>
      <trkpt lat="45.30108" lon="5.74452">
        <ele>1661.037</ele>
        <time>2019-02-15T12:50:32Z</time>
      </trkpt>
      <trkpt lat="45.30117" lon="5.74453">
        <ele>1660.105</ele>
        <time>2019-02-15T12:50:42Z</time>
      </trkpt>
      <trkpt lat="45.30128" lon="5.7446">
        <ele>1660.058</ele>
        <time>2019-02-15T12:50:52Z</time>
      </trkpt>
      <trkpt lat="45.30139" lon="5.74467">
        <ele>1660.544</ele>
        <time>2019-02-15T12:51:03Z</time>
      </trkpt>
      <trkpt lat="45.30154" lon="5.74472">
        <ele>1660.858</ele>
        <time>2019-02-15T12:51:13Z</time>
      </trkpt>
      <trkpt lat="45.30162" lon="5.74477">
        <ele>1660.76</ele>
        <time>2019-02-15T12:51:24Z</time>
      </trkpt>
      <trkpt lat="45.30165" lon="5.74481">
        <ele>1660.682</ele>
        <time>2019-02-15T12:51:35Z</time>
      </trkpt>
      <trkpt lat="45.30172" lon="5.74487">
        <ele>1659.873</ele>
        <time>2019-02-15T12:51:46Z</time>
      </trkpt>
      <trkpt lat="45.30181" lon="5.74492">
        <ele>1659.078</ele>
        <time>2019-02-15T12:51:56Z</time>
      </trkpt>
      <trkpt lat="45.30197" lon="5.74497">
        <ele>1658.247</ele>
        <time>2019-02-15T12:52:07Z</time>
      </trkpt>
      <trkpt lat="45.30203" lon="5.74511">
        <ele>1657.287</ele>
        <time>2019-02-15T12:52:17Z</time>
      </trkpt>
      <trkpt lat="45.30209" lon="5.74518">
        <ele>1656.34</ele>
        <time>2019-02-15T12:52:28Z</time>
      </trkpt>
      <trkpt lat="45.30215" lon="5.74524">
        <ele>1655.439</ele>
        <time>2019-02-15T12:52:39Z</time>
      </trkpt>
      <trkpt lat="45.30218" lon="5.74525">
        <ele>1654.975</ele>
        <time>2019-02-15T12:52:49Z</time>
      </trkpt>
      <trkpt lat="45.30236" lon="5.74533">
        <ele>1654.1</ele>
        <time>2019-02-15T12:52:59Z</time>
      </trkpt>
      <trkpt lat="45.30249" lon="5.74539">
        <ele>1653.663</ele>
        <time>2019-02-15T12:53:10Z</time>
      </trkpt>
      <trkpt lat="45.30259" lon="5.74541">
        <ele>1653.377</ele>
        <time>2019-02-15T12:53:20Z</time>
      </trkpt>
      <trkpt lat="45.30271" lon="5.74543">
        <ele>1652.176</ele>
        <time>2019-02-15T12:53:31Z</time>
      </trkpt>
      <trkpt lat="45.30277" lon="5.74549">
        <ele>1651.94</ele>
        <time>2019-02-15T12:53:41Z</time>
      </trkpt>
      <trkpt lat="45.3029" lon="5.7456">
        <ele>1653.032</ele>
        <time>2019-02-15T12:53:52Z</time>
      </trkpt>
      <trkpt lat="45.30301" lon="5.74566">
        <ele>1654.622</ele>
        <time>2019-02-15T12:54:03Z</time>
      </trkpt>
      <trkpt lat="45.30316" lon="5.74576">
        <ele>1656.24</ele>
        <time>2019-02-15T12:54:14Z</time>
      </trkpt>
      <trkpt lat="45.3033" lon="5.74582">
        <ele>1657.245</ele>
        <time>2019-02-15T12:54:25Z</time>
      </trkpt>
      <trkpt lat="45.30342" lon="5.74586">
        <ele>1657.558</ele>
        <time>2019-02-15T12:54:36Z</time>
      </trkpt>
      <trkpt lat="45.30346" lon="5.74589">
        <ele>1658.942</ele>
        <time>2019-02-15T12:54:46Z</time>
      </trkpt>
      <trkpt lat="45.30355" lon="5.74596">
        <ele>1660.421</ele>
        <time>2019-02-15T12:54:56Z</time>
      </trkpt>
      <trkpt lat="45.30362" lon="5.74599">
        <ele>1661.678</ele>
        <time>2019-02-15T12:55:07Z</time>
      </trkpt>
      <trkpt lat="45.30371" lon="5.74602">
        <ele>1662.636</ele>
        <time>2019-02-15T12:55:17Z</time>
      </trkpt>
      <trkpt lat="45.30375" lon="5.74608">
        <ele>1663.433</ele>
        <time>2019-02-15T12:55:27Z</time>
      </trkpt>
      <trkpt lat="45.30382" lon="5.74611">
        <ele>1664.571</ele>
        <time>2019-02-15T12:55:38Z</time>
      </trkpt>
      <trkpt lat="45.30389" lon="5.74617">
        <ele>1665.652</ele>
        <time>2019-02-15T12:55:49Z</time>
      </trkpt>
      <trkpt lat="45.30398" lon="5.7462">
        <ele>1667.645</ele>
        <time>2019-02-15T12:56:00Z</time>
      </trkpt>
      <trkpt lat="45.30405" lon="5.74622">
        <ele>1669.444</ele>
        <time>2019-02-15T12:56:11Z</time>
      </trkpt>
      <trkpt lat="45.30418" lon="5.74629">
        <ele>1670.667</ele>
        <time>2019-02-15T12:56:22Z</time>
      </trkpt>
      <trkpt lat="45.3043" lon="5.74633">
        <ele>1671.268</ele>
        <time>2019-02-15T12:56:32Z</time>
      </trkpt>
      <trkpt lat="45.30439" lon="5.74634">
        <ele>1672.059</ele>
        <time>2019-02-15T12:56:43Z</time>
      </trkpt>
      <trkpt lat="45.30444" lon="5.74635">
        <ele>1672.51</ele>
        <time>2019-02-15T12:56:54Z</time>
      </trkpt>
      <trkpt lat="45.30445" lon="5.74636">
        <ele>1672.94</ele>
        <time>2019-02-15T12:57:04Z</time>
      </trkpt>
      <trkpt lat="45.30447" lon="5.74636">
        <ele>1674.652</ele>
        <time>2019-02-15T12:57:15Z</time>
      </trkpt>
      <trkpt lat="45.30454" lon="5.74634">
        <ele>1678.882</ele>
        <time>2019-02-15T12:57:26Z</time>
      </trkpt>
      <trkpt lat="45.30459" lon="5.74636">
        <ele>1681.705</ele>
        <time>2019-02-15T12:57:37Z</time>
      </trkpt>
      <trkpt lat="45.3047" lon="5.74639">
        <ele>1682.839</ele>
        <time>2019-02-15T12:57:47Z</time>
      </trkpt>
      <trkpt lat="45.30477" lon="5.74641">
        <ele>1682.713</ele>
        <time>2019-02-15T12:57:58Z</time>
      </trkpt>
      <trkpt lat="45.30486" lon="5.74643">
        <ele>1682.419</ele>
        <time>2019-02-15T12:58:09Z</time>
      </trkpt>
      <trkpt lat="45.30499" lon="5.74648">
        <ele>1681.627</ele>
        <time>2019-02-15T12:58:20Z</time>
      </trkpt>
      <trkpt lat="45.30509" lon="5.74652">
        <ele>1680.24</ele>
        <time>2019-02-15T12:58:30Z</time>
      </trkpt>
      <trkpt lat="45.30514" lon="5.74656">
        <ele>1679.673</ele>
        <time>2019-02-15T12:58:41Z</time>
      </trkpt>
      <trkpt lat="45.30532" lon="5.74657">
        <ele>1680.234</ele>
        <time>2019-02-15T12:59:15Z</time>
      </trkpt>
      <trkpt lat="45.30524" lon="5.74658">
        <ele>1681.693</ele>
        <time>2019-02-15T12:59:25Z</time>
      </trkpt>
      <trkpt lat="45.30522" lon="5.74661">
        <ele>1683.639</ele>
        <time>2019-02-15T12:59:35Z</time>
      </trkpt>
      <trkpt lat="45.30521" lon="5.74665">
        <ele>1686.518</ele>
        <time>2019-02-15T12:59:46Z</time>
      </trkpt>
      <trkpt lat="45.30521" lon="5.74668">
        <ele>1688.219</ele>
        <time>2019-02-15T12:59:56Z</time>
      </trkpt>
      <trkpt lat="45.30518" lon="5.74669">
        <ele>1690.574</ele>
        <time>2019-02-15T13:00:07Z</time>
      </trkpt>
      <trkpt lat="45.30521" lon="5.74667">
        <ele>1692.202</ele>
        <time>2019-02-15T13:00:17Z</time>
      </trkpt>
      <trkpt lat="45.30531" lon="5.74664">
        <ele>1692.368</ele>
        <time>2019-02-15T13:00:28Z</time>
      </trkpt>
      <trkpt lat="45.30537" lon="5.74657">
        <ele>1691.017</ele>
        <time>2019-02-15T13:00:38Z</time>
      </trkpt>
      <trkpt lat="45.30538" lon="5.74656">
        <ele>1689.522</ele>
        <time>2019-02-15T13:00:48Z</time>
      </trkpt>
      <trkpt lat="45.30541" lon="5.74652">
        <ele>1688.398</ele>
        <time>2019-02-15T13:00:59Z</time>
      </trkpt>
      <trkpt lat="45.30543" lon="5.74657">
        <ele>1687.522</ele>
        <time>2019-02-15T13:01:10Z</time>
      </trkpt>
      <trkpt lat="45.30554" lon="5.74661">
        <ele>1684.583</ele>
        <time>2019-02-15T13:01:21Z</time>
      </trkpt>
      <trkpt lat="45.3056" lon="5.74668">
        <ele>1680.991</ele>
        <time>2019-02-15T13:01:31Z</time>
      </trkpt>
      <trkpt lat="45.30567" lon="5.74673">
        <ele>1678.519</ele>
        <time>2019-02-15T13:01:42Z</time>
      </trkpt>
      <trkpt lat="45.30577" lon="5.74685">
        <ele>1677.334</ele>
        <time>2019-02-15T13:01:53Z</time>
      </trkpt>
      <trkpt lat="45.30584" lon="5.74693">
        <ele>1677.567</ele>
        <time>2019-02-15T13:02:03Z</time>
      </trkpt>
      <trkpt lat="45.30595" lon="5.74709">
        <ele>1679.798</ele>
        <time>2019-02-15T13:02:14Z</time>
      </trkpt>
      <trkpt lat="45.30599" lon="5.7471">
        <ele>1682.022</ele>
        <time>2019-02-15T13:02:24Z</time>
      </trkpt>
      <trkpt lat="45.30605" lon="5.74711">
        <ele>1684.491</ele>
        <time>2019-02-15T13:02:35Z</time>
      </trkpt>
      <trkpt lat="45.30613" lon="5.74715">
        <ele>1686.994</ele>
        <time>2019-02-15T13:02:46Z</time>
      </trkpt>
      <trkpt lat="45.30622" lon="5.74724">
        <ele>1689.665</ele>
        <time>2019-02-15T13:02:57Z</time>
      </trkpt>
      <trkpt lat="45.30631" lon="5.74732">
        <ele>1692.873</ele>
        <time>2019-02-15T13:03:07Z</time>
      </trkpt>
      <trkpt lat="45.30639" lon="5.7474">
        <ele>1696.832</ele>
        <time>2019-02-15T13:03:17Z</time>
      </trkpt>
      <trkpt lat="45.30646" lon="5.74744">
        <ele>1701.513</ele>
        <time>2019-02-15T13:03:28Z</time>
      </trkpt>
      <trkpt lat="45.30654" lon="5.74747">
        <ele>1705.934</ele>
        <time>2019-02-15T13:03:39Z</time>
      </trkpt>
      <trkpt lat="45.30661" lon="5.74751">
        <ele>1709.652</ele>
        <time>2019-02-15T13:03:49Z</time>
      </trkpt>
      <trkpt lat="45.30668" lon="5.74753">
        <ele>1713.288</ele>
        <time>2019-02-15T13:04:00Z</time>
      </trkpt>
      <trkpt lat="45.30673" lon="5.74755">
        <ele>1715.523</ele>
        <time>2019-02-15T13:04:11Z</time>
      </trkpt>
      <trkpt lat="45.3068" lon="5.74759">
        <ele>1716.86</ele>
        <time>2019-02-15T13:04:21Z</time>
      </trkpt>
      <trkpt lat="45.30691" lon="5.74765">
        <ele>1719.461</ele>
        <time>2019-02-15T13:04:32Z</time>
      </trkpt>
      <trkpt lat="45.30697" lon="5.74768">
        <ele>1721.256</ele>
        <time>2019-02-15T13:04:43Z</time>
      </trkpt>
      <trkpt lat="45.30704" lon="5.74781">
        <ele>1721.689</ele>
        <time>2019-02-15T13:04:54Z</time>
      </trkpt>
      <trkpt lat="45.30709" lon="5.7479">
        <ele>1721.317</ele>
        <time>2019-02-15T13:05:05Z</time>
      </trkpt>
      <trkpt lat="45.30714" lon="5.74797">
        <ele>1720.808</ele>
        <time>2019-02-15T13:05:15Z</time>
      </trkpt>
      <trkpt lat="45.30722" lon="5.74806">
        <ele>1719.993</ele>
        <time>2019-02-15T13:05:26Z</time>
      </trkpt>
      <trkpt lat="45.30726" lon="5.74811">
        <ele>1718.273</ele>
        <time>2019-02-15T13:05:36Z</time>
      </trkpt>
      <trkpt lat="45.30737" lon="5.74819">
        <ele>1716.072</ele>
        <time>2019-02-15T13:05:47Z</time>
      </trkpt>
      <trkpt lat="45.30745" lon="5.74836">
        <ele>1714.146</ele>
        <time>2019-02-15T13:05:58Z</time>
      </trkpt>
      <trkpt lat="45.30754" lon="5.74846">
        <ele>1712.3</ele>
        <time>2019-02-15T13:06:09Z</time>
      </trkpt>
      <trkpt lat="45.3076" lon="5.74852">
        <ele>1710.922</ele>
        <time>2019-02-15T13:06:20Z</time>
      </trkpt>
      <trkpt lat="45.30766" lon="5.74859">
        <ele>1709.092</ele>
        <time>2019-02-15T13:06:30Z</time>
      </trkpt>
      <trkpt lat="45.30773" lon="5.74859">
        <ele>1705.718</ele>
        <time>2019-02-15T13:06:41Z</time>
      </trkpt>
      <trkpt lat="45.30784" lon="5.74873">
        <ele>1702.648</ele>
        <time>2019-02-15T13:06:52Z</time>
      </trkpt>
      <trkpt lat="45.30787" lon="5.74882">
        <ele>1701.303</ele>
        <time>2019-02-15T13:07:02Z</time>
      </trkpt>
      <trkpt lat="45.30797" lon="5.7489">
        <ele>1699.207</ele>
        <time>2019-02-15T13:07:13Z</time>
      </trkpt>
      <trkpt lat="45.30802" lon="5.74904">
        <ele>1697.328</ele>
        <time>2019-02-15T13:07:24Z</time>
      </trkpt>
      <trkpt lat="45.3081" lon="5.74925">
        <ele>1693.319</ele>
        <time>2019-02-15T13:07:35Z</time>
      </trkpt>
      <trkpt lat="45.30814" lon="5.74955">
        <ele>1687.701</ele>
        <time>2019-02-15T13:07:45Z</time>
      </trkpt>
      <trkpt lat="45.30819" lon="5.74969">
        <ele>1681.615</ele>
        <time>2019-02-15T13:07:56Z</time>
      </trkpt>
      <trkpt lat="45.30826" lon="5.74978">
        <ele>1674.935</ele>
        <time>2019-02-15T13:08:07Z</time>
      </trkpt>
      <trkpt lat="45.3083" lon="5.74997">
        <ele>1670.845</ele>
        <time>2019-02-15T13:08:18Z</time>
      </trkpt>
      <trkpt lat="45.30834" lon="5.75015">
        <ele>1665.008</ele>
        <time>2019-02-15T13:08:29Z</time>
      </trkpt>
      <trkpt lat="45.30837" lon="5.75039">
        <ele>1661.134</ele>
        <time>2019-02-15T13:08:40Z</time>
      </trkpt>
      <trkpt lat="45.30856" lon="5.75078">
        <ele>1650.177</ele>
        <time>2019-02-15T13:08:51Z</time>
      </trkpt>
      <trkpt lat="45.30875" lon="5.75111">
        <ele>1647.047</ele>
        <time>2019-02-15T13:09:02Z</time>
      </trkpt>
      <trkpt lat="45.30881" lon="5.75126">
        <ele>1645.75</ele>
        <time>2019-02-15T13:09:13Z</time>
      </trkpt>
      <trkpt lat="45.30888" lon="5.75148">
        <ele>1645.112</ele>
        <time>2019-02-15T13:09:24Z</time>
      </trkpt>
      <trkpt lat="45.30896" lon="5.75165">
        <ele>1644.689</ele>
        <time>2019-02-15T13:09:35Z</time>
      </trkpt>
      <trkpt lat="45.30898" lon="5.75177">
        <ele>1644.35</ele>
        <time>2019-02-15T13:09:45Z</time>
      </trkpt>
      <trkpt lat="45.30904" lon="5.75194">
        <ele>1644.206</ele>
        <time>2019-02-15T13:09:55Z</time>
      </trkpt>
      <trkpt lat="45.30911" lon="5.75207">
        <ele>1644.879</ele>
        <time>2019-02-15T13:10:06Z</time>
      </trkpt>
      <trkpt lat="45.30917" lon="5.75215">
        <ele>1645.291</ele>
        <time>2019-02-15T13:10:16Z</time>
      </trkpt>
      <trkpt lat="45.30927" lon="5.75228">
        <ele>1644.665</ele>
        <time>2019-02-15T13:10:27Z</time>
      </trkpt>
      <trkpt lat="45.30937" lon="5.75256">
        <ele>1644.327</ele>
        <time>2019-02-15T13:10:37Z</time>
      </trkpt>
      <trkpt lat="45.30944" lon="5.75268">
        <ele>1644.269</ele>
        <time>2019-02-15T13:10:48Z</time>
      </trkpt>
      <trkpt lat="45.30953" lon="5.7528">
        <ele>1643.617</ele>
        <time>2019-02-15T13:10:59Z</time>
      </trkpt>
      <trkpt lat="45.30961" lon="5.75286">
        <ele>1642.942</ele>
        <time>2019-02-15T13:11:09Z</time>
      </trkpt>
      <trkpt lat="45.30967" lon="5.75304">
        <ele>1642.63</ele>
        <time>2019-02-15T13:11:20Z</time>
      </trkpt>
      <trkpt lat="45.30973" lon="5.75321">
        <ele>1643.052</ele>
        <time>2019-02-15T13:11:31Z</time>
      </trkpt>
      <trkpt lat="45.30977" lon="5.75334">
        <ele>1643.591</ele>
        <time>2019-02-15T13:11:42Z</time>
      </trkpt>
      <trkpt lat="45.30986" lon="5.75345">
        <ele>1644.836</ele>
        <time>2019-02-15T13:11:53Z</time>
      </trkpt>
      <trkpt lat="45.30992" lon="5.75352">
        <ele>1646.331</ele>
        <time>2019-02-15T13:12:03Z</time>
      </trkpt>
      <trkpt lat="45.31" lon="5.75358">
        <ele>1647.786</ele>
        <time>2019-02-15T13:12:14Z</time>
      </trkpt>
      <trkpt lat="45.31001" lon="5.75362">
        <ele>1648.795</ele>
        <time>2019-02-15T13:12:25Z</time>
      </trkpt>
      <trkpt lat="45.31001" lon="5.75363">
        <ele>1649.685</ele>
        <time>2019-02-15T13:12:35Z</time>
      </trkpt>
      <trkpt lat="45.31001" lon="5.75364">
        <ele>1650.636</ele>
        <time>2019-02-15T13:12:46Z</time>
      </trkpt>
      <trkpt lat="45.31001" lon="5.75368">
        <ele>1651.504</ele>
        <time>2019-02-15T13:12:56Z</time>
      </trkpt>
      <trkpt lat="45.31006" lon="5.75368">
        <ele>1658.645</ele>
        <time>2019-02-15T13:13:07Z</time>
      </trkpt>
      <trkpt lat="45.31003" lon="5.75369">
        <ele>1662.957</ele>
        <time>2019-02-15T13:13:17Z</time>
      </trkpt>
      <trkpt lat="45.31003" lon="5.75369">
        <ele>1666.906</ele>
        <time>2019-02-15T13:13:28Z</time>
      </trkpt>
      <trkpt lat="45.31004" lon="5.75368">
        <ele>1670.78</ele>
        <time>2019-02-15T13:13:38Z</time>
      </trkpt>
      <trkpt lat="45.31011" lon="5.75361">
        <ele>1674.086</ele>
        <time>2019-02-15T13:13:49Z</time>
      </trkpt>
      <trkpt lat="45.31021" lon="5.75363">
        <ele>1676.105</ele>
        <time>2019-02-15T13:14:00Z</time>
      </trkpt>
      <trkpt lat="45.31031" lon="5.75363">
        <ele>1676.427</ele>
        <time>2019-02-15T13:14:10Z</time>
      </trkpt>
      <trkpt lat="45.31039" lon="5.75369">
        <ele>1675.106</ele>
        <time>2019-02-15T13:14:21Z</time>
      </trkpt>
      <trkpt lat="45.31044" lon="5.75381">
        <ele>1672.58</ele>
        <time>2019-02-15T13:14:32Z</time>
      </trkpt>
      <trkpt lat="45.3105" lon="5.75392">
        <ele>1670.027</ele>
        <time>2019-02-15T13:14:43Z</time>
      </trkpt>
      <trkpt lat="45.31059" lon="5.75401">
        <ele>1668.632</ele>
        <time>2019-02-15T13:14:54Z</time>
      </trkpt>
      <trkpt lat="45.31069" lon="5.75411">
        <ele>1667.371</ele>
        <time>2019-02-15T13:15:05Z</time>
      </trkpt>
      <trkpt lat="45.31075" lon="5.75418">
        <ele>1666.828</ele>
        <time>2019-02-15T13:15:16Z</time>
      </trkpt>
      <trkpt lat="45.3108" lon="5.7542">
        <ele>1666.509</ele>
        <time>2019-02-15T13:15:26Z</time>
      </trkpt>
      <trkpt lat="45.31088" lon="5.75425">
        <ele>1666.459</ele>
        <time>2019-02-15T13:15:37Z</time>
      </trkpt>
      <trkpt lat="45.31095" lon="5.75433">
        <ele>1666.904</ele>
        <time>2019-02-15T13:15:48Z</time>
      </trkpt>
      <trkpt lat="45.31101" lon="5.75438">
        <ele>1667.975</ele>
        <time>2019-02-15T13:15:59Z</time>
      </trkpt>
      <trkpt lat="45.31115" lon="5.75448">
        <ele>1670.575</ele>
        <time>2019-02-15T13:16:10Z</time>
      </trkpt>
      <trkpt lat="45.3113" lon="5.75458">
        <ele>1673.936</ele>
        <time>2019-02-15T13:16:21Z</time>
      </trkpt>
      <trkpt lat="45.31141" lon="5.75466">
        <ele>1676.801</ele>
        <time>2019-02-15T13:16:32Z</time>
      </trkpt>
      <trkpt lat="45.31146" lon="5.75468">
        <ele>1678.044</ele>
        <time>2019-02-15T13:16:43Z</time>
      </trkpt>
      <trkpt lat="45.31148" lon="5.7547">
        <ele>1680.305</ele>
        <time>2019-02-15T13:16:54Z</time>
      </trkpt>
      <trkpt lat="45.31152" lon="5.75471">
        <ele>1682.834</ele>
        <time>2019-02-15T13:17:05Z</time>
      </trkpt>
      <trkpt lat="45.31152" lon="5.75471">
        <ele>1683.074</ele>
        <time>2019-02-15T13:17:16Z</time>
      </trkpt>
      <trkpt lat="45.31152" lon="5.75473">
        <ele>1684.148</ele>
        <time>2019-02-15T13:17:26Z</time>
      </trkpt>
      <trkpt lat="45.31153" lon="5.75475">
        <ele>1685.895</ele>
        <time>2019-02-15T13:17:37Z</time>
      </trkpt>
      <trkpt lat="45.31159" lon="5.75478">
        <ele>1687.997</ele>
        <time>2019-02-15T13:17:48Z</time>
      </trkpt>
      <trkpt lat="45.31174" lon="5.75479">
        <ele>1689.506</ele>
        <time>2019-02-15T13:17:59Z</time>
      </trkpt>
      <trkpt lat="45.31187" lon="5.75478">
        <ele>1690.551</ele>
        <time>2019-02-15T13:18:09Z</time>
      </trkpt>
      <trkpt lat="45.31201" lon="5.75477">
        <ele>1691.724</ele>
        <time>2019-02-15T13:18:19Z</time>
      </trkpt>
      <trkpt lat="45.31213" lon="5.75467">
        <ele>1693.049</ele>
        <time>2019-02-15T13:18:30Z</time>
      </trkpt>
      <trkpt lat="45.31226" lon="5.75455">
        <ele>1693.801</ele>
        <time>2019-02-15T13:18:40Z</time>
      </trkpt>
      <trkpt lat="45.31237" lon="5.75441">
        <ele>1694.426</ele>
        <time>2019-02-15T13:18:51Z</time>
      </trkpt>
      <trkpt lat="45.31246" lon="5.75431">
        <ele>1694.748</ele>
        <time>2019-02-15T13:19:02Z</time>
      </trkpt>
      <trkpt lat="45.31255" lon="5.75424">
        <ele>1694.851</ele>
        <time>2019-02-15T13:19:13Z</time>
      </trkpt>
      <trkpt lat="45.31264" lon="5.75417">
        <ele>1694.958</ele>
        <time>2019-02-15T13:19:24Z</time>
      </trkpt>
      <trkpt lat="45.31274" lon="5.75413">
        <ele>1695.028</ele>
        <time>2019-02-15T13:19:35Z</time>
      </trkpt>
      <trkpt lat="45.3129" lon="5.75408">
        <ele>1694.97</ele>
        <time>2019-02-15T13:19:46Z</time>
      </trkpt>
      <trkpt lat="45.31302" lon="5.75403">
        <ele>1694.853</ele>
        <time>2019-02-15T13:19:57Z</time>
      </trkpt>
      <trkpt lat="45.31312" lon="5.75398">
        <ele>1694.571</ele>
        <time>2019-02-15T13:20:07Z</time>
      </trkpt>
      <trkpt lat="45.31326" lon="5.75387">
        <ele>1693.996</ele>
        <time>2019-02-15T13:20:18Z</time>
      </trkpt>
      <trkpt lat="45.31336" lon="5.75379">
        <ele>1693.721</ele>
        <time>2019-02-15T13:20:29Z</time>
      </trkpt>
      <trkpt lat="45.31348" lon="5.75376">
        <ele>1693.559</ele>
        <time>2019-02-15T13:20:40Z</time>
      </trkpt>
      <trkpt lat="45.3136" lon="5.75374">
        <ele>1693.619</ele>
        <time>2019-02-15T13:20:50Z</time>
      </trkpt>
      <trkpt lat="45.3137" lon="5.75374">
        <ele>1694.223</ele>
        <time>2019-02-15T13:21:00Z</time>
      </trkpt>
      <trkpt lat="45.3138" lon="5.75376">
        <ele>1694.319</ele>
        <time>2019-02-15T13:21:11Z</time>
      </trkpt>
      <trkpt lat="45.31395" lon="5.75378">
        <ele>1694.55</ele>
        <time>2019-02-15T13:21:22Z</time>
      </trkpt>
      <trkpt lat="45.31401" lon="5.75379">
        <ele>1694.642</ele>
        <time>2019-02-15T13:21:32Z</time>
      </trkpt>
      <trkpt lat="45.3141" lon="5.7538">
        <ele>1694.655</ele>
        <time>2019-02-15T13:21:42Z</time>
      </trkpt>
      <trkpt lat="45.31422" lon="5.75378">
        <ele>1694.766</ele>
        <time>2019-02-15T13:21:52Z</time>
      </trkpt>
      <trkpt lat="45.31432" lon="5.75383">
        <ele>1694.867</ele>
        <time>2019-02-15T13:22:03Z</time>
      </trkpt>
      <trkpt lat="45.31443" lon="5.7539">
        <ele>1695.444</ele>
        <time>2019-02-15T13:22:14Z</time>
      </trkpt>
      <trkpt lat="45.31452" lon="5.75389">
        <ele>1696.583</ele>
        <time>2019-02-15T13:22:25Z</time>
      </trkpt>
      <trkpt lat="45.31461" lon="5.7539">
        <ele>1697.033</ele>
        <time>2019-02-15T13:22:35Z</time>
      </trkpt>
      <trkpt lat="45.31474" lon="5.7539">
        <ele>1697.895</ele>
        <time>2019-02-15T13:22:46Z</time>
      </trkpt>
      <trkpt lat="45.31486" lon="5.75388">
        <ele>1698.213</ele>
        <time>2019-02-15T13:22:57Z</time>
      </trkpt>
      <trkpt lat="45.31496" lon="5.75395">
        <ele>1698.598</ele>
        <time>2019-02-15T13:23:07Z</time>
      </trkpt>
      <trkpt lat="45.31504" lon="5.75402">
        <ele>1699.445</ele>
        <time>2019-02-15T13:23:17Z</time>
      </trkpt>
      <trkpt lat="45.31514" lon="5.75408">
        <ele>1699.747</ele>
        <time>2019-02-15T13:23:28Z</time>
      </trkpt>
      <trkpt lat="45.31525" lon="5.75418">
        <ele>1700.304</ele>
        <time>2019-02-15T13:23:39Z</time>
      </trkpt>
      <trkpt lat="45.31531" lon="5.75428">
        <ele>1701.373</ele>
        <time>2019-02-15T13:23:50Z</time>
      </trkpt>
      <trkpt lat="45.31541" lon="5.7543">
        <ele>1703.455</ele>
        <time>2019-02-15T13:24:01Z</time>
      </trkpt>
      <trkpt lat="45.3155" lon="5.75432">
        <ele>1704.856</ele>
        <time>2019-02-15T13:24:11Z</time>
      </trkpt>
      <trkpt lat="45.31561" lon="5.75434">
        <ele>1705.34</ele>
        <time>2019-02-15T13:24:21Z</time>
      </trkpt>
      <trkpt lat="45.31572" lon="5.75439">
        <ele>1705.608</ele>
        <time>2019-02-15T13:24:32Z</time>
      </trkpt>
      <trkpt lat="45.31586" lon="5.75447">
        <ele>1706.772</ele>
        <time>2019-02-15T13:24:43Z</time>
      </trkpt>
      <trkpt lat="45.31595" lon="5.75448">
        <ele>1708.54</ele>
        <time>2019-02-15T13:24:54Z</time>
      </trkpt>
      <trkpt lat="45.31608" lon="5.75452">
        <ele>1710.053</ele>
        <time>2019-02-15T13:25:05Z</time>
      </trkpt>
      <trkpt lat="45.31616" lon="5.75458">
        <ele>1710.975</ele>
        <time>2019-02-15T13:25:16Z</time>
      </trkpt>
      <trkpt lat="45.31623" lon="5.75467">
        <ele>1711.802</ele>
        <time>2019-02-15T13:25:27Z</time>
      </trkpt>
      <trkpt lat="45.31631" lon="5.75476">
        <ele>1710.886</ele>
        <time>2019-02-15T13:25:38Z</time>
      </trkpt>
      <trkpt lat="45.31639" lon="5.75488">
        <ele>1709.546</ele>
        <time>2019-02-15T13:25:49Z</time>
      </trkpt>
      <trkpt lat="45.31647" lon="5.75497">
        <ele>1708.433</ele>
        <time>2019-02-15T13:25:59Z</time>
      </trkpt>
      <trkpt lat="45.31655" lon="5.75504">
        <ele>1707.93</ele>
        <time>2019-02-15T13:26:10Z</time>
      </trkpt>
      <trkpt lat="45.31661" lon="5.75513">
        <ele>1707.244</ele>
        <time>2019-02-15T13:26:21Z</time>
      </trkpt>
      <trkpt lat="45.31671" lon="5.75521">
        <ele>1707.147</ele>
        <time>2019-02-15T13:26:31Z</time>
      </trkpt>
      <trkpt lat="45.31679" lon="5.75526">
        <ele>1707.549</ele>
        <time>2019-02-15T13:26:42Z</time>
      </trkpt>
      <trkpt lat="45.31687" lon="5.75528">
        <ele>1706.946</ele>
        <time>2019-02-15T13:26:52Z</time>
      </trkpt>
      <trkpt lat="45.31696" lon="5.75531">
        <ele>1705.523</ele>
        <time>2019-02-15T13:27:03Z</time>
      </trkpt>
      <trkpt lat="45.31707" lon="5.75538">
        <ele>1704.107</ele>
        <time>2019-02-15T13:27:13Z</time>
      </trkpt>
      <trkpt lat="45.31717" lon="5.75544">
        <ele>1703.315</ele>
        <time>2019-02-15T13:27:24Z</time>
      </trkpt>
      <trkpt lat="45.31723" lon="5.75547">
        <ele>1701.66</ele>
        <time>2019-02-15T13:27:35Z</time>
      </trkpt>
      <trkpt lat="45.31731" lon="5.75554">
        <ele>1699.463</ele>
        <time>2019-02-15T13:27:46Z</time>
      </trkpt>
      <trkpt lat="45.31737" lon="5.75569">
        <ele>1698.547</ele>
        <time>2019-02-15T13:27:57Z</time>
      </trkpt>
      <trkpt lat="45.3175" lon="5.75581">
        <ele>1699.747</ele>
        <time>2019-02-15T13:28:08Z</time>
      </trkpt>
      <trkpt lat="45.31764" lon="5.75587">
        <ele>1702.517</ele>
        <time>2019-02-15T13:28:19Z</time>
      </trkpt>
      <trkpt lat="45.31773" lon="5.75587">
        <ele>1704.735</ele>
        <time>2019-02-15T13:28:29Z</time>
      </trkpt>
      <trkpt lat="45.31783" lon="5.75582">
        <ele>1707.105</ele>
        <time>2019-02-15T13:28:40Z</time>
      </trkpt>
      <trkpt lat="45.31793" lon="5.75577">
        <ele>1708.865</ele>
        <time>2019-02-15T13:28:51Z</time>
      </trkpt>
      <trkpt lat="45.318" lon="5.75574">
        <ele>1710.223</ele>
        <time>2019-02-15T13:29:01Z</time>
      </trkpt>
      <trkpt lat="45.31813" lon="5.75572">
        <ele>1711.656</ele>
        <time>2019-02-15T13:29:12Z</time>
      </trkpt>
      <trkpt lat="45.31824" lon="5.75574">
        <ele>1713.159</ele>
        <time>2019-02-15T13:29:23Z</time>
      </trkpt>
      <trkpt lat="45.31833" lon="5.75579">
        <ele>1713.945</ele>
        <time>2019-02-15T13:29:34Z</time>
      </trkpt>
      <trkpt lat="45.31843" lon="5.75587">
        <ele>1714.708</ele>
        <time>2019-02-15T13:29:45Z</time>
      </trkpt>
      <trkpt lat="45.31849" lon="5.756">
        <ele>1715.667</ele>
        <time>2019-02-15T13:29:56Z</time>
      </trkpt>
      <trkpt lat="45.31855" lon="5.75615">
        <ele>1716.457</ele>
        <time>2019-02-15T13:30:07Z</time>
      </trkpt>
      <trkpt lat="45.31859" lon="5.75632">
        <ele>1717.183</ele>
        <time>2019-02-15T13:30:18Z</time>
      </trkpt>
      <trkpt lat="45.31861" lon="5.75643">
        <ele>1717.714</ele>
        <time>2019-02-15T13:30:29Z</time>
      </trkpt>
      <trkpt lat="45.31861" lon="5.75661">
        <ele>1714.951</ele>
        <time>2019-02-15T13:30:40Z</time>
      </trkpt>
      <trkpt lat="45.31867" lon="5.75677">
        <ele>1713.635</ele>
        <time>2019-02-15T13:30:51Z</time>
      </trkpt>
      <trkpt lat="45.31873" lon="5.75688">
        <ele>1712.645</ele>
        <time>2019-02-15T13:31:01Z</time>
      </trkpt>
      <trkpt lat="45.31876" lon="5.757">
        <ele>1711.256</ele>
        <time>2019-02-15T13:31:11Z</time>
      </trkpt>
      <trkpt lat="45.31876" lon="5.75714">
        <ele>1709.565</ele>
        <time>2019-02-15T13:31:22Z</time>
      </trkpt>
      <trkpt lat="45.31878" lon="5.75728">
        <ele>1708.097</ele>
        <time>2019-02-15T13:31:32Z</time>
      </trkpt>
      <trkpt lat="45.31882" lon="5.75746">
        <ele>1706.691</ele>
        <time>2019-02-15T13:31:43Z</time>
      </trkpt>
      <trkpt lat="45.3189" lon="5.75761">
        <ele>1706.47</ele>
        <time>2019-02-15T13:31:54Z</time>
      </trkpt>
      <trkpt lat="45.31898" lon="5.75774">
        <ele>1708.085</ele>
        <time>2019-02-15T13:32:05Z</time>
      </trkpt>
      <trkpt lat="45.31897" lon="5.75784">
        <ele>1709.761</ele>
        <time>2019-02-15T13:32:16Z</time>
      </trkpt>
      <trkpt lat="45.31902" lon="5.75792">
        <ele>1710.398</ele>
        <time>2019-02-15T13:32:27Z</time>
      </trkpt>
      <trkpt lat="45.31904" lon="5.75798">
        <ele>1710.976</ele>
        <time>2019-02-15T13:32:38Z</time>
      </trkpt>
      <trkpt lat="45.31903" lon="5.75798">
        <ele>1711.218</ele>
        <time>2019-02-15T13:32:48Z</time>
      </trkpt>
      <trkpt lat="45.31904" lon="5.75798">
        <ele>1711.845</ele>
        <time>2019-02-15T13:32:58Z</time>
      </trkpt>
      <trkpt lat="45.31904" lon="5.75798">
        <ele>1712.218</ele>
        <time>2019-02-15T13:33:09Z</time>
      </trkpt>
      <trkpt lat="45.31904" lon="5.75798">
        <ele>1712.885</ele>
        <time>2019-02-15T13:33:19Z</time>
      </trkpt>
      <trkpt lat="45.31907" lon="5.75798">
        <ele>1713.926</ele>
        <time>2019-02-15T13:33:30Z</time>
      </trkpt>
      <trkpt lat="45.31906" lon="5.75796">
        <ele>1715.166</ele>
        <time>2019-02-15T13:33:40Z</time>
      </trkpt>
      <trkpt lat="45.31904" lon="5.75796">
        <ele>1716.405</ele>
        <time>2019-02-15T13:33:50Z</time>
      </trkpt>
      <trkpt lat="45.31903" lon="5.75795">
        <ele>1717.393</ele>
        <time>2019-02-15T13:34:00Z</time>
      </trkpt>
      <trkpt lat="45.31903" lon="5.75796">
        <ele>1717.912</ele>
        <time>2019-02-15T13:34:11Z</time>
      </trkpt>
      <trkpt lat="45.31902" lon="5.75796">
        <ele>1718.853</ele>
        <time>2019-02-15T13:34:21Z</time>
      </trkpt>
      <trkpt lat="45.31903" lon="5.75795">
        <ele>1719.563</ele>
        <time>2019-02-15T13:34:31Z</time>
      </trkpt>
      <trkpt lat="45.31904" lon="5.75796">
        <ele>1720.444</ele>
        <time>2019-02-15T13:34:41Z</time>
      </trkpt>
      <trkpt lat="45.31909" lon="5.7581">
        <ele>1721.53</ele>
        <time>2019-02-15T13:34:51Z</time>
      </trkpt>
      <trkpt lat="45.31914" lon="5.75823">
        <ele>1722.784</ele>
        <time>2019-02-15T13:35:02Z</time>
      </trkpt>
      <trkpt lat="45.31919" lon="5.75829">
        <ele>1723.955</ele>
        <time>2019-02-15T13:35:13Z</time>
      </trkpt>
      <trkpt lat="45.31921" lon="5.75831">
        <ele>1724.299</ele>
        <time>2019-02-15T13:35:23Z</time>
      </trkpt>
      <trkpt lat="45.3192" lon="5.75831">
        <ele>1724.579</ele>
        <time>2019-02-15T13:35:34Z</time>
      </trkpt>
      <trkpt lat="45.31921" lon="5.75843">
        <ele>1724.973</ele>
        <time>2019-02-15T13:35:44Z</time>
      </trkpt>
      <trkpt lat="45.31926" lon="5.75854">
        <ele>1725.218</ele>
        <time>2019-02-15T13:35:55Z</time>
      </trkpt>
      <trkpt lat="45.31928" lon="5.75862">
        <ele>1725.747</ele>
        <time>2019-02-15T13:36:06Z</time>
      </trkpt>
      <trkpt lat="45.31935" lon="5.75868">
        <ele>1727.419</ele>
        <time>2019-02-15T13:36:17Z</time>
      </trkpt>
      <trkpt lat="45.31939" lon="5.75878">
        <ele>1729.237</ele>
        <time>2019-02-15T13:36:28Z</time>
      </trkpt>
      <trkpt lat="45.31943" lon="5.75884">
        <ele>1729.955</ele>
        <time>2019-02-15T13:36:39Z</time>
      </trkpt>
      <trkpt lat="45.31943" lon="5.75886">
        <ele>1730.063</ele>
        <time>2019-02-15T13:36:50Z</time>
      </trkpt>
      <trkpt lat="45.31943" lon="5.75889">
        <ele>1730.801</ele>
        <time>2019-02-15T13:37:01Z</time>
      </trkpt>
      <trkpt lat="45.31945" lon="5.75895">
        <ele>1732.318</ele>
        <time>2019-02-15T13:37:11Z</time>
      </trkpt>
      <trkpt lat="45.31953" lon="5.75907">
        <ele>1734.037</ele>
        <time>2019-02-15T13:37:22Z</time>
      </trkpt>
      <trkpt lat="45.31957" lon="5.75914">
        <ele>1735.898</ele>
        <time>2019-02-15T13:37:33Z</time>
      </trkpt>
      <trkpt lat="45.31967" lon="5.75921">
        <ele>1736.592</ele>
        <time>2019-02-15T13:37:43Z</time>
      </trkpt>
      <trkpt lat="45.31976" lon="5.75921">
        <ele>1737.303</ele>
        <time>2019-02-15T13:37:53Z</time>
      </trkpt>
      <trkpt lat="45.31981" lon="5.75925">
        <ele>1738.604</ele>
        <time>2019-02-15T13:38:03Z</time>
      </trkpt>
      <trkpt lat="45.31988" lon="5.75927">
        <ele>1740.301</ele>
        <time>2019-02-15T13:38:14Z</time>
      </trkpt>
      <trkpt lat="45.31991" lon="5.7593">
        <ele>1740.599</ele>
        <time>2019-02-15T13:38:25Z</time>
      </trkpt>
      <trkpt lat="45.31997" lon="5.75931">
        <ele>1741.401</ele>
        <time>2019-02-15T13:38:36Z</time>
      </trkpt>
      <trkpt lat="45.32005" lon="5.75935">
        <ele>1743.178</ele>
        <time>2019-02-15T13:38:47Z</time>
      </trkpt>
      <trkpt lat="45.3201" lon="5.75937">
        <ele>1744.268</ele>
        <time>2019-02-15T13:38:58Z</time>
      </trkpt>
      <trkpt lat="45.32017" lon="5.75943">
        <ele>1746.247</ele>
        <time>2019-02-15T13:39:09Z</time>
      </trkpt>
      <trkpt lat="45.32026" lon="5.75948">
        <ele>1748.362</ele>
        <time>2019-02-15T13:39:20Z</time>
      </trkpt>
      <trkpt lat="45.32035" lon="5.75956">
        <ele>1750.219</ele>
        <time>2019-02-15T13:39:30Z</time>
      </trkpt>
      <trkpt lat="45.32044" lon="5.75958">
        <ele>1752.439</ele>
        <time>2019-02-15T13:39:41Z</time>
      </trkpt>
      <trkpt lat="45.3205" lon="5.75961">
        <ele>1754.216</ele>
        <time>2019-02-15T13:39:51Z</time>
      </trkpt>
      <trkpt lat="45.32057" lon="5.75963">
        <ele>1755.543</ele>
        <time>2019-02-15T13:40:01Z</time>
      </trkpt>
      <trkpt lat="45.3206" lon="5.75962">
        <ele>1756.831</ele>
        <time>2019-02-15T13:40:12Z</time>
      </trkpt>
      <trkpt lat="45.32056" lon="5.75969">
        <ele>1757.214</ele>
        <time>2019-02-15T13:40:22Z</time>
      </trkpt>
      <trkpt lat="45.32052" lon="5.75974">
        <ele>1757.51</ele>
        <time>2019-02-15T13:40:33Z</time>
      </trkpt>
      <trkpt lat="45.32047" lon="5.75982">
        <ele>1757.697</ele>
        <time>2019-02-15T13:40:44Z</time>
      </trkpt>
      <trkpt lat="45.32044" lon="5.75988">
        <ele>1757.715</ele>
        <time>2019-02-15T13:40:54Z</time>
      </trkpt>
      <trkpt lat="45.32041" lon="5.75997">
        <ele>1757.805</ele>
        <time>2019-02-15T13:41:05Z</time>
      </trkpt>
      <trkpt lat="45.32039" lon="5.76003">
        <ele>1757.821</ele>
        <time>2019-02-15T13:41:16Z</time>
      </trkpt>
      <trkpt lat="45.32035" lon="5.76008">
        <ele>1757.818</ele>
        <time>2019-02-15T13:41:26Z</time>
      </trkpt>
      <trkpt lat="45.32031" lon="5.76015">
        <ele>1758.235</ele>
        <time>2019-02-15T13:41:36Z</time>
      </trkpt>
      <trkpt lat="45.32027" lon="5.76023">
        <ele>1758.639</ele>
        <time>2019-02-15T13:41:47Z</time>
      </trkpt>
      <trkpt lat="45.32024" lon="5.76027">
        <ele>1759.528</ele>
        <time>2019-02-15T13:41:58Z</time>
      </trkpt>
      <trkpt lat="45.3202" lon="5.76032">
        <ele>1760.44</ele>
        <time>2019-02-15T13:42:09Z</time>
      </trkpt>
      <trkpt lat="45.32013" lon="5.76039">
        <ele>1761.211</ele>
        <time>2019-02-15T13:42:19Z</time>
      </trkpt>
      <trkpt lat="45.32007" lon="5.76046">
        <ele>1763.089</ele>
        <time>2019-02-15T13:42:29Z</time>
      </trkpt>
      <trkpt lat="45.32004" lon="5.76055">
        <ele>1765.607</ele>
        <time>2019-02-15T13:42:40Z</time>
      </trkpt>
      <trkpt lat="45.32" lon="5.76063">
        <ele>1767.622</ele>
        <time>2019-02-15T13:42:51Z</time>
      </trkpt>
      <trkpt lat="45.32" lon="5.76075">
        <ele>1770.241</ele>
        <time>2019-02-15T13:43:02Z</time>
      </trkpt>
      <trkpt lat="45.32002" lon="5.76083">
        <ele>1773.512</ele>
        <time>2019-02-15T13:43:13Z</time>
      </trkpt>
      <trkpt lat="45.32005" lon="5.76092">
        <ele>1776.511</ele>
        <time>2019-02-15T13:43:24Z</time>
      </trkpt>
      <trkpt lat="45.32009" lon="5.76103">
        <ele>1779.825</ele>
        <time>2019-02-15T13:43:35Z</time>
      </trkpt>
      <trkpt lat="45.32012" lon="5.76107">
        <ele>1782.437</ele>
        <time>2019-02-15T13:43:45Z</time>
      </trkpt>
      <trkpt lat="45.32016" lon="5.76113">
        <ele>1785.212</ele>
        <time>2019-02-15T13:43:56Z</time>
      </trkpt>
      <trkpt lat="45.32023" lon="5.76117">
        <ele>1787.739</ele>
        <time>2019-02-15T13:44:07Z</time>
      </trkpt>
      <trkpt lat="45.32028" lon="5.76124">
        <ele>1789.973</ele>
        <time>2019-02-15T13:44:18Z</time>
      </trkpt>
      <trkpt lat="45.32033" lon="5.76128">
        <ele>1791.956</ele>
        <time>2019-02-15T13:44:29Z</time>
      </trkpt>
      <trkpt lat="45.3204" lon="5.76134">
        <ele>1794.075</ele>
        <time>2019-02-15T13:44:40Z</time>
      </trkpt>
      <trkpt lat="45.32044" lon="5.76138">
        <ele>1795.899</ele>
        <time>2019-02-15T13:44:50Z</time>
      </trkpt>
      <trkpt lat="45.32048" lon="5.76145">
        <ele>1797.381</ele>
        <time>2019-02-15T13:45:01Z</time>
      </trkpt>
      <trkpt lat="45.32055" lon="5.7615">
        <ele>1799.061</ele>
        <time>2019-02-15T13:45:11Z</time>
      </trkpt>
      <trkpt lat="45.32061" lon="5.76149">
        <ele>1800.998</ele>
        <time>2019-02-15T13:45:22Z</time>
      </trkpt>
      <trkpt lat="45.32063" lon="5.76145">
        <ele>1803.415</ele>
        <time>2019-02-15T13:45:33Z</time>
      </trkpt>
      <trkpt lat="45.32066" lon="5.76141">
        <ele>1804.857</ele>
        <time>2019-02-15T13:45:44Z</time>
      </trkpt>
      <trkpt lat="45.32073" lon="5.76142">
        <ele>1806.408</ele>
        <time>2019-02-15T13:45:55Z</time>
      </trkpt>
      <trkpt lat="45.32077" lon="5.76143">
        <ele>1808.085</ele>
        <time>2019-02-15T13:46:06Z</time>
      </trkpt>
      <trkpt lat="45.32084" lon="5.76143">
        <ele>1809.796</ele>
        <time>2019-02-15T13:46:16Z</time>
      </trkpt>
      <trkpt lat="45.32091" lon="5.76145">
        <ele>1811.417</ele>
        <time>2019-02-15T13:46:27Z</time>
      </trkpt>
      <trkpt lat="45.32098" lon="5.76146">
        <ele>1813.113</ele>
        <time>2019-02-15T13:46:38Z</time>
      </trkpt>
      <trkpt lat="45.32103" lon="5.76145">
        <ele>1814.899</ele>
        <time>2019-02-15T13:46:48Z</time>
      </trkpt>
      <trkpt lat="45.32107" lon="5.76146">
        <ele>1817.05</ele>
        <time>2019-02-15T13:46:59Z</time>
      </trkpt>
      <trkpt lat="45.32113" lon="5.76143">
        <ele>1818.907</ele>
        <time>2019-02-15T13:47:10Z</time>
      </trkpt>
      <trkpt lat="45.32119" lon="5.76143">
        <ele>1821.293</ele>
        <time>2019-02-15T13:47:20Z</time>
      </trkpt>
      <trkpt lat="45.32125" lon="5.76144">
        <ele>1824.213</ele>
        <time>2019-02-15T13:47:31Z</time>
      </trkpt>
      <trkpt lat="45.32131" lon="5.76146">
        <ele>1827.084</ele>
        <time>2019-02-15T13:47:42Z</time>
      </trkpt>
      <trkpt lat="45.32135" lon="5.76149">
        <ele>1828.899</ele>
        <time>2019-02-15T13:47:53Z</time>
      </trkpt>
      <trkpt lat="45.32138" lon="5.76145">
        <ele>1830.557</ele>
        <time>2019-02-15T13:48:04Z</time>
      </trkpt>
      <trkpt lat="45.32144" lon="5.7615">
        <ele>1832.399</ele>
        <time>2019-02-15T13:48:15Z</time>
      </trkpt>
      <trkpt lat="45.32149" lon="5.76155">
        <ele>1834.605</ele>
        <time>2019-02-15T13:48:26Z</time>
      </trkpt>
      <trkpt lat="45.32153" lon="5.76157">
        <ele>1836.557</ele>
        <time>2019-02-15T13:48:37Z</time>
      </trkpt>
      <trkpt lat="45.3216" lon="5.76158">
        <ele>1838.713</ele>
        <time>2019-02-15T13:48:47Z</time>
      </trkpt>
      <trkpt lat="45.32166" lon="5.7616">
        <ele>1840.497</ele>
        <time>2019-02-15T13:48:58Z</time>
      </trkpt>
      <trkpt lat="45.32173" lon="5.76166">
        <ele>1842.209</ele>
        <time>2019-02-15T13:49:09Z</time>
      </trkpt>
      <trkpt lat="45.32178" lon="5.76171">
        <ele>1843.887</ele>
        <time>2019-02-15T13:49:20Z</time>
      </trkpt>
      <trkpt lat="45.32184" lon="5.76175">
        <ele>1846.104</ele>
        <time>2019-02-15T13:49:31Z</time>
      </trkpt>
      <trkpt lat="45.32189" lon="5.7618">
        <ele>1848.087</ele>
        <time>2019-02-15T13:49:41Z</time>
      </trkpt>
      <trkpt lat="45.32192" lon="5.76181">
        <ele>1849.246</ele>
        <time>2019-02-15T13:49:51Z</time>
      </trkpt>
      <trkpt lat="45.322" lon="5.76184">
        <ele>1850.27</ele>
        <time>2019-02-15T13:50:02Z</time>
      </trkpt>
      <trkpt lat="45.32208" lon="5.76191">
        <ele>1852.154</ele>
        <time>2019-02-15T13:50:12Z</time>
      </trkpt>
      <trkpt lat="45.32215" lon="5.76197">
        <ele>1854.303</ele>
        <time>2019-02-15T13:50:22Z</time>
      </trkpt>
      <trkpt lat="45.32223" lon="5.76195">
        <ele>1856.787</ele>
        <time>2019-02-15T13:50:33Z</time>
      </trkpt>
      <trkpt lat="45.32228" lon="5.76192">
        <ele>1858.696</ele>
        <time>2019-02-15T13:50:43Z</time>
      </trkpt>
      <trkpt lat="45.32235" lon="5.76196">
        <ele>1860.917</ele>
        <time>2019-02-15T13:50:54Z</time>
      </trkpt>
      <trkpt lat="45.32237" lon="5.76198">
        <ele>1862.714</ele>
        <time>2019-02-15T13:51:05Z</time>
      </trkpt>
      <trkpt lat="45.32242" lon="5.76199">
        <ele>1864.396</ele>
        <time>2019-02-15T13:51:15Z</time>
      </trkpt>
      <trkpt lat="45.32246" lon="5.76197">
        <ele>1865.804</ele>
        <time>2019-02-15T13:51:26Z</time>
      </trkpt>
      <trkpt lat="45.3225" lon="5.76196">
        <ele>1866.009</ele>
        <time>2019-02-15T13:51:37Z</time>
      </trkpt>
      <trkpt lat="45.3225" lon="5.76196">
        <ele>1866.54</ele>
        <time>2019-02-15T13:51:47Z</time>
      </trkpt>
      <trkpt lat="45.3225" lon="5.76196">
        <ele>1867.016</ele>
        <time>2019-02-15T13:51:58Z</time>
      </trkpt>
      <trkpt lat="45.3225" lon="5.76196">
        <ele>1867.836</ele>
        <time>2019-02-15T13:52:08Z</time>
      </trkpt>
      <trkpt lat="45.32252" lon="5.76197">
        <ele>1869.449</ele>
        <time>2019-02-15T13:52:18Z</time>
      </trkpt>
      <trkpt lat="45.32257" lon="5.76197">
        <ele>1871.351</ele>
        <time>2019-02-15T13:52:28Z</time>
      </trkpt>
      <trkpt lat="45.32269" lon="5.76196">
        <ele>1873.852</ele>
        <time>2019-02-15T13:52:39Z</time>
      </trkpt>
      <trkpt lat="45.32276" lon="5.76194">
        <ele>1875.482</ele>
        <time>2019-02-15T13:52:50Z</time>
      </trkpt>
      <trkpt lat="45.32285" lon="5.76195">
        <ele>1876.381</ele>
        <time>2019-02-15T13:53:01Z</time>
      </trkpt>
      <trkpt lat="45.32291" lon="5.76193">
        <ele>1877.256</ele>
        <time>2019-02-15T13:53:12Z</time>
      </trkpt>
      <trkpt lat="45.32297" lon="5.76196">
        <ele>1878.165</ele>
        <time>2019-02-15T13:53:22Z</time>
      </trkpt>
      <trkpt lat="45.32303" lon="5.76203">
        <ele>1879.544</ele>
        <time>2019-02-15T13:53:33Z</time>
      </trkpt>
      <trkpt lat="45.32304" lon="5.76208">
        <ele>1880.226</ele>
        <time>2019-02-15T13:53:44Z</time>
      </trkpt>
      <trkpt lat="45.32305" lon="5.76209">
        <ele>1880.947</ele>
        <time>2019-02-15T13:53:54Z</time>
      </trkpt>
      <trkpt lat="45.32319" lon="5.76216">
        <ele>1882.145</ele>
        <time>2019-02-15T13:54:05Z</time>
      </trkpt>
      <trkpt lat="45.32329" lon="5.76227">
        <ele>1882.541</ele>
        <time>2019-02-15T13:54:15Z</time>
      </trkpt>
      <trkpt lat="45.32342" lon="5.76246">
        <ele>1882.592</ele>
        <time>2019-02-15T13:54:26Z</time>
      </trkpt>
      <trkpt lat="45.32353" lon="5.76263">
        <ele>1882.57</ele>
        <time>2019-02-15T13:54:37Z</time>
      </trkpt>
      <trkpt lat="45.32365" lon="5.76273">
        <ele>1882.602</ele>
        <time>2019-02-15T13:54:48Z</time>
      </trkpt>
      <trkpt lat="45.32369" lon="5.76277">
        <ele>1882.582</ele>
        <time>2019-02-15T13:54:59Z</time>
      </trkpt>
      <trkpt lat="45.32378" lon="5.76291">
        <ele>1882.691</ele>
        <time>2019-02-15T13:55:09Z</time>
      </trkpt>
      <trkpt lat="45.32383" lon="5.76301">
        <ele>1882.586</ele>
        <time>2019-02-15T13:55:19Z</time>
      </trkpt>
      <trkpt lat="45.32389" lon="5.76307">
        <ele>1883.177</ele>
        <time>2019-02-15T13:55:29Z</time>
      </trkpt>
      <trkpt lat="45.32396" lon="5.76316">
        <ele>1884.243</ele>
        <time>2019-02-15T13:55:40Z</time>
      </trkpt>
      <trkpt lat="45.32401" lon="5.76322">
        <ele>1885.201</ele>
        <time>2019-02-15T13:55:50Z</time>
      </trkpt>
      <trkpt lat="45.32407" lon="5.76332">
        <ele>1886.3</ele>
        <time>2019-02-15T13:56:00Z</time>
      </trkpt>
      <trkpt lat="45.3241" lon="5.7634">
        <ele>1887.439</ele>
        <time>2019-02-15T13:56:11Z</time>
      </trkpt>
      <trkpt lat="45.32417" lon="5.76345">
        <ele>1888.95</ele>
        <time>2019-02-15T13:56:21Z</time>
      </trkpt>
      <trkpt lat="45.32425" lon="5.76349">
        <ele>1890.037</ele>
        <time>2019-02-15T13:56:31Z</time>
      </trkpt>
      <trkpt lat="45.32432" lon="5.76355">
        <ele>1890.849</ele>
        <time>2019-02-15T13:56:42Z</time>
      </trkpt>
      <trkpt lat="45.32439" lon="5.76361">
        <ele>1892.268</ele>
        <time>2019-02-15T13:56:53Z</time>
      </trkpt>
      <trkpt lat="45.32441" lon="5.76366">
        <ele>1893.243</ele>
        <time>2019-02-15T13:57:04Z</time>
      </trkpt>
      <trkpt lat="45.3245" lon="5.76372">
        <ele>1894.612</ele>
        <time>2019-02-15T13:57:15Z</time>
      </trkpt>
      <trkpt lat="45.32458" lon="5.76377">
        <ele>1896.245</ele>
        <time>2019-02-15T13:57:26Z</time>
      </trkpt>
      <trkpt lat="45.32464" lon="5.7638">
        <ele>1897.73</ele>
        <time>2019-02-15T13:57:37Z</time>
      </trkpt>
      <trkpt lat="45.32471" lon="5.76384">
        <ele>1899.055</ele>
        <time>2019-02-15T13:57:47Z</time>
      </trkpt>
      <trkpt lat="45.32477" lon="5.76391">
        <ele>1901.286</ele>
        <time>2019-02-15T13:57:58Z</time>
      </trkpt>
      <trkpt lat="45.32481" lon="5.76393">
        <ele>1903.262</ele>
        <time>2019-02-15T13:58:09Z</time>
      </trkpt>
      <trkpt lat="45.32487" lon="5.76399">
        <ele>1905.347</ele>
        <time>2019-02-15T13:58:20Z</time>
      </trkpt>
      <trkpt lat="45.32492" lon="5.76404">
        <ele>1906.817</ele>
        <time>2019-02-15T13:58:30Z</time>
      </trkpt>
      <trkpt lat="45.32499" lon="5.76405">
        <ele>1908.593</ele>
        <time>2019-02-15T13:58:41Z</time>
      </trkpt>
      <trkpt lat="45.32503" lon="5.7641">
        <ele>1909.658</ele>
        <time>2019-02-15T13:58:51Z</time>
      </trkpt>
      <trkpt lat="45.32512" lon="5.76412">
        <ele>1910.732</ele>
        <time>2019-02-15T13:59:01Z</time>
      </trkpt>
      <trkpt lat="45.32515" lon="5.76411">
        <ele>1911.285</ele>
        <time>2019-02-15T13:59:12Z</time>
      </trkpt>
      <trkpt lat="45.32515" lon="5.76413">
        <ele>1911.698</ele>
        <time>2019-02-15T13:59:23Z</time>
      </trkpt>
      <trkpt lat="45.32515" lon="5.76413">
        <ele>1911.896</ele>
        <time>2019-02-15T13:59:34Z</time>
      </trkpt>
      <trkpt lat="45.32515" lon="5.76413">
        <ele>1912.128</ele>
        <time>2019-02-15T13:59:45Z</time>
      </trkpt>
      <trkpt lat="45.32515" lon="5.76412">
        <ele>1912.792</ele>
        <time>2019-02-15T13:59:55Z</time>
      </trkpt>
      <trkpt lat="45.32518" lon="5.76411">
        <ele>1913.944</ele>
        <time>2019-02-15T14:00:06Z</time>
      </trkpt>
      <trkpt lat="45.32516" lon="5.76411">
        <ele>1914.723</ele>
        <time>2019-02-15T14:00:17Z</time>
      </trkpt>
      <trkpt lat="45.32515" lon="5.76412">
        <ele>1915.369</ele>
        <time>2019-02-15T14:00:27Z</time>
      </trkpt>
      <trkpt lat="45.32515" lon="5.76412">
        <ele>1915.533</ele>
        <time>2019-02-15T14:00:37Z</time>
      </trkpt>
      <trkpt lat="45.32515" lon="5.76412">
        <ele>1915.682</ele>
        <time>2019-02-15T14:00:48Z</time>
      </trkpt>
      <trkpt lat="45.32516" lon="5.76411">
        <ele>1915.754</ele>
        <time>2019-02-15T14:00:58Z</time>
      </trkpt>
      <trkpt lat="45.32516" lon="5.76411">
        <ele>1916.039</ele>
        <time>2019-02-15T14:01:08Z</time>
      </trkpt>
      <trkpt lat="45.32517" lon="5.76418">
        <ele>1917.491</ele>
        <time>2019-02-15T14:01:19Z</time>
      </trkpt>
      <trkpt lat="45.32517" lon="5.76419">
        <ele>1917.867</ele>
        <time>2019-02-15T14:01:30Z</time>
      </trkpt>
      <trkpt lat="45.32516" lon="5.7642">
        <ele>1917.848</ele>
        <time>2019-02-15T14:01:41Z</time>
      </trkpt>
      <trkpt lat="45.32516" lon="5.76421">
        <ele>1917.747</ele>
        <time>2019-02-15T14:01:51Z</time>
      </trkpt>
      <trkpt lat="45.32516" lon="5.76419">
        <ele>1917.646</ele>
        <time>2019-02-15T14:02:02Z</time>
      </trkpt>
      <trkpt lat="45.32515" lon="5.76413">
        <ele>1917.644</ele>
        <time>2019-02-15T14:02:12Z</time>
      </trkpt>
      <trkpt lat="45.32513" lon="5.76413">
        <ele>1917.651</ele>
        <time>2019-02-15T14:02:23Z</time>
      </trkpt>
      <trkpt lat="45.32514" lon="5.76413">
        <ele>1917.667</ele>
        <time>2019-02-15T14:02:33Z</time>
      </trkpt>
      <trkpt lat="45.32514" lon="5.76412">
        <ele>1917.682</ele>
        <time>2019-02-15T14:02:44Z</time>
      </trkpt>
      <trkpt lat="45.32514" lon="5.76412">
        <ele>1917.678</ele>
        <time>2019-02-15T14:02:56Z</time>
      </trkpt>
      <trkpt lat="45.32514" lon="5.76412">
        <ele>1917.696</ele>
        <time>2019-02-15T14:03:06Z</time>
      </trkpt>
      <trkpt lat="45.32514" lon="5.76412">
        <ele>1917.726</ele>
        <time>2019-02-15T14:03:17Z</time>
      </trkpt>
      <trkpt lat="45.32514" lon="5.76412">
        <ele>1917.745</ele>
        <time>2019-02-15T14:03:27Z</time>
      </trkpt>
      <trkpt lat="45.32513" lon="5.76412">
        <ele>1917.641</ele>
        <time>2019-02-15T14:03:38Z</time>
      </trkpt>
      <trkpt lat="45.32513" lon="5.76412">
        <ele>1917.577</ele>
        <time>2019-02-15T14:03:49Z</time>
      </trkpt>
      <trkpt lat="45.32513" lon="5.76412">
        <ele>1917.545</ele>
        <time>2019-02-15T14:04:00Z</time>
      </trkpt>
      <trkpt lat="45.32513" lon="5.76411">
        <ele>1917.512</ele>
        <time>2019-02-15T14:04:11Z</time>
      </trkpt>
      <trkpt lat="45.32513" lon="5.76411">
        <ele>1917.473</ele>
        <time>2019-02-15T14:04:21Z</time>
      </trkpt>
      <trkpt lat="45.32513" lon="5.76411">
        <ele>1917.432</ele>
        <time>2019-02-15T14:04:32Z</time>
      </trkpt>
      <trkpt lat="45.32513" lon="5.76411">
        <ele>1917.405</ele>
        <time>2019-02-15T14:04:43Z</time>
      </trkpt>
      <trkpt lat="45.32513" lon="5.76411">
        <ele>1917.379</ele>
        <time>2019-02-15T14:04:54Z</time>
      </trkpt>
      <trkpt lat="45.32513" lon="5.76411">
        <ele>1917.352</ele>
        <time>2019-02-15T14:05:05Z</time>
      </trkpt>
      <trkpt lat="45.32513" lon="5.76411">
        <ele>1917.325</ele>
        <time>2019-02-15T14:05:16Z</time>
      </trkpt>
      <trkpt lat="45.32513" lon="5.76411">
        <ele>1917.299</ele>
        <time>2019-02-15T14:05:26Z</time>
      </trkpt>
      <trkpt lat="45.32513" lon="5.76411">
        <ele>1917.273</ele>
        <time>2019-02-15T14:05:37Z</time>
      </trkpt>
      <trkpt lat="45.32513" lon="5.76411">
        <ele>1917.245</ele>
        <time>2019-02-15T14:05:48Z</time>
      </trkpt>
      <trkpt lat="45.32513" lon="5.76411">
        <ele>1917.215</ele>
        <time>2019-02-15T14:05:58Z</time>
      </trkpt>
      <trkpt lat="45.32513" lon="5.76411">
        <ele>1917.189</ele>
        <time>2019-02-15T14:06:09Z</time>
      </trkpt>
      <trkpt lat="45.32513" lon="5.76411">
        <ele>1917.171</ele>
        <time>2019-02-15T14:06:20Z</time>
      </trkpt>
      <trkpt lat="45.32513" lon="5.76411">
        <ele>1917.167</ele>
        <time>2019-02-15T14:06:30Z</time>
      </trkpt>
      <trkpt lat="45.32513" lon="5.76411">
        <ele>1917.156</ele>
        <time>2019-02-15T14:06:41Z</time>
      </trkpt>
      <trkpt lat="45.32513" lon="5.76411">
        <ele>1917.126</ele>
        <time>2019-02-15T14:06:52Z</time>
      </trkpt>
      <trkpt lat="45.32513" lon="5.76412">
        <ele>1917.055</ele>
        <time>2019-02-15T14:07:03Z</time>
      </trkpt>
      <trkpt lat="45.32513" lon="5.76411">
        <ele>1916.987</ele>
        <time>2019-02-15T14:07:14Z</time>
      </trkpt>
      <trkpt lat="45.32513" lon="5.76411">
        <ele>1916.939</ele>
        <time>2019-02-15T14:07:24Z</time>
      </trkpt>
      <trkpt lat="45.32512" lon="5.76411">
        <ele>1916.89</ele>
        <time>2019-02-15T14:07:35Z</time>
      </trkpt>
      <trkpt lat="45.32512" lon="5.76411">
        <ele>1916.871</ele>
        <time>2019-02-15T14:07:46Z</time>
      </trkpt>
      <trkpt lat="45.32512" lon="5.76411">
        <ele>1916.859</ele>
        <time>2019-02-15T14:07:57Z</time>
      </trkpt>
      <trkpt lat="45.32512" lon="5.7641">
        <ele>1916.853</ele>
        <time>2019-02-15T14:08:08Z</time>
      </trkpt>
      <trkpt lat="45.32512" lon="5.7641">
        <ele>1916.85</ele>
        <time>2019-02-15T14:08:18Z</time>
      </trkpt>
      <trkpt lat="45.32512" lon="5.76411">
        <ele>1916.849</ele>
        <time>2019-02-15T14:08:28Z</time>
      </trkpt>
      <trkpt lat="45.32512" lon="5.76411">
        <ele>1916.849</ele>
        <time>2019-02-15T14:08:39Z</time>
      </trkpt>
      <trkpt lat="45.32511" lon="5.76413">
        <ele>1916.918</ele>
        <time>2019-02-15T14:08:49Z</time>
      </trkpt>
      <trkpt lat="45.32506" lon="5.76422">
        <ele>1916.755</ele>
        <time>2019-02-15T14:09:00Z</time>
      </trkpt>
      <trkpt lat="45.32507" lon="5.76421">
        <ele>1916.626</ele>
        <time>2019-02-15T14:09:11Z</time>
      </trkpt>
      <trkpt lat="45.32507" lon="5.76421">
        <ele>1916.597</ele>
        <time>2019-02-15T14:09:21Z</time>
      </trkpt>
      <trkpt lat="45.32506" lon="5.76421">
        <ele>1916.582</ele>
        <time>2019-02-15T14:09:32Z</time>
      </trkpt>
      <trkpt lat="45.32506" lon="5.76421">
        <ele>1916.372</ele>
        <time>2019-02-15T14:09:43Z</time>
      </trkpt>
      <trkpt lat="45.32507" lon="5.7642">
        <ele>1916.133</ele>
        <time>2019-02-15T14:09:54Z</time>
      </trkpt>
      <trkpt lat="45.32507" lon="5.7642">
        <ele>1916.059</ele>
        <time>2019-02-15T14:10:04Z</time>
      </trkpt>
      <trkpt lat="45.32507" lon="5.7642">
        <ele>1916.041</ele>
        <time>2019-02-15T14:10:15Z</time>
      </trkpt>
      <trkpt lat="45.32507" lon="5.76419">
        <ele>1916.009</ele>
        <time>2019-02-15T14:10:26Z</time>
      </trkpt>
      <trkpt lat="45.32507" lon="5.76419">
        <ele>1915.964</ele>
        <time>2019-02-15T14:10:37Z</time>
      </trkpt>
      <trkpt lat="45.32506" lon="5.76419">
        <ele>1915.919</ele>
        <time>2019-02-15T14:10:48Z</time>
      </trkpt>
      <trkpt lat="45.32507" lon="5.76419">
        <ele>1915.859</ele>
        <time>2019-02-15T14:10:58Z</time>
      </trkpt>
      <trkpt lat="45.32507" lon="5.7642">
        <ele>1915.817</ele>
        <time>2019-02-15T14:11:09Z</time>
      </trkpt>
      <trkpt lat="45.32506" lon="5.7642">
        <ele>1915.767</ele>
        <time>2019-02-15T14:11:20Z</time>
      </trkpt>
      <trkpt lat="45.32506" lon="5.76419">
        <ele>1915.738</ele>
        <time>2019-02-15T14:11:31Z</time>
      </trkpt>
      <trkpt lat="45.32507" lon="5.76419">
        <ele>1915.731</ele>
        <time>2019-02-15T14:11:41Z</time>
      </trkpt>
      <trkpt lat="45.32507" lon="5.76419">
        <ele>1915.7</ele>
        <time>2019-02-15T14:11:52Z</time>
      </trkpt>
      <trkpt lat="45.32507" lon="5.76419">
        <ele>1915.674</ele>
        <time>2019-02-15T14:12:03Z</time>
      </trkpt>
      <trkpt lat="45.32507" lon="5.76418">
        <ele>1915.611</ele>
        <time>2019-02-15T14:12:13Z</time>
      </trkpt>
      <trkpt lat="45.32507" lon="5.76418">
        <ele>1915.535</ele>
        <time>2019-02-15T14:12:24Z</time>
      </trkpt>
      <trkpt lat="45.32507" lon="5.76418">
        <ele>1915.535</ele>
        <time>2019-02-15T14:12:34Z</time>
      </trkpt>
      <trkpt lat="45.32507" lon="5.76419">
        <ele>1915.55</ele>
        <time>2019-02-15T14:12:44Z</time>
      </trkpt>
      <trkpt lat="45.32507" lon="5.76419">
        <ele>1915.564</ele>
        <time>2019-02-15T14:12:55Z</time>
      </trkpt>
      <trkpt lat="45.32507" lon="5.76419">
        <ele>1915.571</ele>
        <time>2019-02-15T14:13:05Z</time>
      </trkpt>
      <trkpt lat="45.32507" lon="5.76419">
        <ele>1915.594</ele>
        <time>2019-02-15T14:13:16Z</time>
      </trkpt>
      <trkpt lat="45.32507" lon="5.76418">
        <ele>1915.632</ele>
        <time>2019-02-15T14:13:26Z</time>
      </trkpt>
      <trkpt lat="45.32507" lon="5.76418">
        <ele>1915.646</ele>
        <time>2019-02-15T14:13:37Z</time>
      </trkpt>
      <trkpt lat="45.32507" lon="5.76419">
        <ele>1915.69</ele>
        <time>2019-02-15T14:13:48Z</time>
      </trkpt>
      <trkpt lat="45.32508" lon="5.76417">
        <ele>1915.598</ele>
        <time>2019-02-15T14:13:58Z</time>
      </trkpt>
      <trkpt lat="45.32507" lon="5.76416">
        <ele>1915.66</ele>
        <time>2019-02-15T14:14:09Z</time>
      </trkpt>
      <trkpt lat="45.32506" lon="5.76413">
        <ele>1915.848</ele>
        <time>2019-02-15T14:14:19Z</time>
      </trkpt>
      <trkpt lat="45.32508" lon="5.76417">
        <ele>1915.682</ele>
        <time>2019-02-15T14:14:29Z</time>
      </trkpt>
      <trkpt lat="45.32509" lon="5.76417">
        <ele>1915.521</ele>
        <time>2019-02-15T14:14:39Z</time>
      </trkpt>
      <trkpt lat="45.32509" lon="5.76418">
        <ele>1915.59</ele>
        <time>2019-02-15T14:14:50Z</time>
      </trkpt>
      <trkpt lat="45.32509" lon="5.76419">
        <ele>1915.773</ele>
        <time>2019-02-15T14:15:01Z</time>
      </trkpt>
      <trkpt lat="45.32509" lon="5.76419">
        <ele>1915.87</ele>
        <time>2019-02-15T14:15:12Z</time>
      </trkpt>
      <trkpt lat="45.32508" lon="5.7642">
        <ele>1916.108</ele>
        <time>2019-02-15T14:15:22Z</time>
      </trkpt>
      <trkpt lat="45.32508" lon="5.7642">
        <ele>1916.201</ele>
        <time>2019-02-15T14:15:33Z</time>
      </trkpt>
      <trkpt lat="45.32508" lon="5.7642">
        <ele>1916.281</ele>
        <time>2019-02-15T14:15:43Z</time>
      </trkpt>
      <trkpt lat="45.32507" lon="5.76421">
        <ele>1916.342</ele>
        <time>2019-02-15T14:15:53Z</time>
      </trkpt>
      <trkpt lat="45.32507" lon="5.76421">
        <ele>1916.416</ele>
        <time>2019-02-15T14:16:04Z</time>
      </trkpt>
      <trkpt lat="45.32507" lon="5.76421">
        <ele>1916.513</ele>
        <time>2019-02-15T14:16:14Z</time>
      </trkpt>
      <trkpt lat="45.32507" lon="5.76421">
        <ele>1916.719</ele>
        <time>2019-02-15T14:16:25Z</time>
      </trkpt>
      <trkpt lat="45.32507" lon="5.76422">
        <ele>1916.787</ele>
        <time>2019-02-15T14:16:36Z</time>
      </trkpt>
      <trkpt lat="45.32507" lon="5.76421">
        <ele>1917.006</ele>
        <time>2019-02-15T14:16:46Z</time>
      </trkpt>
      <trkpt lat="45.32507" lon="5.76421">
        <ele>1917.057</ele>
        <time>2019-02-15T14:16:57Z</time>
      </trkpt>
      <trkpt lat="45.32508" lon="5.76421">
        <ele>1917.088</ele>
        <time>2019-02-15T14:17:08Z</time>
      </trkpt>
      <trkpt lat="45.32508" lon="5.76421">
        <ele>1917.098</ele>
        <time>2019-02-15T14:17:18Z</time>
      </trkpt>
      <trkpt lat="45.32508" lon="5.76421">
        <ele>1917.119</ele>
        <time>2019-02-15T14:17:29Z</time>
      </trkpt>
      <trkpt lat="45.32508" lon="5.76421">
        <ele>1917.134</ele>
        <time>2019-02-15T14:17:39Z</time>
      </trkpt>
      <trkpt lat="45.32508" lon="5.76421">
        <ele>1917.144</ele>
        <time>2019-02-15T14:17:50Z</time>
      </trkpt>
      <trkpt lat="45.32507" lon="5.76421">
        <ele>1917.146</ele>
        <time>2019-02-15T14:18:00Z</time>
      </trkpt>
      <trkpt lat="45.32507" lon="5.76421">
        <ele>1917.137</ele>
        <time>2019-02-15T14:18:10Z</time>
      </trkpt>
      <trkpt lat="45.32507" lon="5.76421">
        <ele>1917.124</ele>
        <time>2019-02-15T14:18:21Z</time>
      </trkpt>
      <trkpt lat="45.32507" lon="5.76421">
        <ele>1917.111</ele>
        <time>2019-02-15T14:18:32Z</time>
      </trkpt>
      <trkpt lat="45.32507" lon="5.76421">
        <ele>1917.094</ele>
        <time>2019-02-15T14:18:42Z</time>
      </trkpt>
      <trkpt lat="45.32507" lon="5.76421">
        <ele>1917.068</ele>
        <time>2019-02-15T14:18:53Z</time>
      </trkpt>
      <trkpt lat="45.32507" lon="5.76421">
        <ele>1917.042</ele>
        <time>2019-02-15T14:19:03Z</time>
      </trkpt>
      <trkpt lat="45.32507" lon="5.76421">
        <ele>1917.022</ele>
        <time>2019-02-15T14:19:14Z</time>
      </trkpt>
      <trkpt lat="45.32507" lon="5.76422">
        <ele>1917.001</ele>
        <time>2019-02-15T14:19:25Z</time>
      </trkpt>
      <trkpt lat="45.32508" lon="5.76421">
        <ele>1917.007</ele>
        <time>2019-02-15T14:19:36Z</time>
      </trkpt>
      <trkpt lat="45.32512" lon="5.76413">
        <ele>1916.727</ele>
        <time>2019-02-15T14:19:47Z</time>
      </trkpt>
      <trkpt lat="45.32515" lon="5.76411">
        <ele>1916.776</ele>
        <time>2019-02-15T14:19:58Z</time>
      </trkpt>
      <trkpt lat="45.32515" lon="5.76412">
        <ele>1916.789</ele>
        <time>2019-02-15T14:20:09Z</time>
      </trkpt>
      <trkpt lat="45.32515" lon="5.76412">
        <ele>1916.749</ele>
        <time>2019-02-15T14:20:19Z</time>
      </trkpt>
      <trkpt lat="45.32515" lon="5.76412">
        <ele>1916.684</ele>
        <time>2019-02-15T14:20:30Z</time>
      </trkpt>
      <trkpt lat="45.32514" lon="5.76412">
        <ele>1916.487</ele>
        <time>2019-02-15T14:20:41Z</time>
      </trkpt>
      <trkpt lat="45.32513" lon="5.7641">
        <ele>1916.218</ele>
        <time>2019-02-15T14:20:51Z</time>
      </trkpt>
      <trkpt lat="45.32514" lon="5.7641">
        <ele>1916.212</ele>
        <time>2019-02-15T14:21:02Z</time>
      </trkpt>
      <trkpt lat="45.32514" lon="5.76411">
        <ele>1916.215</ele>
        <time>2019-02-15T14:21:13Z</time>
      </trkpt>
      <trkpt lat="45.32515" lon="5.76411">
        <ele>1916.329</ele>
        <time>2019-02-15T14:21:23Z</time>
      </trkpt>
      <trkpt lat="45.32515" lon="5.76411">
        <ele>1916.386</ele>
        <time>2019-02-15T14:21:34Z</time>
      </trkpt>
      <trkpt lat="45.32515" lon="5.76411">
        <ele>1916.499</ele>
        <time>2019-02-15T14:21:45Z</time>
      </trkpt>
      <trkpt lat="45.32515" lon="5.76412">
        <ele>1916.551</ele>
        <time>2019-02-15T14:21:56Z</time>
      </trkpt>
      <trkpt lat="45.32515" lon="5.76411">
        <ele>1916.569</ele>
        <time>2019-02-15T14:22:07Z</time>
      </trkpt>
      <trkpt lat="45.32515" lon="5.76411">
        <ele>1916.593</ele>
        <time>2019-02-15T14:22:18Z</time>
      </trkpt>
      <trkpt lat="45.32516" lon="5.7641">
        <ele>1916.725</ele>
        <time>2019-02-15T14:22:28Z</time>
      </trkpt>
      <trkpt lat="45.32499" lon="5.76405">
        <ele>1916.796</ele>
        <time>2019-02-15T14:22:38Z</time>
      </trkpt>
      <trkpt lat="45.32458" lon="5.76371">
        <ele>1911.492</ele>
        <time>2019-02-15T14:22:49Z</time>
      </trkpt>
      <trkpt lat="45.32393" lon="5.76307">
        <ele>1893.756</ele>
        <time>2019-02-15T14:22:59Z</time>
      </trkpt>
      <trkpt lat="45.32326" lon="5.76215">
        <ele>1885.646</ele>
        <time>2019-02-15T14:23:10Z</time>
      </trkpt>
      <trkpt lat="45.32319" lon="5.76211">
        <ele>1885.33</ele>
        <time>2019-02-15T14:23:21Z</time>
      </trkpt>
      <trkpt lat="45.32317" lon="5.76205">
        <ele>1885.308</ele>
        <time>2019-02-15T14:23:31Z</time>
      </trkpt>
      <trkpt lat="45.32317" lon="5.76205">
        <ele>1885.421</ele>
        <time>2019-02-15T14:23:42Z</time>
      </trkpt>
      <trkpt lat="45.32317" lon="5.76205">
        <ele>1885.596</ele>
        <time>2019-02-15T14:23:52Z</time>
      </trkpt>
      <trkpt lat="45.32313" lon="5.76201">
        <ele>1885.823</ele>
        <time>2019-02-15T14:24:03Z</time>
      </trkpt>
      <trkpt lat="45.32307" lon="5.762">
        <ele>1886.17</ele>
        <time>2019-02-15T14:24:14Z</time>
      </trkpt>
      <trkpt lat="45.32304" lon="5.76199">
        <ele>1886.589</ele>
        <time>2019-02-15T14:24:25Z</time>
      </trkpt>
      <trkpt lat="45.32277" lon="5.76183">
        <ele>1887.454</ele>
        <time>2019-02-15T14:24:36Z</time>
      </trkpt>
      <trkpt lat="45.32249" lon="5.76171">
        <ele>1887.094</ele>
        <time>2019-02-15T14:24:47Z</time>
      </trkpt>
      <trkpt lat="45.32228" lon="5.76168">
        <ele>1886.211</ele>
        <time>2019-02-15T14:24:58Z</time>
      </trkpt>
      <trkpt lat="45.32206" lon="5.76181">
        <ele>1881.807</ele>
        <time>2019-02-15T14:25:09Z</time>
      </trkpt>
      <trkpt lat="45.32183" lon="5.76154">
        <ele>1878.847</ele>
        <time>2019-02-15T14:25:20Z</time>
      </trkpt>
      <trkpt lat="45.32156" lon="5.76165">
        <ele>1870.641</ele>
        <time>2019-02-15T14:25:31Z</time>
      </trkpt>
      <trkpt lat="45.32128" lon="5.76148">
        <ele>1865.099</ele>
        <time>2019-02-15T14:25:42Z</time>
      </trkpt>
      <trkpt lat="45.32105" lon="5.76129">
        <ele>1861.522</ele>
        <time>2019-02-15T14:25:53Z</time>
      </trkpt>
      <trkpt lat="45.32075" lon="5.76114">
        <ele>1853.521</ele>
        <time>2019-02-15T14:26:04Z</time>
      </trkpt>
      <trkpt lat="45.32051" lon="5.76097">
        <ele>1838.867</ele>
        <time>2019-02-15T14:26:14Z</time>
      </trkpt>
      <trkpt lat="45.32021" lon="5.76104">
        <ele>1830.656</ele>
        <time>2019-02-15T14:26:25Z</time>
      </trkpt>
      <trkpt lat="45.31997" lon="5.761">
        <ele>1819.628</ele>
        <time>2019-02-15T14:26:35Z</time>
      </trkpt>
      <trkpt lat="45.31973" lon="5.7609">
        <ele>1814.063</ele>
        <time>2019-02-15T14:26:46Z</time>
      </trkpt>
      <trkpt lat="45.3194" lon="5.76076">
        <ele>1801.45</ele>
        <time>2019-02-15T14:26:57Z</time>
      </trkpt>
      <trkpt lat="45.31924" lon="5.76044">
        <ele>1796.034</ele>
        <time>2019-02-15T14:27:07Z</time>
      </trkpt>
      <trkpt lat="45.31916" lon="5.76027">
        <ele>1793.115</ele>
        <time>2019-02-15T14:27:18Z</time>
      </trkpt>
      <trkpt lat="45.31944" lon="5.75988">
        <ele>1777.029</ele>
        <time>2019-02-15T14:27:29Z</time>
      </trkpt>
      <trkpt lat="45.31972" lon="5.75953">
        <ele>1772.814</ele>
        <time>2019-02-15T14:27:40Z</time>
      </trkpt>
      <trkpt lat="45.31967" lon="5.75926">
        <ele>1762.91</ele>
        <time>2019-02-15T14:27:50Z</time>
      </trkpt>
      <trkpt lat="45.31925" lon="5.75852">
        <ele>1753.149</ele>
        <time>2019-02-15T14:28:00Z</time>
      </trkpt>
      <trkpt lat="45.31882" lon="5.75734">
        <ele>1748.895</ele>
        <time>2019-02-15T14:28:11Z</time>
      </trkpt>
      <trkpt lat="45.31868" lon="5.75689">
        <ele>1747.871</ele>
        <time>2019-02-15T14:28:22Z</time>
      </trkpt>
      <trkpt lat="45.3186" lon="5.75652">
        <ele>1744.39</ele>
        <time>2019-02-15T14:28:32Z</time>
      </trkpt>
      <trkpt lat="45.31853" lon="5.75617">
        <ele>1741.944</ele>
        <time>2019-02-15T14:28:43Z</time>
      </trkpt>
      <trkpt lat="45.31842" lon="5.75587">
        <ele>1739.227</ele>
        <time>2019-02-15T14:28:53Z</time>
      </trkpt>
      <trkpt lat="45.31823" lon="5.75577">
        <ele>1736.104</ele>
        <time>2019-02-15T14:29:04Z</time>
      </trkpt>
      <trkpt lat="45.31796" lon="5.75576">
        <ele>1733.06</ele>
        <time>2019-02-15T14:29:15Z</time>
      </trkpt>
      <trkpt lat="45.31754" lon="5.75585">
        <ele>1719.501</ele>
        <time>2019-02-15T14:29:26Z</time>
      </trkpt>
      <trkpt lat="45.31723" lon="5.75555">
        <ele>1718.594</ele>
        <time>2019-02-15T14:29:37Z</time>
      </trkpt>
      <trkpt lat="45.31687" lon="5.75538">
        <ele>1714.46</ele>
        <time>2019-02-15T14:29:47Z</time>
      </trkpt>
      <trkpt lat="45.31659" lon="5.75509">
        <ele>1713.209</ele>
        <time>2019-02-15T14:29:57Z</time>
      </trkpt>
      <trkpt lat="45.31627" lon="5.75475">
        <ele>1711.495</ele>
        <time>2019-02-15T14:30:08Z</time>
      </trkpt>
      <trkpt lat="45.31591" lon="5.75447">
        <ele>1708.351</ele>
        <time>2019-02-15T14:30:18Z</time>
      </trkpt>
      <trkpt lat="45.31546" lon="5.75428">
        <ele>1705.572</ele>
        <time>2019-02-15T14:30:29Z</time>
      </trkpt>
      <trkpt lat="45.31506" lon="5.754">
        <ele>1705.966</ele>
        <time>2019-02-15T14:30:39Z</time>
      </trkpt>
      <trkpt lat="45.31461" lon="5.7539">
        <ele>1705.36</ele>
        <time>2019-02-15T14:30:50Z</time>
      </trkpt>
      <trkpt lat="45.31422" lon="5.75382">
        <ele>1704.228</ele>
        <time>2019-02-15T14:31:01Z</time>
      </trkpt>
      <trkpt lat="45.31385" lon="5.75376">
        <ele>1699.698</ele>
        <time>2019-02-15T14:31:12Z</time>
      </trkpt>
      <trkpt lat="45.31352" lon="5.75371">
        <ele>1698.389</ele>
        <time>2019-02-15T14:31:23Z</time>
      </trkpt>
      <trkpt lat="45.31318" lon="5.75393">
        <ele>1694.318</ele>
        <time>2019-02-15T14:31:34Z</time>
      </trkpt>
      <trkpt lat="45.31299" lon="5.75403">
        <ele>1693.72</ele>
        <time>2019-02-15T14:31:45Z</time>
      </trkpt>
      <trkpt lat="45.31279" lon="5.75412">
        <ele>1693.137</ele>
        <time>2019-02-15T14:31:56Z</time>
      </trkpt>
      <trkpt lat="45.31255" lon="5.75426">
        <ele>1692.595</ele>
        <time>2019-02-15T14:32:07Z</time>
      </trkpt>
      <trkpt lat="45.31234" lon="5.75446">
        <ele>1691.973</ele>
        <time>2019-02-15T14:32:18Z</time>
      </trkpt>
      <trkpt lat="45.3122" lon="5.75463">
        <ele>1691.366</ele>
        <time>2019-02-15T14:32:29Z</time>
      </trkpt>
      <trkpt lat="45.3121" lon="5.75472">
        <ele>1690.982</ele>
        <time>2019-02-15T14:32:39Z</time>
      </trkpt>
      <trkpt lat="45.31202" lon="5.75477">
        <ele>1690.891</ele>
        <time>2019-02-15T14:32:50Z</time>
      </trkpt>
      <trkpt lat="45.31195" lon="5.7548">
        <ele>1691.226</ele>
        <time>2019-02-15T14:33:00Z</time>
      </trkpt>
      <trkpt lat="45.31181" lon="5.75481">
        <ele>1691.945</ele>
        <time>2019-02-15T14:33:11Z</time>
      </trkpt>
      <trkpt lat="45.31181" lon="5.75479">
        <ele>1692.418</ele>
        <time>2019-02-15T14:33:21Z</time>
      </trkpt>
      <trkpt lat="45.31174" lon="5.75478">
        <ele>1692.705</ele>
        <time>2019-02-15T14:33:32Z</time>
      </trkpt>
      <trkpt lat="45.31157" lon="5.75474">
        <ele>1693.474</ele>
        <time>2019-02-15T14:33:42Z</time>
      </trkpt>
      <trkpt lat="45.31137" lon="5.75471">
        <ele>1694.103</ele>
        <time>2019-02-15T14:33:53Z</time>
      </trkpt>
      <trkpt lat="45.31118" lon="5.75462">
        <ele>1694.093</ele>
        <time>2019-02-15T14:34:04Z</time>
      </trkpt>
      <trkpt lat="45.31102" lon="5.75451">
        <ele>1694.687</ele>
        <time>2019-02-15T14:34:15Z</time>
      </trkpt>
      <trkpt lat="45.31078" lon="5.75433">
        <ele>1694.186</ele>
        <time>2019-02-15T14:34:25Z</time>
      </trkpt>
      <trkpt lat="45.31023" lon="5.75409">
        <ele>1688.329</ele>
        <time>2019-02-15T14:34:36Z</time>
      </trkpt>
      <trkpt lat="45.30974" lon="5.75403">
        <ele>1682.132</ele>
        <time>2019-02-15T14:34:47Z</time>
      </trkpt>
      <trkpt lat="45.30921" lon="5.75372">
        <ele>1674.813</ele>
        <time>2019-02-15T14:34:58Z</time>
      </trkpt>
      <trkpt lat="45.30867" lon="5.75331">
        <ele>1670.142</ele>
        <time>2019-02-15T14:35:08Z</time>
      </trkpt>
      <trkpt lat="45.30808" lon="5.7529">
        <ele>1661.17</ele>
        <time>2019-02-15T14:35:19Z</time>
      </trkpt>
      <trkpt lat="45.30759" lon="5.7524">
        <ele>1655.19</ele>
        <time>2019-02-15T14:35:29Z</time>
      </trkpt>
      <trkpt lat="45.30754" lon="5.75259">
        <ele>1649.129</ele>
        <time>2019-02-15T14:35:40Z</time>
      </trkpt>
      <trkpt lat="45.30801" lon="5.75324">
        <ele>1639.809</ele>
        <time>2019-02-15T14:35:50Z</time>
      </trkpt>
      <trkpt lat="45.30825" lon="5.75398">
        <ele>1634.376</ele>
        <time>2019-02-15T14:36:00Z</time>
      </trkpt>
      <trkpt lat="45.30857" lon="5.75502">
        <ele>1627.769</ele>
        <time>2019-02-15T14:36:11Z</time>
      </trkpt>
      <trkpt lat="45.30884" lon="5.75548">
        <ele>1618.672</ele>
        <time>2019-02-15T14:36:21Z</time>
      </trkpt>
      <trkpt lat="45.30827" lon="5.75514">
        <ele>1606.208</ele>
        <time>2019-02-15T14:36:31Z</time>
      </trkpt>
      <trkpt lat="45.3076" lon="5.75472">
        <ele>1601.278</ele>
        <time>2019-02-15T14:36:42Z</time>
      </trkpt>
      <trkpt lat="45.30695" lon="5.75415">
        <ele>1594.189</ele>
        <time>2019-02-15T14:36:53Z</time>
      </trkpt>
      <trkpt lat="45.3064" lon="5.75366">
        <ele>1590.128</ele>
        <time>2019-02-15T14:37:04Z</time>
      </trkpt>
      <trkpt lat="45.3057" lon="5.75324">
        <ele>1585.79</ele>
        <time>2019-02-15T14:37:14Z</time>
      </trkpt>
      <trkpt lat="45.30516" lon="5.75284">
        <ele>1581.447</ele>
        <time>2019-02-15T14:37:24Z</time>
      </trkpt>
      <trkpt lat="45.30463" lon="5.75277">
        <ele>1578.604</ele>
        <time>2019-02-15T14:37:35Z</time>
      </trkpt>
      <trkpt lat="45.30424" lon="5.75291">
        <ele>1573.663</ele>
        <time>2019-02-15T14:37:45Z</time>
      </trkpt>
      <trkpt lat="45.30393" lon="5.75342">
        <ele>1562.715</ele>
        <time>2019-02-15T14:37:56Z</time>
      </trkpt>
      <trkpt lat="45.30433" lon="5.75336">
        <ele>1546.965</ele>
        <time>2019-02-15T14:38:06Z</time>
      </trkpt>
      <trkpt lat="45.30482" lon="5.75355">
        <ele>1540.147</ele>
        <time>2019-02-15T14:38:17Z</time>
      </trkpt>
      <trkpt lat="45.30473" lon="5.75397">
        <ele>1536.524</ele>
        <time>2019-02-15T14:38:28Z</time>
      </trkpt>
      <trkpt lat="45.30476" lon="5.75437">
        <ele>1525.619</ele>
        <time>2019-02-15T14:38:39Z</time>
      </trkpt>
      <trkpt lat="45.30472" lon="5.75472">
        <ele>1522.01</ele>
        <time>2019-02-15T14:38:50Z</time>
      </trkpt>
      <trkpt lat="45.30476" lon="5.75517">
        <ele>1517.588</ele>
        <time>2019-02-15T14:39:00Z</time>
      </trkpt>
      <trkpt lat="45.30482" lon="5.7556">
        <ele>1506.045</ele>
        <time>2019-02-15T14:39:11Z</time>
      </trkpt>
      <trkpt lat="45.30506" lon="5.75587">
        <ele>1493.948</ele>
        <time>2019-02-15T14:39:21Z</time>
      </trkpt>
      <trkpt lat="45.30535" lon="5.75613">
        <ele>1483.4</ele>
        <time>2019-02-15T14:39:32Z</time>
      </trkpt>
      <trkpt lat="45.30557" lon="5.75644">
        <ele>1471.365</ele>
        <time>2019-02-15T14:39:43Z</time>
      </trkpt>
      <trkpt lat="45.30558" lon="5.75677">
        <ele>1466.616</ele>
        <time>2019-02-15T14:39:53Z</time>
      </trkpt>
      <trkpt lat="45.30557" lon="5.75699">
        <ele>1462.424</ele>
        <time>2019-02-15T14:40:04Z</time>
      </trkpt>
      <trkpt lat="45.30561" lon="5.75737">
        <ele>1457.815</ele>
        <time>2019-02-15T14:40:15Z</time>
      </trkpt>
      <trkpt lat="45.30568" lon="5.75764">
        <ele>1452.109</ele>
        <time>2019-02-15T14:40:26Z</time>
      </trkpt>
      <trkpt lat="45.3058" lon="5.7579">
        <ele>1446.443</ele>
        <time>2019-02-15T14:40:36Z</time>
      </trkpt>
      <trkpt lat="45.30577" lon="5.75795">
        <ele>1441.764</ele>
        <time>2019-02-15T14:40:47Z</time>
      </trkpt>
      <trkpt lat="45.3058" lon="5.75822">
        <ele>1436.7</ele>
        <time>2019-02-15T14:40:58Z</time>
      </trkpt>
      <trkpt lat="45.30596" lon="5.75858">
        <ele>1431.635</ele>
        <time>2019-02-15T14:41:09Z</time>
      </trkpt>
      <trkpt lat="45.30607" lon="5.7588">
        <ele>1426.255</ele>
        <time>2019-02-15T14:41:19Z</time>
      </trkpt>
      <trkpt lat="45.30613" lon="5.75906">
        <ele>1420.17</ele>
        <time>2019-02-15T14:41:29Z</time>
      </trkpt>
      <trkpt lat="45.30622" lon="5.75922">
        <ele>1408.836</ele>
        <time>2019-02-15T14:41:39Z</time>
      </trkpt>
      <trkpt lat="45.3062" lon="5.75944">
        <ele>1402.169</ele>
        <time>2019-02-15T14:41:50Z</time>
      </trkpt>
      <trkpt lat="45.30625" lon="5.75964">
        <ele>1395.031</ele>
        <time>2019-02-15T14:42:01Z</time>
      </trkpt>
      <trkpt lat="45.30629" lon="5.75975">
        <ele>1388.63</ele>
        <time>2019-02-15T14:42:11Z</time>
      </trkpt>
      <trkpt lat="45.30633" lon="5.75997">
        <ele>1382.036</ele>
        <time>2019-02-15T14:42:22Z</time>
      </trkpt>
      <trkpt lat="45.3064" lon="5.76026">
        <ele>1375.647</ele>
        <time>2019-02-15T14:42:33Z</time>
      </trkpt>
      <trkpt lat="45.30662" lon="5.76057">
        <ele>1361.239</ele>
        <time>2019-02-15T14:42:44Z</time>
      </trkpt>
      <trkpt lat="45.30682" lon="5.76095">
        <ele>1346.593</ele>
        <time>2019-02-15T14:42:54Z</time>
      </trkpt>
      <trkpt lat="45.30709" lon="5.76134">
        <ele>1339.006</ele>
        <time>2019-02-15T14:43:05Z</time>
      </trkpt>
      <trkpt lat="45.30735" lon="5.76174">
        <ele>1327.574</ele>
        <time>2019-02-15T14:43:15Z</time>
      </trkpt>
      <trkpt lat="45.30761" lon="5.76225">
        <ele>1317.105</ele>
        <time>2019-02-15T14:43:25Z</time>
      </trkpt>
      <trkpt lat="45.30789" lon="5.76288">
        <ele>1294.103</ele>
        <time>2019-02-15T14:43:36Z</time>
      </trkpt>
      <trkpt lat="45.30812" lon="5.76341">
        <ele>1285.821</ele>
        <time>2019-02-15T14:43:46Z</time>
      </trkpt>
      <trkpt lat="45.30832" lon="5.76394">
        <ele>1283.605</ele>
        <time>2019-02-15T14:43:57Z</time>
      </trkpt>
      <trkpt lat="45.30851" lon="5.76472">
        <ele>1273.685</ele>
        <time>2019-02-15T14:44:08Z</time>
      </trkpt>
      <trkpt lat="45.30819" lon="5.76536">
        <ele>1270.725</ele>
        <time>2019-02-15T14:44:19Z</time>
      </trkpt>
      <trkpt lat="45.30815" lon="5.76542">
        <ele>1270.692</ele>
        <time>2019-02-15T14:44:29Z</time>
      </trkpt>
      <trkpt lat="45.30813" lon="5.76549">
        <ele>1271.026</ele>
        <time>2019-02-15T14:44:40Z</time>
      </trkpt>
      <trkpt lat="45.30806" lon="5.76578">
        <ele>1270.632</ele>
        <time>2019-02-15T14:44:50Z</time>
      </trkpt>
      <trkpt lat="45.30794" lon="5.76613">
        <ele>1268.472</ele>
        <time>2019-02-15T14:45:01Z</time>
      </trkpt>
      <trkpt lat="45.30793" lon="5.76627">
        <ele>1266.216</ele>
        <time>2019-02-15T14:45:12Z</time>
      </trkpt>
      <trkpt lat="45.3079" lon="5.76631">
        <ele>1265.295</ele>
        <time>2019-02-15T14:45:22Z</time>
      </trkpt>
      <trkpt lat="45.3079" lon="5.76633">
        <ele>1263.025</ele>
        <time>2019-02-15T14:45:33Z</time>
      </trkpt>
      <trkpt lat="45.3079" lon="5.76633">
        <ele>1262.069</ele>
        <time>2019-02-15T14:45:43Z</time>
      </trkpt>
      <trkpt lat="45.3079" lon="5.76633">
        <ele>1261.566</ele>
        <time>2019-02-15T14:45:53Z</time>
      </trkpt>
      <trkpt lat="45.3079" lon="5.76633">
        <ele>1261.056</ele>
        <time>2019-02-15T14:46:03Z</time>
      </trkpt>
      <trkpt lat="45.30789" lon="5.76634">
        <ele>1260.472</ele>
        <time>2019-02-15T14:46:14Z</time>
      </trkpt>
      <trkpt lat="45.30789" lon="5.76639">
        <ele>1258.166</ele>
        <time>2019-02-15T14:46:25Z</time>
      </trkpt>
      <trkpt lat="45.30788" lon="5.7664">
        <ele>1257.251</ele>
        <time>2019-02-15T14:46:36Z</time>
      </trkpt>
      <trkpt lat="45.30787" lon="5.76643">
        <ele>1255.493</ele>
        <time>2019-02-15T14:46:46Z</time>
      </trkpt>
      <trkpt lat="45.30788" lon="5.76641">
        <ele>1254.608</ele>
        <time>2019-02-15T14:46:57Z</time>
      </trkpt>
      <trkpt lat="45.30789" lon="5.7664">
        <ele>1254.183</ele>
        <time>2019-02-15T14:47:08Z</time>
      </trkpt>
      <trkpt lat="45.30789" lon="5.7664">
        <ele>1253.852</ele>
        <time>2019-02-15T14:47:18Z</time>
      </trkpt>
      <trkpt lat="45.3079" lon="5.76641">
        <ele>1253.665</ele>
        <time>2019-02-15T14:47:28Z</time>
      </trkpt>
      <trkpt lat="45.30791" lon="5.76641">
        <ele>1253.466</ele>
        <time>2019-02-15T14:47:39Z</time>
      </trkpt>
      <trkpt lat="45.30791" lon="5.76641">
        <ele>1253.185</ele>
        <time>2019-02-15T14:47:50Z</time>
      </trkpt>
      <trkpt lat="45.30792" lon="5.76641">
        <ele>1252.925</ele>
        <time>2019-02-15T14:48:01Z</time>
      </trkpt>
      <trkpt lat="45.30794" lon="5.76638">
        <ele>1252.114</ele>
        <time>2019-02-15T14:48:12Z</time>
      </trkpt>
      <trkpt lat="45.30794" lon="5.76637">
        <ele>1251.468</ele>
        <time>2019-02-15T14:48:23Z</time>
      </trkpt>
      <trkpt lat="45.30796" lon="5.76635">
        <ele>1251.266</ele>
        <time>2019-02-15T14:48:34Z</time>
      </trkpt>
      <trkpt lat="45.30796" lon="5.76635">
        <ele>1251.013</ele>
        <time>2019-02-15T14:48:45Z</time>
      </trkpt>
      <trkpt lat="45.30795" lon="5.7663">
        <ele>1250.702</ele>
        <time>2019-02-15T14:48:56Z</time>
      </trkpt>
      <trkpt lat="45.30792" lon="5.76639">
        <ele>1248.197</ele>
        <time>2019-02-15T14:49:07Z</time>
      </trkpt>
      <trkpt lat="45.3079" lon="5.76638">
        <ele>1247.759</ele>
        <time>2019-02-15T14:49:17Z</time>
      </trkpt>
      <trkpt lat="45.3079" lon="5.76636">
        <ele>1247.029</ele>
        <time>2019-02-15T14:49:28Z</time>
      </trkpt>
      <trkpt lat="45.3079" lon="5.76636">
        <ele>1246.752</ele>
        <time>2019-02-15T14:49:39Z</time>
      </trkpt>
      <trkpt lat="45.30789" lon="5.76638">
        <ele>1245.877</ele>
        <time>2019-02-15T14:49:50Z</time>
      </trkpt>
      <trkpt lat="45.30789" lon="5.76638">
        <ele>1244.753</ele>
        <time>2019-02-15T14:50:01Z</time>
      </trkpt>
      <trkpt lat="45.30789" lon="5.76638">
        <ele>1243.975</ele>
        <time>2019-02-15T14:50:11Z</time>
      </trkpt>
      <trkpt lat="45.30789" lon="5.76638">
        <ele>1243.515</ele>
        <time>2019-02-15T14:50:22Z</time>
      </trkpt>
      <trkpt lat="45.30789" lon="5.76638">
        <ele>1243.352</ele>
        <time>2019-02-15T14:50:32Z</time>
      </trkpt>
      <trkpt lat="45.30789" lon="5.76639">
        <ele>1243.018</ele>
        <time>2019-02-15T14:50:43Z</time>
      </trkpt>
      <trkpt lat="45.30789" lon="5.76639">
        <ele>1242.923</ele>
        <time>2019-02-15T14:50:54Z</time>
      </trkpt>
      <trkpt lat="45.30789" lon="5.76637">
        <ele>1242.556</ele>
        <time>2019-02-15T14:51:04Z</time>
      </trkpt>
      <trkpt lat="45.3079" lon="5.76633">
        <ele>1242.425</ele>
        <time>2019-02-15T14:51:15Z</time>
      </trkpt>
      <trkpt lat="45.3079" lon="5.76634">
        <ele>1242.323</ele>
        <time>2019-02-15T14:51:26Z</time>
      </trkpt>
      <trkpt lat="45.30791" lon="5.76637">
        <ele>1241.863</ele>
        <time>2019-02-15T14:51:36Z</time>
      </trkpt>
      <trkpt lat="45.30792" lon="5.76639">
        <ele>1235.426</ele>
        <time>2019-02-15T14:51:47Z</time>
      </trkpt>
      <trkpt lat="45.3079" lon="5.76639">
        <ele>1235.355</ele>
        <time>2019-02-15T14:51:57Z</time>
      </trkpt>
      <trkpt lat="45.3079" lon="5.7664">
        <ele>1235.371</ele>
        <time>2019-02-15T14:52:08Z</time>
      </trkpt>
      <trkpt lat="45.30788" lon="5.76636">
        <ele>1235.464</ele>
        <time>2019-02-15T14:52:19Z</time>
      </trkpt>
      <trkpt lat="45.30789" lon="5.76633">
        <ele>1235.498</ele>
        <time>2019-02-15T14:52:29Z</time>
      </trkpt>
      <trkpt lat="45.3079" lon="5.76634">
        <ele>1235.544</ele>
        <time>2019-02-15T14:52:40Z</time>
      </trkpt>
      <trkpt lat="45.3079" lon="5.76629">
        <ele>1235.372</ele>
        <time>2019-02-15T14:52:50Z</time>
      </trkpt>
      <trkpt lat="45.3079" lon="5.76632">
        <ele>1235.343</ele>
        <time>2019-02-15T14:53:00Z</time>
      </trkpt>
      <trkpt lat="45.3079" lon="5.7662">
        <ele>1235.019</ele>
        <time>2019-02-15T14:53:11Z</time>
      </trkpt>
      <trkpt lat="45.30789" lon="5.76609">
        <ele>1235.171</ele>
        <time>2019-02-15T14:53:22Z</time>
      </trkpt>
      <trkpt lat="45.30793" lon="5.76603">
        <ele>1235.573</ele>
        <time>2019-02-15T14:53:32Z</time>
      </trkpt>
      <trkpt lat="45.30802" lon="5.76598">
        <ele>1235.977</ele>
        <time>2019-02-15T14:53:43Z</time>
      </trkpt>
      <trkpt lat="45.30803" lon="5.76592">
        <ele>1236.701</ele>
        <time>2019-02-15T14:53:54Z</time>
      </trkpt>
      <trkpt lat="45.30803" lon="5.76583">
        <ele>1237.772</ele>
        <time>2019-02-15T14:54:04Z</time>
      </trkpt>
      <trkpt lat="45.30802" lon="5.76577">
        <ele>1239.281</ele>
        <time>2019-02-15T14:54:15Z</time>
      </trkpt>
      <trkpt lat="45.30803" lon="5.76566">
        <ele>1241.822</ele>
        <time>2019-02-15T14:54:26Z</time>
      </trkpt>
      <trkpt lat="45.30803" lon="5.7656">
        <ele>1244.441</ele>
        <time>2019-02-15T14:54:37Z</time>
      </trkpt>
      <trkpt lat="45.30803" lon="5.76549">
        <ele>1246.377</ele>
        <time>2019-02-15T14:54:48Z</time>
      </trkpt>
      <trkpt lat="45.30806" lon="5.76541">
        <ele>1249.374</ele>
        <time>2019-02-15T14:54:59Z</time>
      </trkpt>
      <trkpt lat="45.30816" lon="5.76529">
        <ele>1251.696</ele>
        <time>2019-02-15T14:55:09Z</time>
      </trkpt>
      <trkpt lat="45.30827" lon="5.76518">
        <ele>1254.642</ele>
        <time>2019-02-15T14:55:20Z</time>
      </trkpt>
      <trkpt lat="45.30838" lon="5.76502">
        <ele>1257.569</ele>
        <time>2019-02-15T14:55:31Z</time>
      </trkpt>
      <trkpt lat="45.30842" lon="5.76493">
        <ele>1260.605</ele>
        <time>2019-02-15T14:55:42Z</time>
      </trkpt>
      <trkpt lat="45.30849" lon="5.76484">
        <ele>1262.903</ele>
        <time>2019-02-15T14:55:52Z</time>
      </trkpt>
      <trkpt lat="45.30849" lon="5.76472">
        <ele>1264.577</ele>
        <time>2019-02-15T14:56:03Z</time>
      </trkpt>
      <trkpt lat="45.30852" lon="5.76458">
        <ele>1265.468</ele>
        <time>2019-02-15T14:56:14Z</time>
      </trkpt>
      <trkpt lat="45.30852" lon="5.76448">
        <ele>1265.907</ele>
        <time>2019-02-15T14:56:25Z</time>
      </trkpt>
      <trkpt lat="45.30845" lon="5.76428">
        <ele>1266.927</ele>
        <time>2019-02-15T14:56:36Z</time>
      </trkpt>
      <trkpt lat="45.30842" lon="5.76416">
        <ele>1268.108</ele>
        <time>2019-02-15T14:56:46Z</time>
      </trkpt>
      <trkpt lat="45.30838" lon="5.76408">
        <ele>1269.446</ele>
        <time>2019-02-15T14:56:57Z</time>
      </trkpt>
      <trkpt lat="45.30834" lon="5.76398">
        <ele>1270.689</ele>
        <time>2019-02-15T14:57:07Z</time>
      </trkpt>
      <trkpt lat="45.3083" lon="5.76389">
        <ele>1271.908</ele>
        <time>2019-02-15T14:57:18Z</time>
      </trkpt>
      <trkpt lat="45.30826" lon="5.7638">
        <ele>1272.857</ele>
        <time>2019-02-15T14:57:28Z</time>
      </trkpt>
      <trkpt lat="45.30823" lon="5.76371">
        <ele>1273.625</ele>
        <time>2019-02-15T14:57:39Z</time>
      </trkpt>
      <trkpt lat="45.30814" lon="5.76363">
        <ele>1274.175</ele>
        <time>2019-02-15T14:57:49Z</time>
      </trkpt>
      <trkpt lat="45.30807" lon="5.76353">
        <ele>1274.717</ele>
        <time>2019-02-15T14:58:00Z</time>
      </trkpt>
      <trkpt lat="45.30802" lon="5.7634">
        <ele>1275.797</ele>
        <time>2019-02-15T14:58:11Z</time>
      </trkpt>
      <trkpt lat="45.30799" lon="5.7633">
        <ele>1277.14</ele>
        <time>2019-02-15T14:58:22Z</time>
      </trkpt>
      <trkpt lat="45.30795" lon="5.7632">
        <ele>1278.227</ele>
        <time>2019-02-15T14:58:33Z</time>
      </trkpt>
      <trkpt lat="45.3079" lon="5.76309">
        <ele>1279.071</ele>
        <time>2019-02-15T14:58:43Z</time>
      </trkpt>
      <trkpt lat="45.30788" lon="5.763">
        <ele>1280.206</ele>
        <time>2019-02-15T14:58:53Z</time>
      </trkpt>
      <trkpt lat="45.30785" lon="5.76287">
        <ele>1281.407</ele>
        <time>2019-02-15T14:59:03Z</time>
      </trkpt>
      <trkpt lat="45.30781" lon="5.76276">
        <ele>1283.129</ele>
        <time>2019-02-15T14:59:14Z</time>
      </trkpt>
      <trkpt lat="45.30775" lon="5.76266">
        <ele>1284.665</ele>
        <time>2019-02-15T14:59:25Z</time>
      </trkpt>
      <trkpt lat="45.30771" lon="5.76256">
        <ele>1285.995</ele>
        <time>2019-02-15T14:59:36Z</time>
      </trkpt>
      <trkpt lat="45.30767" lon="5.76245">
        <ele>1287.265</ele>
        <time>2019-02-15T14:59:47Z</time>
      </trkpt>
      <trkpt lat="45.30761" lon="5.76234">
        <ele>1288.443</ele>
        <time>2019-02-15T14:59:58Z</time>
      </trkpt>
      <trkpt lat="45.30755" lon="5.76225">
        <ele>1289.29</ele>
        <time>2019-02-15T15:00:09Z</time>
      </trkpt>
      <trkpt lat="45.30749" lon="5.76215">
        <ele>1289.664</ele>
        <time>2019-02-15T15:00:20Z</time>
      </trkpt>
      <trkpt lat="45.3074" lon="5.76208">
        <ele>1290.799</ele>
        <time>2019-02-15T15:00:31Z</time>
      </trkpt>
      <trkpt lat="45.30733" lon="5.76199">
        <ele>1292.369</ele>
        <time>2019-02-15T15:00:42Z</time>
      </trkpt>
      <trkpt lat="45.30727" lon="5.76188">
        <ele>1294.361</ele>
        <time>2019-02-15T15:00:52Z</time>
      </trkpt>
      <trkpt lat="45.30725" lon="5.7618">
        <ele>1296.821</ele>
        <time>2019-02-15T15:01:03Z</time>
      </trkpt>
      <trkpt lat="45.30722" lon="5.76174">
        <ele>1298.392</ele>
        <time>2019-02-15T15:01:13Z</time>
      </trkpt>
      <trkpt lat="45.30717" lon="5.76166">
        <ele>1300.03</ele>
        <time>2019-02-15T15:01:24Z</time>
      </trkpt>
      <trkpt lat="45.30712" lon="5.76157">
        <ele>1301.947</ele>
        <time>2019-02-15T15:01:34Z</time>
      </trkpt>
      <trkpt lat="45.30709" lon="5.76149">
        <ele>1303.613</ele>
        <time>2019-02-15T15:01:45Z</time>
      </trkpt>
      <trkpt lat="45.30704" lon="5.76139">
        <ele>1305.844</ele>
        <time>2019-02-15T15:01:56Z</time>
      </trkpt>
      <trkpt lat="45.30697" lon="5.76132">
        <ele>1307.471</ele>
        <time>2019-02-15T15:02:06Z</time>
      </trkpt>
      <trkpt lat="45.30691" lon="5.76122">
        <ele>1308.924</ele>
        <time>2019-02-15T15:02:17Z</time>
      </trkpt>
      <trkpt lat="45.30684" lon="5.76116">
        <ele>1310.617</ele>
        <time>2019-02-15T15:02:28Z</time>
      </trkpt>
      <trkpt lat="45.30682" lon="5.7611">
        <ele>1312.964</ele>
        <time>2019-02-15T15:02:39Z</time>
      </trkpt>
      <trkpt lat="45.30676" lon="5.761">
        <ele>1315.136</ele>
        <time>2019-02-15T15:02:49Z</time>
      </trkpt>
      <trkpt lat="45.30673" lon="5.76093">
        <ele>1317.536</ele>
        <time>2019-02-15T15:03:00Z</time>
      </trkpt>
      <trkpt lat="45.30667" lon="5.76085">
        <ele>1319.512</ele>
        <time>2019-02-15T15:03:11Z</time>
      </trkpt>
      <trkpt lat="45.30663" lon="5.7608">
        <ele>1321.391</ele>
        <time>2019-02-15T15:03:21Z</time>
      </trkpt>
      <trkpt lat="45.3066" lon="5.76072">
        <ele>1323.368</ele>
        <time>2019-02-15T15:03:32Z</time>
      </trkpt>
      <trkpt lat="45.3065" lon="5.76067">
        <ele>1324.837</ele>
        <time>2019-02-15T15:03:43Z</time>
      </trkpt>
      <trkpt lat="45.30642" lon="5.76063">
        <ele>1325.605</ele>
        <time>2019-02-15T15:03:53Z</time>
      </trkpt>
      <trkpt lat="45.30637" lon="5.7606">
        <ele>1325.867</ele>
        <time>2019-02-15T15:04:03Z</time>
      </trkpt>
      <trkpt lat="45.30632" lon="5.76052">
        <ele>1326.214</ele>
        <time>2019-02-15T15:04:14Z</time>
      </trkpt>
      <trkpt lat="45.30628" lon="5.76046">
        <ele>1326.482</ele>
        <time>2019-02-15T15:04:24Z</time>
      </trkpt>
      <trkpt lat="45.30629" lon="5.76043">
        <ele>1326.636</ele>
        <time>2019-02-15T15:04:34Z</time>
      </trkpt>
      <trkpt lat="45.30631" lon="5.76035">
        <ele>1326.742</ele>
        <time>2019-02-15T15:04:45Z</time>
      </trkpt>
      <trkpt lat="45.30631" lon="5.76027">
        <ele>1327.12</ele>
        <time>2019-02-15T15:04:56Z</time>
      </trkpt>
      <trkpt lat="45.30627" lon="5.76026">
        <ele>1327.866</ele>
        <time>2019-02-15T15:05:07Z</time>
      </trkpt>
      <trkpt lat="45.3062" lon="5.76022">
        <ele>1329.061</ele>
        <time>2019-02-15T15:05:17Z</time>
      </trkpt>
      <trkpt lat="45.30622" lon="5.76018">
        <ele>1330.356</ele>
        <time>2019-02-15T15:05:27Z</time>
      </trkpt>
      <trkpt lat="45.3063" lon="5.7601">
        <ele>1332.415</ele>
        <time>2019-02-15T15:05:38Z</time>
      </trkpt>
      <trkpt lat="45.30636" lon="5.76005">
        <ele>1334.219</ele>
        <time>2019-02-15T15:05:49Z</time>
      </trkpt>
      <trkpt lat="45.30635" lon="5.75999">
        <ele>1335.169</ele>
        <time>2019-02-15T15:05:59Z</time>
      </trkpt>
      <trkpt lat="45.30635" lon="5.76">
        <ele>1335.664</ele>
        <time>2019-02-15T15:06:10Z</time>
      </trkpt>
      <trkpt lat="45.30634" lon="5.76001">
        <ele>1336.766</ele>
        <time>2019-02-15T15:06:21Z</time>
      </trkpt>
      <trkpt lat="45.30633" lon="5.76002">
        <ele>1336.966</ele>
        <time>2019-02-15T15:06:31Z</time>
      </trkpt>
      <trkpt lat="45.30631" lon="5.76">
        <ele>1338.502</ele>
        <time>2019-02-15T15:06:42Z</time>
      </trkpt>
      <trkpt lat="45.30625" lon="5.75996">
        <ele>1339.004</ele>
        <time>2019-02-15T15:06:53Z</time>
      </trkpt>
      <trkpt lat="45.30626" lon="5.75988">
        <ele>1340.188</ele>
        <time>2019-02-15T15:07:03Z</time>
      </trkpt>
      <trkpt lat="45.30623" lon="5.75983">
        <ele>1341.417</ele>
        <time>2019-02-15T15:07:14Z</time>
      </trkpt>
      <trkpt lat="45.30621" lon="5.75981">
        <ele>1343.086</ele>
        <time>2019-02-15T15:07:25Z</time>
      </trkpt>
      <trkpt lat="45.30625" lon="5.75978">
        <ele>1343.699</ele>
        <time>2019-02-15T15:07:36Z</time>
      </trkpt>
      <trkpt lat="45.30628" lon="5.75972">
        <ele>1345.058</ele>
        <time>2019-02-15T15:07:47Z</time>
      </trkpt>
      <trkpt lat="45.30626" lon="5.75965">
        <ele>1346.746</ele>
        <time>2019-02-15T15:07:57Z</time>
      </trkpt>
      <trkpt lat="45.30628" lon="5.75959">
        <ele>1348.317</ele>
        <time>2019-02-15T15:08:07Z</time>
      </trkpt>
      <trkpt lat="45.30631" lon="5.75953">
        <ele>1350.358</ele>
        <time>2019-02-15T15:08:18Z</time>
      </trkpt>
      <trkpt lat="45.30627" lon="5.75948">
        <ele>1352.274</ele>
        <time>2019-02-15T15:08:28Z</time>
      </trkpt>
      <trkpt lat="45.30621" lon="5.75943">
        <ele>1354.15</ele>
        <time>2019-02-15T15:08:39Z</time>
      </trkpt>
      <trkpt lat="45.30619" lon="5.75942">
        <ele>1356.04</ele>
        <time>2019-02-15T15:08:50Z</time>
      </trkpt>
      <trkpt lat="45.3062" lon="5.75938">
        <ele>1358.053</ele>
        <time>2019-02-15T15:09:01Z</time>
      </trkpt>
      <trkpt lat="45.3062" lon="5.75931">
        <ele>1359.945</ele>
        <time>2019-02-15T15:09:12Z</time>
      </trkpt>
      <trkpt lat="45.30616" lon="5.75927">
        <ele>1361.526</ele>
        <time>2019-02-15T15:09:22Z</time>
      </trkpt>
      <trkpt lat="45.30617" lon="5.75921">
        <ele>1363.43</ele>
        <time>2019-02-15T15:09:33Z</time>
      </trkpt>
      <trkpt lat="45.30622" lon="5.75916">
        <ele>1365.205</ele>
        <time>2019-02-15T15:09:43Z</time>
      </trkpt>
      <trkpt lat="45.30624" lon="5.75909">
        <ele>1367.25</ele>
        <time>2019-02-15T15:09:54Z</time>
      </trkpt>
      <trkpt lat="45.3062" lon="5.75906">
        <ele>1368.5</ele>
        <time>2019-02-15T15:10:05Z</time>
      </trkpt>
      <trkpt lat="45.30617" lon="5.75904">
        <ele>1369.685</ele>
        <time>2019-02-15T15:10:16Z</time>
      </trkpt>
      <trkpt lat="45.30612" lon="5.75902">
        <ele>1370.956</ele>
        <time>2019-02-15T15:10:27Z</time>
      </trkpt>
      <trkpt lat="45.30612" lon="5.75896">
        <ele>1372.191</ele>
        <time>2019-02-15T15:10:37Z</time>
      </trkpt>
      <trkpt lat="45.30611" lon="5.75887">
        <ele>1374.342</ele>
        <time>2019-02-15T15:10:48Z</time>
      </trkpt>
      <trkpt lat="45.30606" lon="5.75885">
        <ele>1376.464</ele>
        <time>2019-02-15T15:10:59Z</time>
      </trkpt>
      <trkpt lat="45.30603" lon="5.75882">
        <ele>1378.182</ele>
        <time>2019-02-15T15:11:10Z</time>
      </trkpt>
      <trkpt lat="45.30601" lon="5.75871">
        <ele>1380.182</ele>
        <time>2019-02-15T15:11:21Z</time>
      </trkpt>
      <trkpt lat="45.30597" lon="5.75871">
        <ele>1381.695</ele>
        <time>2019-02-15T15:11:32Z</time>
      </trkpt>
      <trkpt lat="45.30592" lon="5.7587">
        <ele>1383.466</ele>
        <time>2019-02-15T15:11:43Z</time>
      </trkpt>
      <trkpt lat="45.30587" lon="5.75863">
        <ele>1385.566</ele>
        <time>2019-02-15T15:11:54Z</time>
      </trkpt>
      <trkpt lat="45.30581" lon="5.75854">
        <ele>1387.628</ele>
        <time>2019-02-15T15:12:05Z</time>
      </trkpt>
      <trkpt lat="45.30576" lon="5.75843">
        <ele>1390.209</ele>
        <time>2019-02-15T15:12:16Z</time>
      </trkpt>
      <trkpt lat="45.30572" lon="5.75832">
        <ele>1393.223</ele>
        <time>2019-02-15T15:12:27Z</time>
      </trkpt>
      <trkpt lat="45.30571" lon="5.75825">
        <ele>1396.11</ele>
        <time>2019-02-15T15:12:37Z</time>
      </trkpt>
      <trkpt lat="45.30569" lon="5.75816">
        <ele>1398.309</ele>
        <time>2019-02-15T15:12:48Z</time>
      </trkpt>
      <trkpt lat="45.3057" lon="5.75814">
        <ele>1400.417</ele>
        <time>2019-02-15T15:12:59Z</time>
      </trkpt>
      <trkpt lat="45.30575" lon="5.75811">
        <ele>1402.113</ele>
        <time>2019-02-15T15:13:10Z</time>
      </trkpt>
      <trkpt lat="45.30579" lon="5.75806">
        <ele>1404.283</ele>
        <time>2019-02-15T15:13:21Z</time>
      </trkpt>
      <trkpt lat="45.3058" lon="5.75801">
        <ele>1405.614</ele>
        <time>2019-02-15T15:13:31Z</time>
      </trkpt>
      <trkpt lat="45.30579" lon="5.75797">
        <ele>1407.076</ele>
        <time>2019-02-15T15:13:41Z</time>
      </trkpt>
      <trkpt lat="45.30583" lon="5.75797">
        <ele>1409.212</ele>
        <time>2019-02-15T15:13:52Z</time>
      </trkpt>
      <trkpt lat="45.30581" lon="5.75793">
        <ele>1411.466</ele>
        <time>2019-02-15T15:14:03Z</time>
      </trkpt>
      <trkpt lat="45.30575" lon="5.75788">
        <ele>1413.399</ele>
        <time>2019-02-15T15:14:14Z</time>
      </trkpt>
      <trkpt lat="45.30569" lon="5.7578">
        <ele>1414.712</ele>
        <time>2019-02-15T15:14:24Z</time>
      </trkpt>
      <trkpt lat="45.30561" lon="5.75773">
        <ele>1416.715</ele>
        <time>2019-02-15T15:14:35Z</time>
      </trkpt>
      <trkpt lat="45.30556" lon="5.75767">
        <ele>1418.884</ele>
        <time>2019-02-15T15:14:46Z</time>
      </trkpt>
      <trkpt lat="45.30546" lon="5.75759">
        <ele>1421.333</ele>
        <time>2019-02-15T15:14:57Z</time>
      </trkpt>
      <trkpt lat="45.30548" lon="5.75757">
        <ele>1423.039</ele>
        <time>2019-02-15T15:15:07Z</time>
      </trkpt>
      <trkpt lat="45.30553" lon="5.75743">
        <ele>1425.013</ele>
        <time>2019-02-15T15:15:18Z</time>
      </trkpt>
      <trkpt lat="45.30551" lon="5.75732">
        <ele>1427.234</ele>
        <time>2019-02-15T15:15:29Z</time>
      </trkpt>
      <trkpt lat="45.30551" lon="5.75722">
        <ele>1429.479</ele>
        <time>2019-02-15T15:15:39Z</time>
      </trkpt>
      <trkpt lat="45.30552" lon="5.75711">
        <ele>1431.459</ele>
        <time>2019-02-15T15:15:50Z</time>
      </trkpt>
      <trkpt lat="45.30554" lon="5.75699">
        <ele>1433.185</ele>
        <time>2019-02-15T15:16:00Z</time>
      </trkpt>
      <trkpt lat="45.30559" lon="5.75689">
        <ele>1435.382</ele>
        <time>2019-02-15T15:16:11Z</time>
      </trkpt>
      <trkpt lat="45.3056" lon="5.75682">
        <ele>1437.378</ele>
        <time>2019-02-15T15:16:22Z</time>
      </trkpt>
      <trkpt lat="45.3056" lon="5.75673">
        <ele>1439.136</ele>
        <time>2019-02-15T15:16:33Z</time>
      </trkpt>
      <trkpt lat="45.30558" lon="5.75664">
        <ele>1441.212</ele>
        <time>2019-02-15T15:16:44Z</time>
      </trkpt>
      <trkpt lat="45.30557" lon="5.75657">
        <ele>1443.001</ele>
        <time>2019-02-15T15:16:54Z</time>
      </trkpt>
      <trkpt lat="45.30554" lon="5.75649">
        <ele>1444.858</ele>
        <time>2019-02-15T15:17:05Z</time>
      </trkpt>
      <trkpt lat="45.30552" lon="5.75643">
        <ele>1447.057</ele>
        <time>2019-02-15T15:17:16Z</time>
      </trkpt>
      <trkpt lat="45.30544" lon="5.75635">
        <ele>1449.403</ele>
        <time>2019-02-15T15:17:26Z</time>
      </trkpt>
      <trkpt lat="45.30539" lon="5.7563">
        <ele>1451.974</ele>
        <time>2019-02-15T15:17:37Z</time>
      </trkpt>
      <trkpt lat="45.3053" lon="5.7562">
        <ele>1454.709</ele>
        <time>2019-02-15T15:17:48Z</time>
      </trkpt>
      <trkpt lat="45.30527" lon="5.75615">
        <ele>1457.012</ele>
        <time>2019-02-15T15:17:59Z</time>
      </trkpt>
      <trkpt lat="45.30522" lon="5.75614">
        <ele>1459.425</ele>
        <time>2019-02-15T15:18:10Z</time>
      </trkpt>
      <trkpt lat="45.30516" lon="5.7561">
        <ele>1461.171</ele>
        <time>2019-02-15T15:18:21Z</time>
      </trkpt>
      <trkpt lat="45.30506" lon="5.75602">
        <ele>1462.328</ele>
        <time>2019-02-15T15:18:32Z</time>
      </trkpt>
      <trkpt lat="45.30499" lon="5.75595">
        <ele>1462.532</ele>
        <time>2019-02-15T15:18:42Z</time>
      </trkpt>
      <trkpt lat="45.30491" lon="5.75583">
        <ele>1462.212</ele>
        <time>2019-02-15T15:18:53Z</time>
      </trkpt>
      <trkpt lat="45.30486" lon="5.75577">
        <ele>1463.205</ele>
        <time>2019-02-15T15:19:04Z</time>
      </trkpt>
      <trkpt lat="45.30481" lon="5.75568">
        <ele>1464.987</ele>
        <time>2019-02-15T15:19:15Z</time>
      </trkpt>
      <trkpt lat="45.30475" lon="5.75564">
        <ele>1466.622</ele>
        <time>2019-02-15T15:19:25Z</time>
      </trkpt>
      <trkpt lat="45.3047" lon="5.75556">
        <ele>1469.342</ele>
        <time>2019-02-15T15:19:36Z</time>
      </trkpt>
      <trkpt lat="45.30468" lon="5.75548">
        <ele>1472.209</ele>
        <time>2019-02-15T15:19:47Z</time>
      </trkpt>
      <trkpt lat="45.30466" lon="5.75539">
        <ele>1474.946</ele>
        <time>2019-02-15T15:19:57Z</time>
      </trkpt>
      <trkpt lat="45.30462" lon="5.75533">
        <ele>1477.509</ele>
        <time>2019-02-15T15:20:08Z</time>
      </trkpt>
      <trkpt lat="45.3046" lon="5.75523">
        <ele>1479.507</ele>
        <time>2019-02-15T15:20:19Z</time>
      </trkpt>
      <trkpt lat="45.30458" lon="5.75514">
        <ele>1481.735</ele>
        <time>2019-02-15T15:20:30Z</time>
      </trkpt>
      <trkpt lat="45.30456" lon="5.75504">
        <ele>1483.853</ele>
        <time>2019-02-15T15:20:41Z</time>
      </trkpt>
      <trkpt lat="45.30457" lon="5.75495">
        <ele>1485.213</ele>
        <time>2019-02-15T15:20:52Z</time>
      </trkpt>
      <trkpt lat="45.30457" lon="5.75487">
        <ele>1486.535</ele>
        <time>2019-02-15T15:21:02Z</time>
      </trkpt>
      <trkpt lat="45.30456" lon="5.75477">
        <ele>1488.096</ele>
        <time>2019-02-15T15:21:13Z</time>
      </trkpt>
      <trkpt lat="45.30458" lon="5.75468">
        <ele>1489.707</ele>
        <time>2019-02-15T15:21:24Z</time>
      </trkpt>
      <trkpt lat="45.30455" lon="5.75464">
        <ele>1491.194</ele>
        <time>2019-02-15T15:21:35Z</time>
      </trkpt>
      <trkpt lat="45.30454" lon="5.75457">
        <ele>1493.151</ele>
        <time>2019-02-15T15:21:45Z</time>
      </trkpt>
      <trkpt lat="45.3045" lon="5.75454">
        <ele>1495.122</ele>
        <time>2019-02-15T15:21:56Z</time>
      </trkpt>
      <trkpt lat="45.30452" lon="5.7545">
        <ele>1496.468</ele>
        <time>2019-02-15T15:22:07Z</time>
      </trkpt>
      <trkpt lat="45.30456" lon="5.7545">
        <ele>1497.229</ele>
        <time>2019-02-15T15:22:17Z</time>
      </trkpt>
      <trkpt lat="45.30461" lon="5.75448">
        <ele>1498.004</ele>
        <time>2019-02-15T15:22:28Z</time>
      </trkpt>
      <trkpt lat="45.30461" lon="5.7544">
        <ele>1498.968</ele>
        <time>2019-02-15T15:22:38Z</time>
      </trkpt>
      <trkpt lat="45.30461" lon="5.75432">
        <ele>1499.916</ele>
        <time>2019-02-15T15:22:48Z</time>
      </trkpt>
      <trkpt lat="45.30464" lon="5.75423">
        <ele>1501.003</ele>
        <time>2019-02-15T15:22:59Z</time>
      </trkpt>
      <trkpt lat="45.30471" lon="5.7541">
        <ele>1502.635</ele>
        <time>2019-02-15T15:23:10Z</time>
      </trkpt>
      <trkpt lat="45.30472" lon="5.75403">
        <ele>1504.284</ele>
        <time>2019-02-15T15:23:21Z</time>
      </trkpt>
      <trkpt lat="45.30476" lon="5.75398">
        <ele>1506.231</ele>
        <time>2019-02-15T15:23:32Z</time>
      </trkpt>
      <trkpt lat="45.30476" lon="5.754">
        <ele>1507.594</ele>
        <time>2019-02-15T15:23:43Z</time>
      </trkpt>
      <trkpt lat="45.3047" lon="5.75396">
        <ele>1509.7</ele>
        <time>2019-02-15T15:23:54Z</time>
      </trkpt>
      <trkpt lat="45.30464" lon="5.75395">
        <ele>1511.511</ele>
        <time>2019-02-15T15:24:05Z</time>
      </trkpt>
      <trkpt lat="45.30464" lon="5.75395">
        <ele>1511.799</ele>
        <time>2019-02-15T15:24:16Z</time>
      </trkpt>
      <trkpt lat="45.30463" lon="5.75397">
        <ele>1513.314</ele>
        <time>2019-02-15T15:24:27Z</time>
      </trkpt>
      <trkpt lat="45.30461" lon="5.75398">
        <ele>1514.22</ele>
        <time>2019-02-15T15:24:38Z</time>
      </trkpt>
      <trkpt lat="45.30463" lon="5.75397">
        <ele>1514.804</ele>
        <time>2019-02-15T15:24:49Z</time>
      </trkpt>
      <trkpt lat="45.30463" lon="5.75398">
        <ele>1515.166</ele>
        <time>2019-02-15T15:25:00Z</time>
      </trkpt>
      <trkpt lat="45.30463" lon="5.75398">
        <ele>1515.519</ele>
        <time>2019-02-15T15:25:11Z</time>
      </trkpt>
      <trkpt lat="45.30463" lon="5.75399">
        <ele>1515.859</ele>
        <time>2019-02-15T15:25:22Z</time>
      </trkpt>
      <trkpt lat="45.30463" lon="5.75399">
        <ele>1516.372</ele>
        <time>2019-02-15T15:25:33Z</time>
      </trkpt>
      <trkpt lat="45.30463" lon="5.75397">
        <ele>1517.005</ele>
        <time>2019-02-15T15:25:44Z</time>
      </trkpt>
      <trkpt lat="45.30464" lon="5.75396">
        <ele>1517.197</ele>
        <time>2019-02-15T15:25:54Z</time>
      </trkpt>
      <trkpt lat="45.30464" lon="5.75396">
        <ele>1517.387</ele>
        <time>2019-02-15T15:26:04Z</time>
      </trkpt>
      <trkpt lat="45.30463" lon="5.75397">
        <ele>1517.748</ele>
        <time>2019-02-15T15:26:15Z</time>
      </trkpt>
      <trkpt lat="45.30463" lon="5.75396">
        <ele>1518.06</ele>
        <time>2019-02-15T15:26:26Z</time>
      </trkpt>
      <trkpt lat="45.30463" lon="5.75396">
        <ele>1518.501</ele>
        <time>2019-02-15T15:26:37Z</time>
      </trkpt>
      <trkpt lat="45.30461" lon="5.75397">
        <ele>1519.647</ele>
        <time>2019-02-15T15:26:48Z</time>
      </trkpt>
      <trkpt lat="45.30461" lon="5.75395">
        <ele>1520.189</ele>
        <time>2019-02-15T15:26:58Z</time>
      </trkpt>
      <trkpt lat="45.3046" lon="5.75397">
        <ele>1520.346</ele>
        <time>2019-02-15T15:27:09Z</time>
      </trkpt>
      <trkpt lat="45.30461" lon="5.75395">
        <ele>1520.638</ele>
        <time>2019-02-15T15:27:20Z</time>
      </trkpt>
      <trkpt lat="45.30462" lon="5.75394">
        <ele>1520.961</ele>
        <time>2019-02-15T15:27:30Z</time>
      </trkpt>
      <trkpt lat="45.30464" lon="5.75393">
        <ele>1521.497</ele>
        <time>2019-02-15T15:27:41Z</time>
      </trkpt>
      <trkpt lat="45.30464" lon="5.75392">
        <ele>1522.282</ele>
        <time>2019-02-15T15:27:51Z</time>
      </trkpt>
      <trkpt lat="45.30464" lon="5.75397">
        <ele>1522.425</ele>
        <time>2019-02-15T15:28:01Z</time>
      </trkpt>
      <trkpt lat="45.30465" lon="5.75399">
        <ele>1522.8</ele>
        <time>2019-02-15T15:28:11Z</time>
      </trkpt>
      <trkpt lat="45.30455" lon="5.75397">
        <ele>1523.686</ele>
        <time>2019-02-15T15:28:22Z</time>
      </trkpt>
      <trkpt lat="45.30431" lon="5.75444">
        <ele>1519.227</ele>
        <time>2019-02-15T15:28:33Z</time>
      </trkpt>
      <trkpt lat="45.30433" lon="5.75548">
        <ele>1508.54</ele>
        <time>2019-02-15T15:28:44Z</time>
      </trkpt>
      <trkpt lat="45.30438" lon="5.7565">
        <ele>1498.438</ele>
        <time>2019-02-15T15:28:54Z</time>
      </trkpt>
      <trkpt lat="45.30388" lon="5.75684">
        <ele>1490.538</ele>
        <time>2019-02-15T15:29:05Z</time>
      </trkpt>
      <trkpt lat="45.30318" lon="5.75653">
        <ele>1473.938</ele>
        <time>2019-02-15T15:29:15Z</time>
      </trkpt>
      <trkpt lat="45.30256" lon="5.75592">
        <ele>1460.324</ele>
        <time>2019-02-15T15:29:26Z</time>
      </trkpt>
      <trkpt lat="45.30206" lon="5.75541">
        <ele>1455.938</ele>
        <time>2019-02-15T15:29:36Z</time>
      </trkpt>
      <trkpt lat="45.30149" lon="5.7549">
        <ele>1438.982</ele>
        <time>2019-02-15T15:29:47Z</time>
      </trkpt>
      <trkpt lat="45.30123" lon="5.75424">
        <ele>1411.766</ele>
        <time>2019-02-15T15:29:58Z</time>
      </trkpt>
      <trkpt lat="45.3006" lon="5.75345">
        <ele>1409.33</ele>
        <time>2019-02-15T15:30:08Z</time>
      </trkpt>
      <trkpt lat="45.29993" lon="5.75261">
        <ele>1411.927</ele>
        <time>2019-02-15T15:30:19Z</time>
      </trkpt>
      <trkpt lat="45.29933" lon="5.75214">
        <ele>1409.409</ele>
        <time>2019-02-15T15:30:30Z</time>
      </trkpt>
      <trkpt lat="45.29867" lon="5.75236">
        <ele>1412.83</ele>
        <time>2019-02-15T15:30:40Z</time>
      </trkpt>
      <trkpt lat="45.29861" lon="5.7523">
        <ele>1413.308</ele>
        <time>2019-02-15T15:30:50Z</time>
      </trkpt>
      <trkpt lat="45.29861" lon="5.7523">
        <ele>1412.989</ele>
        <time>2019-02-15T15:31:00Z</time>
      </trkpt>
      <trkpt lat="45.29861" lon="5.7523">
        <ele>1413.5</ele>
        <time>2019-02-15T15:31:11Z</time>
      </trkpt>
      <trkpt lat="45.29848" lon="5.75221">
        <ele>1413.918</ele>
        <time>2019-02-15T15:31:21Z</time>
      </trkpt>
      <trkpt lat="45.29816" lon="5.75234">
        <ele>1412.812</ele>
        <time>2019-02-15T15:31:32Z</time>
      </trkpt>
      <trkpt lat="45.29803" lon="5.75314">
        <ele>1411.404</ele>
        <time>2019-02-15T15:31:43Z</time>
      </trkpt>
      <trkpt lat="45.29797" lon="5.75399">
        <ele>1407.77</ele>
        <time>2019-02-15T15:31:53Z</time>
      </trkpt>
      <trkpt lat="45.29808" lon="5.75512">
        <ele>1407.943</ele>
        <time>2019-02-15T15:32:04Z</time>
      </trkpt>
      <trkpt lat="45.29776" lon="5.75597">
        <ele>1406.721</ele>
        <time>2019-02-15T15:32:15Z</time>
      </trkpt>
      <trkpt lat="45.29753" lon="5.7569">
        <ele>1392.445</ele>
        <time>2019-02-15T15:32:26Z</time>
      </trkpt>
      <trkpt lat="45.29756" lon="5.75767">
        <ele>1385.757</ele>
        <time>2019-02-15T15:32:37Z</time>
      </trkpt>
      <trkpt lat="45.29756" lon="5.75842">
        <ele>1377.527</ele>
        <time>2019-02-15T15:32:48Z</time>
      </trkpt>
      <trkpt lat="45.2971" lon="5.75833">
        <ele>1370.655</ele>
        <time>2019-02-15T15:32:59Z</time>
      </trkpt>
      <trkpt lat="45.29674" lon="5.75868">
        <ele>1364.567</ele>
        <time>2019-02-15T15:33:09Z</time>
      </trkpt>
      <trkpt lat="45.29659" lon="5.75907">
        <ele>1364.134</ele>
        <time>2019-02-15T15:33:20Z</time>
      </trkpt>
      <trkpt lat="45.29659" lon="5.75907">
        <ele>1364.293</ele>
        <time>2019-02-15T15:33:31Z</time>
      </trkpt>
      <trkpt lat="45.29654" lon="5.75935">
        <ele>1365.334</ele>
        <time>2019-02-15T15:33:41Z</time>
      </trkpt>
      <trkpt lat="45.29652" lon="5.75954">
        <ele>1366.651</ele>
        <time>2019-02-15T15:33:52Z</time>
      </trkpt>
      <trkpt lat="45.29652" lon="5.75954">
        <ele>1367.376</ele>
        <time>2019-02-15T15:34:03Z</time>
      </trkpt>
      <trkpt lat="45.29654" lon="5.75971">
        <ele>1367.842</ele>
        <time>2019-02-15T15:34:14Z</time>
      </trkpt>
      <trkpt lat="45.29649" lon="5.75993">
        <ele>1367.789</ele>
        <time>2019-02-15T15:34:25Z</time>
      </trkpt>
      <trkpt lat="45.29647" lon="5.76013">
        <ele>1367.413</ele>
        <time>2019-02-15T15:34:35Z</time>
      </trkpt>
      <trkpt lat="45.29646" lon="5.76035">
        <ele>1366.43</ele>
        <time>2019-02-15T15:34:46Z</time>
      </trkpt>
      <trkpt lat="45.29644" lon="5.76063">
        <ele>1364.028</ele>
        <time>2019-02-15T15:34:57Z</time>
      </trkpt>
      <trkpt lat="45.29634" lon="5.761">
        <ele>1362.932</ele>
        <time>2019-02-15T15:35:08Z</time>
      </trkpt>
      <trkpt lat="45.29621" lon="5.76124">
        <ele>1364.212</ele>
        <time>2019-02-15T15:35:19Z</time>
      </trkpt>
      <trkpt lat="45.29621" lon="5.76124">
        <ele>1364.348</ele>
        <time>2019-02-15T15:35:30Z</time>
      </trkpt>
      <trkpt lat="45.29617" lon="5.76126">
        <ele>1364.735</ele>
        <time>2019-02-15T15:35:41Z</time>
      </trkpt>
      <trkpt lat="45.29612" lon="5.76134">
        <ele>1365.352</ele>
        <time>2019-02-15T15:35:51Z</time>
      </trkpt>
      <trkpt lat="45.29592" lon="5.76144">
        <ele>1366.307</ele>
        <time>2019-02-15T15:36:01Z</time>
      </trkpt>
      <trkpt lat="45.29574" lon="5.76131">
        <ele>1366.187</ele>
        <time>2019-02-15T15:36:12Z</time>
      </trkpt>
      <trkpt lat="45.29564" lon="5.7612">
        <ele>1365.589</ele>
        <time>2019-02-15T15:36:22Z</time>
      </trkpt>
      <trkpt lat="45.2954" lon="5.7613">
        <ele>1363.718</ele>
        <time>2019-02-15T15:36:33Z</time>
      </trkpt>
      <trkpt lat="45.29525" lon="5.76152">
        <ele>1362.081</ele>
        <time>2019-02-15T15:36:43Z</time>
      </trkpt>
      <trkpt lat="45.29513" lon="5.76187">
        <ele>1361.362</ele>
        <time>2019-02-15T15:36:54Z</time>
      </trkpt>
      <trkpt lat="45.29515" lon="5.76203">
        <ele>1363.154</ele>
        <time>2019-02-15T15:37:04Z</time>
      </trkpt>
      <trkpt lat="45.29513" lon="5.7621">
        <ele>1363.997</ele>
        <time>2019-02-15T15:37:14Z</time>
      </trkpt>
      <trkpt lat="45.29512" lon="5.76231">
        <ele>1365.571</ele>
        <time>2019-02-15T15:37:25Z</time>
      </trkpt>
      <trkpt lat="45.29511" lon="5.76246">
        <ele>1366.659</ele>
        <time>2019-02-15T15:37:35Z</time>
      </trkpt>
      <trkpt lat="45.29511" lon="5.7625">
        <ele>1367.033</ele>
        <time>2019-02-15T15:37:46Z</time>
      </trkpt>
      <trkpt lat="45.29511" lon="5.76259">
        <ele>1367.488</ele>
        <time>2019-02-15T15:37:57Z</time>
      </trkpt>
      <trkpt lat="45.29506" lon="5.76275">
        <ele>1367.812</ele>
        <time>2019-02-15T15:38:08Z</time>
      </trkpt>
      <trkpt lat="45.29499" lon="5.76291">
        <ele>1368.476</ele>
        <time>2019-02-15T15:38:19Z</time>
      </trkpt>
      <trkpt lat="45.29486" lon="5.76302">
        <ele>1369.141</ele>
        <time>2019-02-15T15:38:30Z</time>
      </trkpt>
      <trkpt lat="45.2947" lon="5.76311">
        <ele>1369.697</ele>
        <time>2019-02-15T15:38:41Z</time>
      </trkpt>
      <trkpt lat="45.29451" lon="5.76322">
        <ele>1370.425</ele>
        <time>2019-02-15T15:38:52Z</time>
      </trkpt>
      <trkpt lat="45.29439" lon="5.76339">
        <ele>1371.033</ele>
        <time>2019-02-15T15:39:02Z</time>
      </trkpt>
      <trkpt lat="45.29433" lon="5.76358">
        <ele>1371.59</ele>
        <time>2019-02-15T15:39:13Z</time>
      </trkpt>
      <trkpt lat="45.29432" lon="5.76358">
        <ele>1371.684</ele>
        <time>2019-02-15T15:39:24Z</time>
      </trkpt>
      <trkpt lat="45.29431" lon="5.76361">
        <ele>1371.686</ele>
        <time>2019-02-15T15:39:34Z</time>
      </trkpt>
      <trkpt lat="45.29431" lon="5.7636">
        <ele>1371.715</ele>
        <time>2019-02-15T15:39:45Z</time>
      </trkpt>
      <trkpt lat="45.29431" lon="5.76361">
        <ele>1371.775</ele>
        <time>2019-02-15T15:39:56Z</time>
      </trkpt>
      <trkpt lat="45.29431" lon="5.7636">
        <ele>1371.804</ele>
        <time>2019-02-15T15:40:06Z</time>
      </trkpt>
      <trkpt lat="45.29431" lon="5.7636">
        <ele>1371.809</ele>
        <time>2019-02-15T15:40:17Z</time>
      </trkpt>
      <trkpt lat="45.29432" lon="5.7636">
        <ele>1371.854</ele>
        <time>2019-02-15T15:40:28Z</time>
      </trkpt>
      <trkpt lat="45.29432" lon="5.7636">
        <ele>1371.865</ele>
        <time>2019-02-15T15:40:38Z</time>
      </trkpt>
      <trkpt lat="45.29435" lon="5.76373">
        <ele>1372.206</ele>
        <time>2019-02-15T15:40:48Z</time>
      </trkpt>
      <trkpt lat="45.29442" lon="5.76388">
        <ele>1372.91</ele>
        <time>2019-02-15T15:40:59Z</time>
      </trkpt>
      <trkpt lat="45.29447" lon="5.76403">
        <ele>1373.669</ele>
        <time>2019-02-15T15:41:10Z</time>
      </trkpt>
      <trkpt lat="45.29445" lon="5.76404">
        <ele>1373.732</ele>
        <time>2019-02-15T15:41:21Z</time>
      </trkpt>
      <trkpt lat="45.29445" lon="5.76405">
        <ele>1373.671</ele>
        <time>2019-02-15T15:41:32Z</time>
      </trkpt>
      <trkpt lat="45.29444" lon="5.76406">
        <ele>1373.587</ele>
        <time>2019-02-15T15:41:43Z</time>
      </trkpt>
      <trkpt lat="45.29453" lon="5.76417">
        <ele>1373.063</ele>
        <time>2019-02-15T15:41:53Z</time>
      </trkpt>
      <trkpt lat="45.2946" lon="5.76433">
        <ele>1373.113</ele>
        <time>2019-02-15T15:42:04Z</time>
      </trkpt>
      <trkpt lat="45.29463" lon="5.76448">
        <ele>1373.899</ele>
        <time>2019-02-15T15:42:14Z</time>
      </trkpt>
      <trkpt lat="45.29466" lon="5.76462">
        <ele>1374.924</ele>
        <time>2019-02-15T15:42:25Z</time>
      </trkpt>
      <trkpt lat="45.29468" lon="5.76475">
        <ele>1376.281</ele>
        <time>2019-02-15T15:42:36Z</time>
      </trkpt>
      <trkpt lat="45.29464" lon="5.76485">
        <ele>1377.454</ele>
        <time>2019-02-15T15:42:46Z</time>
      </trkpt>
      <trkpt lat="45.29459" lon="5.765">
        <ele>1378.629</ele>
        <time>2019-02-15T15:42:56Z</time>
      </trkpt>
      <trkpt lat="45.29457" lon="5.76517">
        <ele>1379.304</ele>
        <time>2019-02-15T15:43:07Z</time>
      </trkpt>
      <trkpt lat="45.2946" lon="5.76535">
        <ele>1380.083</ele>
        <time>2019-02-15T15:43:18Z</time>
      </trkpt>
      <trkpt lat="45.29466" lon="5.76554">
        <ele>1380.801</ele>
        <time>2019-02-15T15:43:29Z</time>
      </trkpt>
      <trkpt lat="45.29462" lon="5.76553">
        <ele>1380.959</ele>
        <time>2019-02-15T15:43:39Z</time>
      </trkpt>
      <trkpt lat="45.29458" lon="5.76537">
        <ele>1380.789</ele>
        <time>2019-02-15T15:43:50Z</time>
      </trkpt>
      <trkpt lat="45.2945" lon="5.76526">
        <ele>1380.73</ele>
        <time>2019-02-15T15:44:00Z</time>
      </trkpt>
      <trkpt lat="45.29439" lon="5.76527">
        <ele>1381.163</ele>
        <time>2019-02-15T15:44:11Z</time>
      </trkpt>
      <trkpt lat="45.29434" lon="5.76546">
        <ele>1381.608</ele>
        <time>2019-02-15T15:44:21Z</time>
      </trkpt>
      <trkpt lat="45.29428" lon="5.76559">
        <ele>1382.008</ele>
        <time>2019-02-15T15:44:31Z</time>
      </trkpt>
      <trkpt lat="45.29423" lon="5.7657">
        <ele>1381.757</ele>
        <time>2019-02-15T15:44:42Z</time>
      </trkpt>
      <trkpt lat="45.29422" lon="5.76581">
        <ele>1381.827</ele>
        <time>2019-02-15T15:44:53Z</time>
      </trkpt>
      <trkpt lat="45.2942" lon="5.76583">
        <ele>1381.908</ele>
        <time>2019-02-15T15:45:03Z</time>
      </trkpt>
      <trkpt lat="45.29418" lon="5.76582">
        <ele>1382.055</ele>
        <time>2019-02-15T15:45:13Z</time>
      </trkpt>
      <trkpt lat="45.2942" lon="5.76585">
        <ele>1382.065</ele>
        <time>2019-02-15T15:45:24Z</time>
      </trkpt>
      <trkpt lat="45.29418" lon="5.76587">
        <ele>1382.23</ele>
        <time>2019-02-15T15:45:35Z</time>
      </trkpt>
      <trkpt lat="45.29418" lon="5.76584">
        <ele>1382.655</ele>
        <time>2019-02-15T15:45:46Z</time>
      </trkpt>
      <trkpt lat="45.29415" lon="5.7658">
        <ele>1382.996</ele>
        <time>2019-02-15T15:45:56Z</time>
      </trkpt>
      <trkpt lat="45.29416" lon="5.76591">
        <ele>1383.469</ele>
        <time>2019-02-15T15:46:07Z</time>
      </trkpt>
      <trkpt lat="45.29419" lon="5.76584">
        <ele>1383.507</ele>
        <time>2019-02-15T15:46:18Z</time>
      </trkpt>
      <trkpt lat="45.2942" lon="5.76586">
        <ele>1383.43</ele>
        <time>2019-02-15T15:46:29Z</time>
      </trkpt>
      <trkpt lat="45.29417" lon="5.76587">
        <ele>1383.516</ele>
        <time>2019-02-15T15:46:39Z</time>
      </trkpt>
      <trkpt lat="45.29414" lon="5.76585">
        <ele>1384.307</ele>
        <time>2019-02-15T15:46:50Z</time>
      </trkpt>
      <trkpt lat="45.29413" lon="5.76585">
        <ele>1384.408</ele>
        <time>2019-02-15T15:47:00Z</time>
      </trkpt>
      <trkpt lat="45.29413" lon="5.76586">
        <ele>1384.463</ele>
        <time>2019-02-15T15:47:11Z</time>
      </trkpt>
      <trkpt lat="45.29413" lon="5.76588">
        <ele>1384.515</ele>
        <time>2019-02-15T15:47:22Z</time>
      </trkpt>
      <trkpt lat="45.29415" lon="5.76582">
        <ele>1384.693</ele>
        <time>2019-02-15T15:47:32Z</time>
      </trkpt>
      <trkpt lat="45.29415" lon="5.76581">
        <ele>1384.774</ele>
        <time>2019-02-15T15:47:43Z</time>
      </trkpt>
      <trkpt lat="45.29415" lon="5.7658">
        <ele>1384.845</ele>
        <time>2019-02-15T15:47:54Z</time>
      </trkpt>
      <trkpt lat="45.29415" lon="5.76579">
        <ele>1384.877</ele>
        <time>2019-02-15T15:48:05Z</time>
      </trkpt>
      <trkpt lat="45.29417" lon="5.7658">
        <ele>1384.901</ele>
        <time>2019-02-15T15:48:16Z</time>
      </trkpt>
      <trkpt lat="45.29417" lon="5.76582">
        <ele>1384.933</ele>
        <time>2019-02-15T15:48:27Z</time>
      </trkpt>
      <trkpt lat="45.29417" lon="5.76583">
        <ele>1384.931</ele>
        <time>2019-02-15T15:48:38Z</time>
      </trkpt>
      <trkpt lat="45.29416" lon="5.76584">
        <ele>1384.852</ele>
        <time>2019-02-15T15:48:49Z</time>
      </trkpt>
      <trkpt lat="45.29417" lon="5.76586">
        <ele>1385.053</ele>
        <time>2019-02-15T15:48:59Z</time>
      </trkpt>
      <trkpt lat="45.2942" lon="5.76587">
        <ele>1385.355</ele>
        <time>2019-02-15T15:49:10Z</time>
      </trkpt>
      <trkpt lat="45.29421" lon="5.76585">
        <ele>1385.423</ele>
        <time>2019-02-15T15:49:22Z</time>
      </trkpt>
    </trkseg>
  </trk>
</gpx>